Darstellungsparameter: Aktuell verwendete Einstellungen:
Skalierung der Graphiken ... ?
xyx+y,   Skalierungsfaktor:      Skalierung: Modus: x, Faktor: 1
Darstellungszeitraum ... ?
Vom - - bis: - -   Zeitraum: 25.03.2009 - 24.04.2009
Min/Max/Avg-Anzeige ... ?
Zeige MMA aktuell
Zeige MMA Monat
Zeige MMA alles
Zeige --A aktuell
Zeige --A Monat
Zeige --A alles
Keine MMA-Anzeige
MMA:
Average (ber die Originaldaten)
MMA-Basis: 25.03.2009 - 24.04.2009
Quicknavigation für Darstellung... ?
Tage:      1T, 2T, 3T, 5T -1T -2T -3T -5T +1T +2T +3T +5T
Wochen: 1W, 2W, 3W -1W -2W -3W +1W +2W +3W
Monate: 1M, 3M, 6M -1M -3M -6M +1M +3M +6M
Jahre:    1J, 3J, 5J, 10J -1J -3J -5J -10J +1J +3J +5J +10J
Nutze für die Darstellung ... ?
Originaldaten oder Mittelwerte auf ...
Stundenbasis Tagesbasis Wochenbasis
Monatsbasis Jahresbasis      Datenbasis: Original-Daten
Darstellen als:
Statistik (Auto) Statistik J:M      Darstellung:
Zur Graphik,    zurück zur Übersicht aller Sensoren.
 
Tabellarische Datenbersicht: ?
 
Sensor: Nr:Datum:Temp:Abs-Feuchte:Windchill:Wind:
Aussen-T/F 1 25-03-2009 00:02:43 0 C 3.68 g/m*3 0 C 0 km/h
2 25-03-2009 00:14:43 0.1 C 3.71 g/m*3 0.1 C 0 km/h
3 25-03-2009 00:26:43 0.2 C 3.68 g/m*3 0.2 C 0 km/h
4 25-03-2009 00:38:44 0.2 C 3.68 g/m*3 0.2 C 0 km/h
5 25-03-2009 00:50:44 0.3 C 3.61 g/m*3 0.3 C 0 km/h
6 25-03-2009 01:02:44 0.2 C 3.59 g/m*3 0.2 C 0 km/h
7 25-03-2009 01:14:44 0.2 C 3.59 g/m*3 0.2 C 0 km/h
8 25-03-2009 01:26:44 0.1 C 3.56 g/m*3 0.1 C 0 km/h
9 25-03-2009 01:38:44 0.2 C 3.64 g/m*3 0.2 C 0 km/h
10 25-03-2009 01:50:44 0 C 3.63 g/m*3 0 C 0 km/h
11 25-03-2009 02:02:44 0.1 C 3.71 g/m*3 0.1 C 0 km/h
12 25-03-2009 02:14:44 0.2 C 3.78 g/m*3 0.2 C 0 km/h
13 25-03-2009 02:26:44 0.4 C 3.84 g/m*3 0.4 C 0 km/h
14 25-03-2009 02:38:44 0.2 C 3.78 g/m*3 0.2 C 0 km/h
15 25-03-2009 02:50:44 0.2 C 3.78 g/m*3 0.2 C 0 km/h
16 25-03-2009 03:02:44 0.3 C 3.86 g/m*3 0.3 C 0 km/h
17 25-03-2009 03:14:44 0.6 C 3.94 g/m*3 0.6 C 0 km/h
18 25-03-2009 03:26:44 0.9 C 3.97 g/m*3 0.9 C 0 km/h
19 25-03-2009 03:38:44 1.1 C 3.97 g/m*3 1.1 C 0 km/h
20 25-03-2009 03:50:44 1.1 C 3.92 g/m*3 1.1 C 0 km/h
21 25-03-2009 04:02:44 1.1 C 3.97 g/m*3 1.1 C 0 km/h
22 25-03-2009 04:14:44 1.2 C 4 g/m*3 1.2 C 0 km/h
23 25-03-2009 04:26:45 1.3 C 3.97 g/m*3 1.3 C 0 km/h
24 25-03-2009 04:38:45 1.3 C 3.97 g/m*3 1.3 C 0 km/h
25 25-03-2009 04:50:45 1.5 C 4.03 g/m*3 1.5 C 0 km/h
Sensor: Nr:Datum:Temp:Abs-Feuchte:Windchill:Wind:
Aussen-T/F 26 25-03-2009 05:02:45 1.6 C 4.06 g/m*3 1.6 C 0 km/h
27 25-03-2009 05:14:45 1.8 C 4.06 g/m*3 1.8 C 0 km/h
28 25-03-2009 05:26:45 1.8 C 4.06 g/m*3 1.8 C 0 km/h
29 25-03-2009 05:38:45 2.2 C 4.06 g/m*3 2.2 C 0 km/h
30 25-03-2009 05:50:45 2.4 C 4.11 g/m*3 2.4 C 0 km/h
31 25-03-2009 06:02:45 2.3 C 4.08 g/m*3 2.3 C 0 km/h
32 25-03-2009 06:14:45 2.1 C 4.2 g/m*3 2.1 C 0 km/h
33 25-03-2009 06:26:45 1.6 C 4.27 g/m*3 1.6 C 0 km/h
34 25-03-2009 06:38:43 1.7 C 4.46 g/m*3 1.7 C 0 km/h
35 25-03-2009 06:50:42 1.8 C 4.6 g/m*3 1.8 C 0 km/h
36 25-03-2009 07:02:43 1.8 C 4.71 g/m*3 1.8 C 0 km/h
37 25-03-2009 07:14:43 1.8 C 4.71 g/m*3 1.8 C 0 km/h
38 25-03-2009 07:26:43 1.9 C 4.8 g/m*3 1.9 C 0 km/h
39 25-03-2009 07:38:42 1.9 C 4.75 g/m*3 1.9 C 0 km/h
40 25-03-2009 07:50:42 1.9 C 4.75 g/m*3 1.9 C 0 km/h
41 25-03-2009 08:02:42 2.1 C 4.76 g/m*3 2.1 C 0 km/h
42 25-03-2009 08:14:41 2.3 C 4.82 g/m*3 2.3 C 0 km/h
43 25-03-2009 08:26:41 2.3 C 4.76 g/m*3 2.3 C 0 km/h
44 25-03-2009 08:38:42 2.4 C 4.74 g/m*3 2.4 C 0 km/h
45 25-03-2009 08:50:41 2.3 C 4.65 g/m*3 2.3 C 0 km/h
46 25-03-2009 09:02:41 2.5 C 4.66 g/m*3 2.5 C 0 km/h
47 25-03-2009 09:14:42 2.6 C 4.63 g/m*3 2.6 C 0 km/h
48 25-03-2009 09:26:42 2.9 C 4.61 g/m*3 2.9 C 0 km/h
49 25-03-2009 09:38:41 3 C 4.46 g/m*3 3 C 0 km/h
50 25-03-2009 09:50:41 3.1 C 4.49 g/m*3 3.1 C 0 km/h
Sensor: Nr:Datum:Temp:Abs-Feuchte:Windchill:Wind:
Aussen-T/F 51 25-03-2009 10:02:41 3.3 C 4.49 g/m*3 3.3 C 0 km/h
52 25-03-2009 10:14:41 3.3 C 4.49 g/m*3 3.3 C 0 km/h
53 25-03-2009 10:26:41 3.1 C 4.49 g/m*3 3.1 C 0 km/h
54 25-03-2009 10:38:41 3.3 C 4.55 g/m*3 3.3 C 0 km/h
55 25-03-2009 10:50:40 3.8 C 4.52 g/m*3 3.8 C 0 km/h
56 25-03-2009 11:02:41 3.8 C 4.52 g/m*3 3.8 C 0 km/h
57 25-03-2009 11:14:40 4 C 4.39 g/m*3 4 C 0 km/h
58 25-03-2009 11:26:40 4 C 4.45 g/m*3 4 C 0 km/h
59 25-03-2009 11:38:40 4.3 C 4.48 g/m*3 4.3 C 0 km/h
60 25-03-2009 11:50:40 4.2 C 4.45 g/m*3 4.2 C 0 km/h
61 25-03-2009 12:02:40 4.2 C 4.45 g/m*3 4.2 C 0 km/h
62 25-03-2009 12:14:39 4.7 C 4.53 g/m*3 4.7 C 0 km/h
63 25-03-2009 12:26:39 4.4 C 4.37 g/m*3 4.4 C 0 km/h
64 25-03-2009 12:38:39 4.3 C 4.54 g/m*3 4.3 C 0 km/h
65 25-03-2009 12:50:39 4.4 C 4.51 g/m*3 4.4 C 0 km/h
66 25-03-2009 13:02:39 4.3 C 4.54 g/m*3 4.3 C 0 km/h
67 25-03-2009 13:14:39 4.4 C 4.57 g/m*3 4.4 C 0 km/h
68 25-03-2009 13:26:39 5.3 C 4.71 g/m*3 5.3 C 0 km/h
69 25-03-2009 13:38:39 5.9 C 4.69 g/m*3 5.9 C 0 km/h
70 25-03-2009 13:50:39 5.6 C 4.52 g/m*3 5.6 C 0 km/h
71 25-03-2009 14:02:38 5.6 C 4.6 g/m*3 5.6 C 0 km/h
72 25-03-2009 14:14:39 6.1 C 4.6 g/m*3 6.1 C 0 km/h
73 25-03-2009 14:26:40 6 C 4.5 g/m*3 6 C 0 km/h
74 25-03-2009 14:38:38 6 C 4.5 g/m*3 6 C 0 km/h
75 25-03-2009 14:50:38 6.1 C 4.6 g/m*3 6.1 C 0 km/h
Sensor: Nr:Datum:Temp:Abs-Feuchte:Windchill:Wind:
Aussen-T/F 76 25-03-2009 15:02:37 5.7 C 4.63 g/m*3 5.7 C 0 km/h
77 25-03-2009 15:14:38 5 C 4.89 g/m*3 5 C 0 km/h
78 25-03-2009 15:26:38 4.7 C 5.13 g/m*3 4.7 C 0 km/h
79 25-03-2009 15:38:38 5.3 C 5.41 g/m*3 5.3 C 0 km/h
80 25-03-2009 15:50:37 5.4 C 5.44 g/m*3 5.4 C 0 km/h
81 25-03-2009 16:02:38 5.7 C 5.41 g/m*3 5.7 C 0 km/h
82 25-03-2009 16:14:37 6.5 C 5.47 g/m*3 6.5 C 0 km/h
83 25-03-2009 16:26:37 6.9 C 5.31 g/m*3 6.9 C 0 km/h
84 25-03-2009 16:38:37 6.9 C 5.08 g/m*3 6.9 C 0 km/h
85 25-03-2009 16:50:37 6.4 C 4.99 g/m*3 6.4 C 0 km/h
86 25-03-2009 17:02:37 5.8 C 5.09 g/m*3 5.8 C 0 km/h
87 25-03-2009 17:14:37 4.7 C 5.2 g/m*3 4.7 C 0 km/h
88 25-03-2009 17:26:37 4.5 C 5.32 g/m*3 4.5 C 0 km/h
89 25-03-2009 17:38:36 4.6 C 5.49 g/m*3 4.6 C 0 km/h
90 25-03-2009 17:50:37 4.9 C 5.74 g/m*3 4.9 C 0 km/h
91 25-03-2009 18:02:36 4.8 C 5.7 g/m*3 4.8 C 0 km/h
92 25-03-2009 18:14:36 4.8 C 5.7 g/m*3 4.8 C 0 km/h
93 25-03-2009 18:26:36 4.7 C 5.6 g/m*3 4.7 C 0 km/h
94 25-03-2009 18:38:36 4.5 C 5.59 g/m*3 4.5 C 0 km/h
95 25-03-2009 18:50:36 4.2 C 5.41 g/m*3 4.2 C 0 km/h
96 25-03-2009 19:02:35 4 C 5.34 g/m*3 4 C 0 km/h
97 25-03-2009 19:14:36 3.8 C 5.4 g/m*3 3.8 C 0 km/h
98 25-03-2009 19:26:37 3.7 C 5.42 g/m*3 3.7 C 0 km/h
99 25-03-2009 19:38:35 3.6 C 5.45 g/m*3 3.6 C 0 km/h
100 25-03-2009 19:50:36 3.5 C 5.41 g/m*3 3.5 C 0 km/h
Sensor: Nr:Datum:Temp:Abs-Feuchte:Windchill:Wind:
Aussen-T/F 101 25-03-2009 20:02:35 3.6 C 5.51 g/m*3 3.6 C 0 km/h
102 25-03-2009 20:14:35 3.5 C 5.47 g/m*3 3.5 C 0 km/h
103 25-03-2009 20:26:35 3.6 C 5.57 g/m*3 3.6 C 0 km/h
104 25-03-2009 20:38:35 3.6 C 5.57 g/m*3 3.6 C 0 km/h
105 25-03-2009 20:50:35 3.6 C 5.57 g/m*3 3.6 C 0 km/h
106 25-03-2009 21:02:34 3.5 C 5.53 g/m*3 3.5 C 0 km/h
107 25-03-2009 21:14:34 3.5 C 5.53 g/m*3 3.5 C 0 km/h
108 25-03-2009 21:26:34 3.6 C 5.63 g/m*3 3.6 C 0 km/h
109 25-03-2009 21:38:35 3.7 C 5.67 g/m*3 3.7 C 0 km/h
110 25-03-2009 21:50:34 3.7 C 5.67 g/m*3 3.7 C 0 km/h
111 25-03-2009 22:02:35 3.7 C 5.67 g/m*3 3.7 C 0 km/h
112 25-03-2009 22:14:33 3.7 C 5.67 g/m*3 3.7 C 0 km/h
113 25-03-2009 22:26:33 3.8 C 5.71 g/m*3 3.8 C 0 km/h
114 25-03-2009 22:38:34 3.9 C 5.68 g/m*3 3.9 C 0 km/h
115 25-03-2009 22:50:33 3.9 C 5.62 g/m*3 3.9 C 0 km/h
116 25-03-2009 23:02:33 3.9 C 5.62 g/m*3 3.9 C 0 km/h
117 25-03-2009 23:14:34 4.1 C 5.63 g/m*3 4.1 C 0 km/h
118 25-03-2009 23:26:34 4.3 C 5.64 g/m*3 4.3 C 0 km/h
119 25-03-2009 23:38:33 4.4 C 5.48 g/m*3 4.4 C 0 km/h
120 25-03-2009 23:50:33 4.4 C 5.35 g/m*3 4.4 C 0 km/h
121 26-03-2009 00:02:33 4.3 C 5.25 g/m*3 4.3 C 0 km/h
122 26-03-2009 00:14:32 4.2 C 5.28 g/m*3 4.2 C 0 km/h
123 26-03-2009 00:26:32 4 C 5.28 g/m*3 4 C 0 km/h
124 26-03-2009 00:38:33 4 C 5.28 g/m*3 4 C 0 km/h
125 26-03-2009 00:50:32 4.1 C 5.31 g/m*3 4.1 C 0 km/h
Sensor: Nr:Datum:Temp:Abs-Feuchte:Windchill:Wind:
Aussen-T/F 126 26-03-2009 01:02:32 4.2 C 5.28 g/m*3 4.2 C 0 km/h
127 26-03-2009 01:14:32 4.3 C 5.25 g/m*3 4.3 C 0 km/h
128 26-03-2009 01:26:32 4.3 C 5.25 g/m*3 4.3 C 0 km/h
129 26-03-2009 01:38:32 4.2 C 5.22 g/m*3 4.2 C 0 km/h
130 26-03-2009 01:50:31 4.2 C 5.22 g/m*3 4.2 C 0 km/h
131 26-03-2009 02:02:32 4.2 C 5.22 g/m*3 4.2 C 0 km/h
132 26-03-2009 02:14:31 4.1 C 5.25 g/m*3 4.1 C 0 km/h
133 26-03-2009 02:26:31 4 C 5.34 g/m*3 4 C 0 km/h
134 26-03-2009 02:38:31 4 C 5.4 g/m*3 4 C 0 km/h
135 26-03-2009 02:51:32 4 C 5.4 g/m*3 4 C 0 km/h
136 26-03-2009 03:03:32 4 C 5.4 g/m*3 4 C 0 km/h
137 26-03-2009 03:15:32 4 C 5.4 g/m*3 4 C 0 km/h
138 26-03-2009 03:27:32 4 C 5.34 g/m*3 4 C 0 km/h
139 26-03-2009 03:39:32 4.1 C 5.38 g/m*3 4.1 C 0 km/h
140 26-03-2009 03:51:32 4.1 C 5.31 g/m*3 4.1 C 0 km/h
141 26-03-2009 04:03:32 4.1 C 5.25 g/m*3 4.1 C 0 km/h
142 26-03-2009 04:15:31 4.1 C 5.18 g/m*3 4.1 C 0 km/h
143 26-03-2009 04:27:31 4.2 C 5.09 g/m*3 4.2 C 0 km/h
144 26-03-2009 04:39:31 4.2 C 5.03 g/m*3 4.2 C 0 km/h
145 26-03-2009 04:51:31 4.2 C 5.03 g/m*3 4.2 C 0 km/h
146 26-03-2009 05:03:31 4.2 C 5.03 g/m*3 4.2 C 0 km/h
147 26-03-2009 05:15:31 4.1 C 5.06 g/m*3 4.1 C 0 km/h
148 26-03-2009 05:27:31 4.2 C 5.09 g/m*3 4.2 C 0 km/h
149 26-03-2009 05:39:31 4.3 C 5.06 g/m*3 4.3 C 0 km/h
150 26-03-2009 05:51:31 4.3 C 5.06 g/m*3 4.3 C 0 km/h
Sensor: Nr:Datum:Temp:Abs-Feuchte:Windchill:Wind:
Aussen-T/F 151 26-03-2009 06:03:30 4.2 C 5.03 g/m*3 4.2 C 0 km/h
152 26-03-2009 06:15:31 4 C 4.96 g/m*3 4 C 0 km/h
153 26-03-2009 06:27:32 4.1 C 4.99 g/m*3 4.1 C 0 km/h
154 26-03-2009 06:39:30 4 C 4.96 g/m*3 4 C 0 km/h
155 26-03-2009 06:51:30 3.8 C 4.96 g/m*3 3.8 C 0 km/h
156 26-03-2009 07:03:30 3.8 C 4.96 g/m*3 3.8 C 0 km/h
157 26-03-2009 07:15:30 4.2 C 5.09 g/m*3 4.2 C 0 km/h
158 26-03-2009 07:27:30 4.5 C 5.06 g/m*3 4.5 C 0 km/h
159 26-03-2009 07:39:30 4.5 C 4.93 g/m*3 4.5 C 0 km/h
160 26-03-2009 07:51:30 4.7 C 4.93 g/m*3 4.7 C 0 km/h
161 26-03-2009 08:03:30 5 C 4.89 g/m*3 5 C 0 km/h
162 26-03-2009 08:15:29 5.3 C 4.99 g/m*3 5.3 C 0 km/h
163 26-03-2009 08:27:29 5.5 C 4.99 g/m*3 5.5 C 0 km/h
164 26-03-2009 08:39:29 6.1 C 5.04 g/m*3 6.1 C 0 km/h
165 26-03-2009 08:51:29 6.4 C 5.07 g/m*3 6.4 C 0 km/h
166 26-03-2009 09:03:29 6.5 C 5.1 g/m*3 6.5 C 0 km/h
167 26-03-2009 09:15:29 6.6 C 5.06 g/m*3 6.6 C 0 km/h
168 26-03-2009 09:27:29 7 C 5.11 g/m*3 7 C 0 km/h
169 26-03-2009 09:39:29 7.4 C 5.17 g/m*3 7.4 C 0 km/h
170 26-03-2009 09:51:29 7.8 C 5.14 g/m*3 7.8 C 0 km/h
171 26-03-2009 10:03:29 7.9 C 5.09 g/m*3 7.9 C 0 km/h
172 26-03-2009 10:15:28 7.7 C 5.03 g/m*3 7.7 C 0 km/h
173 26-03-2009 10:27:28 7.8 C 4.98 g/m*3 7.8 C 0 km/h
174 26-03-2009 10:39:28 8.2 C 5.02 g/m*3 8.2 C 0 km/h
175 26-03-2009 10:51:28 8.5 C 4.95 g/m*3 8.5 C 0 km/h
Sensor: Nr:Datum:Temp:Abs-Feuchte:Windchill:Wind:
Aussen-T/F 176 26-03-2009 11:03:28 9.1 C 5.06 g/m*3 9.1 C 0 km/h
177 26-03-2009 11:15:27 8.8 C 4.96 g/m*3 8.8 C 0 km/h
178 26-03-2009 11:27:27 8.4 C 5.01 g/m*3 8.4 C 0 km/h
179 26-03-2009 11:39:28 8.4 C 5.09 g/m*3 8.4 C 0 km/h
180 26-03-2009 11:51:27 9 C 5.11 g/m*3 9 C 0 km/h
181 26-03-2009 12:03:27 9.3 C 4.94 g/m*3 9.3 C 0 km/h
182 26-03-2009 12:15:27 9.2 C 5 g/m*3 9.2 C 0 km/h
183 26-03-2009 12:27:27 9 C 4.94 g/m*3 9 C 0 km/h
184 26-03-2009 12:39:27 8.6 C 5.16 g/m*3 8.6 C 0 km/h
185 26-03-2009 12:51:27 8.2 C 5.19 g/m*3 8.2 C 0 km/h
186 26-03-2009 13:03:26 8 C 5.29 g/m*3 8 C 0 km/h
187 26-03-2009 13:15:27 7.7 C 5.35 g/m*3 7.7 C 0 km/h
188 26-03-2009 13:27:27 7.6 C 5.48 g/m*3 7.6 C 0 km/h
189 26-03-2009 13:39:26 7.5 C 5.6 g/m*3 7.5 C 0 km/h
190 26-03-2009 13:51:26 7.2 C 5.73 g/m*3 7.2 C 0 km/h
191 26-03-2009 14:03:26 7 C 5.81 g/m*3 7 C 0 km/h
192 26-03-2009 14:15:26 7 C 5.97 g/m*3 7 C 0 km/h
193 26-03-2009 14:27:26 7.2 C 5.89 g/m*3 7.2 C 0 km/h
194 26-03-2009 14:39:26 7.3 C 5.77 g/m*3 7.3 C 0 km/h
195 26-03-2009 14:51:25 7.1 C 5.69 g/m*3 7.1 C 0 km/h
196 26-03-2009 15:03:26 7.1 C 5.69 g/m*3 7.1 C 0 km/h
197 26-03-2009 15:15:25 7.1 C 5.62 g/m*3 7.1 C 0 km/h
198 26-03-2009 15:27:25 7.1 C 5.62 g/m*3 7.1 C 0 km/h
199 26-03-2009 15:39:25 7.3 C 5.61 g/m*3 7.3 C 0 km/h
200 26-03-2009 15:51:25 7.3 C 5.53 g/m*3 7.3 C 0 km/h
Sensor: Nr:Datum:Temp:Abs-Feuchte:Windchill:Wind:
Aussen-T/F 201 26-03-2009 16:03:25 7.2 C 5.65 g/m*3 7.2 C 0 km/h
202 26-03-2009 16:15:25 7.3 C 5.61 g/m*3 7.3 C 0 km/h
203 26-03-2009 16:27:25 7.4 C 5.65 g/m*3 7.4 C 0 km/h
204 26-03-2009 16:39:24 7.4 C 5.73 g/m*3 7.4 C 0 km/h
205 26-03-2009 16:51:25 7.2 C 5.81 g/m*3 7.2 C 0 km/h
206 26-03-2009 17:03:24 7.1 C 5.93 g/m*3 7.1 C 0 km/h
207 26-03-2009 17:15:24 7.1 C 5.93 g/m*3 7.1 C 0 km/h
208 26-03-2009 17:27:24 7.3 C 5.93 g/m*3 7.3 C 0 km/h
209 26-03-2009 17:39:24 7.3 C 5.93 g/m*3 7.3 C 0 km/h
210 26-03-2009 17:51:24 7.3 C 5.93 g/m*3 7.3 C 0 km/h
211 26-03-2009 18:03:23 7.3 C 6 g/m*3 7.3 C 0 km/h
212 26-03-2009 18:15:24 7.3 C 5.93 g/m*3 7.3 C 0 km/h
213 26-03-2009 18:27:24 7.5 C 5.92 g/m*3 7.5 C 0 km/h
214 26-03-2009 18:39:24 7.5 C 5.84 g/m*3 7.5 C 0 km/h
215 26-03-2009 18:51:23 7.6 C 5.8 g/m*3 7.6 C 0 km/h
216 26-03-2009 19:03:23 7.5 C 5.76 g/m*3 7.5 C 0 km/h
217 26-03-2009 19:15:23 7.5 C 5.68 g/m*3 7.5 C 0 km/h
218 26-03-2009 19:27:23 7.6 C 5.64 g/m*3 7.6 C 0 km/h
219 26-03-2009 19:39:23 7.6 C 5.64 g/m*3 7.6 C 0 km/h
220 26-03-2009 19:51:22 7.4 C 5.65 g/m*3 7.4 C 0 km/h
221 26-03-2009 20:03:23 7.2 C 5.65 g/m*3 7.2 C 0 km/h
222 26-03-2009 20:15:22 7.4 C 5.81 g/m*3 7.4 C 0 km/h
223 26-03-2009 20:27:22 7.7 C 5.84 g/m*3 7.7 C 0 km/h
224 26-03-2009 20:39:22 7.7 C 5.84 g/m*3 7.7 C 0 km/h
225 26-03-2009 20:51:22 7.7 C 5.92 g/m*3 7.7 C 0 km/h
Sensor: Nr:Datum:Temp:Abs-Feuchte:Windchill:Wind:
Aussen-T/F 226 26-03-2009 21:03:22 7.6 C 5.96 g/m*3 7.6 C 0 km/h
227 26-03-2009 21:15:22 7.6 C 6.04 g/m*3 7.6 C 0 km/h
228 26-03-2009 21:27:22 7.7 C 6.08 g/m*3 7.7 C 0 km/h
229 26-03-2009 21:39:21 7.7 C 6.08 g/m*3 7.7 C 0 km/h
230 26-03-2009 21:51:22 7.7 C 6 g/m*3 7.7 C 0 km/h
231 26-03-2009 22:04:21 7.6 C 6.12 g/m*3 7.6 C 0 km/h
232 26-03-2009 22:16:21 7.5 C 6.32 g/m*3 7.5 C 0 km/h
233 26-03-2009 22:28:21 7.5 C 6.4 g/m*3 7.5 C 0 km/h
234 26-03-2009 22:40:21 7.6 C 6.36 g/m*3 7.6 C 0 km/h
235 26-03-2009 22:52:21 7.9 C 6.32 g/m*3 7.9 C 0 km/h
236 26-03-2009 23:04:21 8 C 6.2 g/m*3 8 C 0 km/h
237 26-03-2009 23:16:21 8 C 6.2 g/m*3 8 C 0 km/h
238 26-03-2009 23:28:21 7.9 C 6.32 g/m*3 7.9 C 0 km/h
239 26-03-2009 23:40:21 7.9 C 6.41 g/m*3 7.9 C 0 km/h
240 26-03-2009 23:52:21 7.6 C 6.44 g/m*3 7.6 C 0 km/h
241 27-03-2009 00:04:21 7.5 C 6.56 g/m*3 7.5 C 0 km/h
242 27-03-2009 00:16:21 7.5 C 6.64 g/m*3 7.5 C 0 km/h
243 27-03-2009 00:28:22 7.6 C 6.69 g/m*3 7.6 C 0 km/h
244 27-03-2009 00:40:22 7.6 C 6.69 g/m*3 7.6 C 0 km/h
245 27-03-2009 00:52:22 7.6 C 6.69 g/m*3 7.6 C 0 km/h
246 27-03-2009 01:04:22 7.6 C 6.69 g/m*3 7.6 C 0 km/h
247 27-03-2009 01:16:22 7.4 C 6.76 g/m*3 7.4 C 0 km/h
248 27-03-2009 01:28:22 7.4 C 6.84 g/m*3 7.4 C 0 km/h
249 27-03-2009 01:40:22 7.3 C 6.95 g/m*3 7.3 C 0 km/h
250 27-03-2009 01:52:22 7.4 C 7 g/m*3 7.4 C 0 km/h
Sensor: Nr:Datum:Temp:Abs-Feuchte:Windchill:Wind:
Aussen-T/F 251 27-03-2009 02:04:22 7.4 C 7 g/m*3 7.4 C 0 km/h
252 27-03-2009 02:16:22 7.3 C 6.95 g/m*3 7.3 C 0 km/h
253 27-03-2009 02:28:22 7.2 C 6.83 g/m*3 7.2 C 0 km/h
254 27-03-2009 02:40:22 7.3 C 6.72 g/m*3 7.3 C 0 km/h
255 27-03-2009 02:52:22 7.4 C 6.6 g/m*3 7.4 C 0 km/h
256 27-03-2009 03:04:22 7.6 C 6.53 g/m*3 7.6 C 0 km/h
257 27-03-2009 03:16:22 7.5 C 6.4 g/m*3 7.5 C 0 km/h
258 27-03-2009 03:28:22 7.5 C 6.4 g/m*3 7.5 C 0 km/h
259 27-03-2009 03:40:22 7.5 C 6.4 g/m*3 7.5 C 0 km/h
260 27-03-2009 03:52:22 7.4 C 6.36 g/m*3 7.4 C 0 km/h
261 27-03-2009 04:04:22 7.4 C 6.52 g/m*3 7.4 C 0 km/h
262 27-03-2009 04:16:23 7.3 C 6.48 g/m*3 7.3 C 0 km/h
263 27-03-2009 04:28:23 7.3 C 6.56 g/m*3 7.3 C 0 km/h
264 27-03-2009 04:40:23 7.1 C 6.55 g/m*3 7.1 C 0 km/h
265 27-03-2009 04:52:23 7 C 6.51 g/m*3 7 C 0 km/h
266 27-03-2009 05:04:23 6.9 C 6.62 g/m*3 6.9 C 0 km/h
267 27-03-2009 05:16:23 7 C 6.43 g/m*3 7 C 0 km/h
268 27-03-2009 05:28:23 7 C 6.35 g/m*3 7 C 0 km/h
269 27-03-2009 05:40:23 7.1 C 6.16 g/m*3 7.1 C 0 km/h
270 27-03-2009 05:52:23 7.1 C 5.85 g/m*3 7.1 C 0 km/h
271 27-03-2009 06:04:23 7.3 C 5.53 g/m*3 7.3 C 0 km/h
272 27-03-2009 06:16:23 7.2 C 5.26 g/m*3 7.2 C 0 km/h
273 27-03-2009 06:28:23 7 C 5.19 g/m*3 7 C 0 km/h
274 27-03-2009 06:40:23 7 C 5.27 g/m*3 7 C 0 km/h
275 27-03-2009 06:52:23 6.9 C 5.47 g/m*3 6.9 C 0 km/h
Sensor: Nr:Datum:Temp:Abs-Feuchte:Windchill:Wind:
Aussen-T/F 276 27-03-2009 07:04:21 7 C 5.5 g/m*3 7 C 0 km/h
277 27-03-2009 07:16:22 7.1 C 5.46 g/m*3 7.1 C 0 km/h
278 27-03-2009 07:28:22 7.2 C 5.18 g/m*3 7.2 C 0 km/h
279 27-03-2009 07:40:21 7.3 C 5.14 g/m*3 7.3 C 0 km/h
280 27-03-2009 07:52:21 7.3 C 5.21 g/m*3 7.3 C 0 km/h
281 27-03-2009 08:04:21 7.5 C 5.2 g/m*3 7.5 C 0 km/h
282 27-03-2009 08:16:21 7.6 C 5.08 g/m*3 7.6 C 0 km/h
283 27-03-2009 08:28:21 7.8 C 5.06 g/m*3 7.8 C 0 km/h
284 27-03-2009 08:40:21 8 C 4.96 g/m*3 8 C 0 km/h
285 27-03-2009 08:52:21 8 C 4.96 g/m*3 8 C 0 km/h
286 27-03-2009 09:04:21 8.1 C 4.99 g/m*3 8.1 C 0 km/h
287 27-03-2009 09:16:20 8 C 4.88 g/m*3 8 C 0 km/h
288 27-03-2009 09:28:20 7.9 C 4.93 g/m*3 7.9 C 0 km/h
289 27-03-2009 09:40:20 8.4 C 4.84 g/m*3 8.4 C 0 km/h
290 27-03-2009 09:52:20 8.5 C 4.78 g/m*3 8.5 C 0 km/h
291 27-03-2009 10:04:20 8.5 C 4.7 g/m*3 8.5 C 0 km/h
292 27-03-2009 10:16:19 7 C 5.11 g/m*3 7 C 0 km/h
293 27-03-2009 10:28:19 7.2 C 5.65 g/m*3 7.2 C 0 km/h
294 27-03-2009 10:40:20 7.7 C 5.76 g/m*3 7.7 C 0 km/h
295 27-03-2009 10:52:19 8.3 C 5.14 g/m*3 8.3 C 0 km/h
296 27-03-2009 11:04:19 8.4 C 4.58 g/m*3 8.4 C 0 km/h
297 27-03-2009 11:16:19 8.5 C 4.35 g/m*3 8.5 C 0 km/h
298 27-03-2009 11:28:19 7.9 C 4.76 g/m*3 7.9 C 0 km/h
299 27-03-2009 11:40:19 8.1 C 4.99 g/m*3 8.1 C 0 km/h
300 27-03-2009 11:52:19 9 C 4.67 g/m*3 9 C 0 km/h
Sensor: Nr:Datum:Temp:Abs-Feuchte:Windchill:Wind:
Aussen-T/F 301 27-03-2009 12:04:18 9.3 C 4.31 g/m*3 9.3 C 0 km/h
302 27-03-2009 12:16:19 9.3 C 4.13 g/m*3 9.3 C 0 km/h
303 27-03-2009 12:28:19 8.8 C 4 g/m*3 8.8 C 0 km/h
304 27-03-2009 12:40:18 8.9 C 4.2 g/m*3 8.9 C 0 km/h
305 27-03-2009 12:52:18 9.1 C 3.99 g/m*3 9.1 C 0 km/h
306 27-03-2009 13:04:19 9.7 C 3.87 g/m*3 9.7 C 0 km/h
307 27-03-2009 13:16:18 9.7 C 3.69 g/m*3 9.7 C 0 km/h
308 27-03-2009 13:28:18 9.6 C 3.39 g/m*3 9.6 C 0 km/h
309 27-03-2009 13:40:18 9.7 C 3.41 g/m*3 9.7 C 0 km/h
310 27-03-2009 13:52:18 9.8 C 3.43 g/m*3 9.8 C 0 km/h
311 27-03-2009 14:04:18 10.4 C 3.37 g/m*3 10.4 C 0 km/h
312 27-03-2009 14:16:17 10.3 C 3.35 g/m*3 10.3 C 0 km/h
313 27-03-2009 14:28:17 10.3 C 3.35 g/m*3 10.3 C 0 km/h
314 27-03-2009 14:40:17 10.2 C 3.43 g/m*3 10.2 C 0 km/h
315 27-03-2009 14:52:17 10.1 C 3.69 g/m*3 10.1 C 0 km/h
316 27-03-2009 15:04:17 9.7 C 3.69 g/m*3 9.7 C 0 km/h
317 27-03-2009 15:16:17 9.6 C 3.85 g/m*3 9.6 C 0 km/h
318 27-03-2009 15:28:17 9.7 C 3.69 g/m*3 9.7 C 0 km/h
319 27-03-2009 15:40:17 9.8 C 3.8 g/m*3 9.8 C 0 km/h
320 27-03-2009 15:52:17 9.6 C 3.76 g/m*3 9.6 C 0 km/h
321 27-03-2009 16:04:16 8.5 C 3.84 g/m*3 8.5 C 0 km/h
322 27-03-2009 16:16:16 7.9 C 3.94 g/m*3 7.9 C 0 km/h
323 27-03-2009 16:28:16 7.9 C 4.11 g/m*3 7.9 C 0 km/h
324 27-03-2009 16:40:16 7.4 C 4.37 g/m*3 7.4 C 0 km/h
325 27-03-2009 16:52:16 6.9 C 5.08 g/m*3 6.9 C 0 km/h
Sensor: Nr:Datum:Temp:Abs-Feuchte:Windchill:Wind:
Aussen-T/F 326 27-03-2009 17:04:15 6.6 C 5.36 g/m*3 6.6 C 0 km/h
327 27-03-2009 17:16:16 6.6 C 5.13 g/m*3 6.6 C 0 km/h
328 27-03-2009 17:28:16 6.3 C 5.33 g/m*3 6.3 C 0 km/h
329 27-03-2009 17:40:16 5.9 C 5.34 g/m*3 5.9 C 0 km/h
330 27-03-2009 17:52:15 5.2 C 5.23 g/m*3 5.2 C 0 km/h
331 27-03-2009 18:04:16 5 C 5.37 g/m*3 5 C 0 km/h
332 27-03-2009 18:16:15 4.9 C 5.54 g/m*3 4.9 C 0 km/h
333 27-03-2009 18:28:15 4.9 C 5.54 g/m*3 4.9 C 0 km/h
334 27-03-2009 18:40:15 5.1 C 5.47 g/m*3 5.1 C 0 km/h
335 27-03-2009 18:52:15 5.6 C 5.23 g/m*3 5.6 C 0 km/h
336 27-03-2009 19:04:15 5.7 C 4.84 g/m*3 5.7 C 0 km/h
337 27-03-2009 19:16:14 5.9 C 4.76 g/m*3 5.9 C 0 km/h
338 27-03-2009 19:28:14 6 C 4.79 g/m*3 6 C 0 km/h
339 27-03-2009 19:40:02 5.8 C 4.94 g/m*3 5.8 C 0 km/h
340 27-03-2009 19:52:01 5.8 C 5.01 g/m*3 5.8 C 0 km/h
341 27-03-2009 20:04:02 5.6 C 5.09 g/m*3 5.6 C 0 km/h
342 27-03-2009 20:16:01 5.6 C 5.16 g/m*3 5.6 C 0 km/h
343 27-03-2009 20:28:01 5.5 C 5.13 g/m*3 5.5 C 0 km/h
344 27-03-2009 20:40:01 5.3 C 5.13 g/m*3 5.3 C 0 km/h
345 27-03-2009 20:52:01 5 C 5.1 g/m*3 5 C 0 km/h
346 27-03-2009 21:04:02 4.8 C 5.1 g/m*3 4.8 C 0 km/h
347 27-03-2009 21:16:01 4.8 C 5.16 g/m*3 4.8 C 0 km/h
348 27-03-2009 21:28:01 4.9 C 5.27 g/m*3 4.9 C 0 km/h
349 27-03-2009 21:40:01 4.7 C 5.26 g/m*3 4.7 C 0 km/h
350 27-03-2009 21:52:01 5.2 C 5.37 g/m*3 5.2 C 0 km/h
Sensor: Nr:Datum:Temp:Abs-Feuchte:Windchill:Wind:
Aussen-T/F 351 27-03-2009 22:04:01 5.7 C 5.34 g/m*3 5.7 C 0 km/h
352 27-03-2009 22:16:00 5.8 C 5.16 g/m*3 5.8 C 0 km/h
353 27-03-2009 22:28:00 5.7 C 5.12 g/m*3 5.7 C 0 km/h
354 27-03-2009 22:40:01 5.6 C 5.16 g/m*3 5.6 C 0 km/h
355 27-03-2009 22:53:01 5.6 C 5.23 g/m*3 5.6 C 0 km/h
356 27-03-2009 23:05:01 5.3 C 5.2 g/m*3 5.3 C 0 km/h
357 27-03-2009 23:17:01 5.1 C 5.27 g/m*3 5.1 C 0 km/h
358 27-03-2009 23:29:01 4.8 C 5.43 g/m*3 4.8 C 0 km/h
359 27-03-2009 23:41:01 4.8 C 5.57 g/m*3 4.8 C 0 km/h
360 27-03-2009 23:53:01 4.8 C 5.63 g/m*3 4.8 C 0 km/h
361 28-03-2009 00:05:01 4.9 C 5.74 g/m*3 4.9 C 0 km/h
362 28-03-2009 00:17:01 4.8 C 5.77 g/m*3 4.8 C 0 km/h
363 28-03-2009 00:29:01 4.7 C 5.8 g/m*3 4.7 C 0 km/h
364 28-03-2009 00:41:01 4.4 C 5.75 g/m*3 4.4 C 0 km/h
365 28-03-2009 00:53:01 4 C 5.59 g/m*3 4 C 0 km/h
366 28-03-2009 01:05:01 3.6 C 5.45 g/m*3 3.6 C 0 km/h
367 28-03-2009 01:17:01 3.6 C 5.51 g/m*3 3.6 C 0 km/h
368 28-03-2009 01:29:02 3.4 C 5.44 g/m*3 3.4 C 0 km/h
369 28-03-2009 01:41:02 3.3 C 5.4 g/m*3 3.3 C 0 km/h
370 28-03-2009 01:53:02 3.4 C 5.5 g/m*3 3.4 C 0 km/h
371 28-03-2009 02:05:02 3.4 C 5.5 g/m*3 3.4 C 0 km/h
372 28-03-2009 02:17:02 3.5 C 5.6 g/m*3 3.5 C 0 km/h
373 28-03-2009 02:29:02 3.7 C 5.67 g/m*3 3.7 C 0 km/h
374 28-03-2009 02:41:02 3.7 C 5.73 g/m*3 3.7 C 0 km/h
375 28-03-2009 02:53:02 3.8 C 5.77 g/m*3 3.8 C 0 km/h
Sensor: Nr:Datum:Temp:Abs-Feuchte:Windchill:Wind:
Aussen-T/F 376 28-03-2009 03:05:02 3.8 C 5.77 g/m*3 3.8 C 0 km/h
377 28-03-2009 03:17:02 3.9 C 5.81 g/m*3 3.9 C 0 km/h
378 28-03-2009 03:29:02 4 C 5.85 g/m*3 4 C 0 km/h
379 28-03-2009 03:41:02 4.1 C 5.89 g/m*3 4.1 C 0 km/h
380 28-03-2009 03:53:02 4.2 C 5.93 g/m*3 4.2 C 0 km/h
381 28-03-2009 04:05:02 4.3 C 6.03 g/m*3 4.3 C 0 km/h
382 28-03-2009 04:17:02 4.3 C 6.03 g/m*3 4.3 C 0 km/h
383 28-03-2009 04:29:02 4.3 C 6.03 g/m*3 4.3 C 0 km/h
384 28-03-2009 04:41:02 4.3 C 6.03 g/m*3 4.3 C 0 km/h
385 28-03-2009 04:53:02 4.3 C 6.03 g/m*3 4.3 C 0 km/h
386 28-03-2009 05:05:02 4.3 C 6.03 g/m*3 4.3 C 0 km/h
387 28-03-2009 05:17:03 4.3 C 6.03 g/m*3 4.3 C 0 km/h
388 28-03-2009 05:29:03 4.4 C 6.07 g/m*3 4.4 C 0 km/h
389 28-03-2009 05:41:03 4.6 C 6.15 g/m*3 4.6 C 0 km/h
390 28-03-2009 05:53:03 4.7 C 6.19 g/m*3 4.7 C 0 km/h
391 28-03-2009 06:05:03 4.8 C 6.24 g/m*3 4.8 C 0 km/h
392 28-03-2009 06:17:03 4.8 C 6.17 g/m*3 4.8 C 0 km/h
393 28-03-2009 06:29:03 4.9 C 6.21 g/m*3 4.9 C 0 km/h
394 28-03-2009 06:41:03 5 C 6.18 g/m*3 5 C 0 km/h
395 28-03-2009 06:53:03 5.2 C 6.2 g/m*3 5.2 C 0 km/h
396 28-03-2009 07:05:03 5 C 6.05 g/m*3 5 C 0 km/h
397 28-03-2009 07:17:03 4.7 C 6 g/m*3 4.7 C 0 km/h
398 28-03-2009 07:29:03 4.9 C 6.08 g/m*3 4.9 C 0 km/h
399 28-03-2009 07:41:03 4.8 C 6.04 g/m*3 4.8 C 0 km/h
400 28-03-2009 07:53:03 5.2 C 6.13 g/m*3 5.2 C 0 km/h
Sensor: Nr:Datum:Temp:Abs-Feuchte:Windchill:Wind:
Aussen-T/F 401 28-03-2009 08:05:03 5.6 C 6.36 g/m*3 5.6 C 0 km/h
402 28-03-2009 08:17:03 5.8 C 6.45 g/m*3 5.8 C 0 km/h
403 28-03-2009 08:29:03 5.9 C 6.42 g/m*3 5.9 C 0 km/h
404 28-03-2009 08:41:03 6.8 C 6.73 g/m*3 6.8 C 0 km/h
405 28-03-2009 08:53:03 7.6 C 6.28 g/m*3 7.6 C 0 km/h
406 28-03-2009 09:05:04 8.2 C 5.95 g/m*3 8.2 C 0 km/h
407 28-03-2009 09:17:04 8.9 C 5.78 g/m*3 8.9 C 0 km/h
408 28-03-2009 09:29:04 9 C 5.38 g/m*3 9 C 0 km/h
409 28-03-2009 09:41:02 8.6 C 5.76 g/m*3 8.6 C 0 km/h
410 28-03-2009 09:53:01 7.9 C 5.83 g/m*3 7.9 C 0 km/h
411 28-03-2009 10:05:01 7.7 C 6 g/m*3 7.7 C 0 km/h
412 28-03-2009 10:17:01 7.6 C 6.2 g/m*3 7.6 C 0 km/h
413 28-03-2009 10:29:01 7.6 C 6.28 g/m*3 7.6 C 0 km/h
414 28-03-2009 10:41:01 7.9 C 6.57 g/m*3 7.9 C 0 km/h
415 28-03-2009 10:53:00 7.9 C 6.65 g/m*3 7.9 C 0 km/h
416 28-03-2009 11:05:01 7.9 C 6.57 g/m*3 7.9 C 0 km/h
417 28-03-2009 11:17:00 8.5 C 6.32 g/m*3 8.5 C 0 km/h
418 28-03-2009 11:29:00 8.6 C 6.02 g/m*3 8.6 C 0 km/h
419 28-03-2009 11:41:00 8.6 C 5.84 g/m*3 8.6 C 0 km/h
420 28-03-2009 11:53:02 8.5 C 5.98 g/m*3 8.5 C 0 km/h
421 28-03-2009 12:05:01 8.3 C 6.07 g/m*3 8.3 C 0 km/h
422 28-03-2009 12:17:01 8.3 C 6.15 g/m*3 8.3 C 0 km/h
423 28-03-2009 12:29:01 8.1 C 5.91 g/m*3 8.1 C 0 km/h
424 28-03-2009 12:41:02 8.5 C 6.06 g/m*3 8.5 C 0 km/h
425 28-03-2009 12:53:01 9 C 5.55 g/m*3 9 C 0 km/h
Sensor: Nr:Datum:Temp:Abs-Feuchte:Windchill:Wind:
Aussen-T/F 426 28-03-2009 13:05:01 9.1 C 5.59 g/m*3 9.1 C 0 km/h
427 28-03-2009 13:17:01 9.4 C 5.52 g/m*3 9.4 C 0 km/h
428 28-03-2009 13:29:01 9.9 C 5.32 g/m*3 9.9 C 0 km/h
429 28-03-2009 13:41:01 10.3 C 5.17 g/m*3 10.3 C 0 km/h
430 28-03-2009 13:53:00 8.9 C 5.43 g/m*3 8.9 C 0 km/h
431 28-03-2009 14:05:01 7 C 5.35 g/m*3 7 C 0 km/h
432 28-03-2009 14:17:00 7.1 C 5.54 g/m*3 7.1 C 0 km/h
433 28-03-2009 14:29:00 8.2 C 5.53 g/m*3 8.2 C 0 km/h
434 28-03-2009 14:41:00 9.2 C 5.54 g/m*3 9.2 C 0 km/h
435 28-03-2009 14:53:00 10.5 C 5.24 g/m*3 10.5 C 0 km/h
436 28-03-2009 15:05:00 11.2 C 5.27 g/m*3 11.2 C 0 km/h
437 28-03-2009 15:17:00 11.6 C 4.78 g/m*3 11.6 C 0 km/h
438 28-03-2009 15:29:00 11 C 4.7 g/m*3 11 C 0 km/h
439 28-03-2009 15:41:59 10.7 C 4.81 g/m*3 10.7 C 0 km/h
440 28-03-2009 15:53:00 11.2 C 4.26 g/m*3 11.2 C 0 km/h
441 28-03-2009 16:05:59 10.5 C 4.17 g/m*3 10.5 C 0 km/h
442 28-03-2009 16:17:59 10.9 C 4.28 g/m*3 10.9 C 0 km/h
443 28-03-2009 16:29:59 10.3 C 4.21 g/m*3 10.3 C 0 km/h
444 28-03-2009 16:41:58 10.7 C 4.13 g/m*3 10.7 C 0 km/h
445 28-03-2009 16:53:59 11.3 C 3.67 g/m*3 11.3 C 0 km/h
446 28-03-2009 17:05:59 10.6 C 3.51 g/m*3 10.6 C 0 km/h
447 28-03-2009 17:17:58 10.2 C 3.52 g/m*3 10.2 C 0 km/h
448 28-03-2009 17:29:58 9.7 C 3.6 g/m*3 9.7 C 0 km/h
449 28-03-2009 17:41:59 9.7 C 3.5 g/m*3 9.7 C 0 km/h
450 28-03-2009 17:53:58 9.7 C 3.69 g/m*3 9.7 C 0 km/h
Sensor: Nr:Datum:Temp:Abs-Feuchte:Windchill:Wind:
Aussen-T/F 451 28-03-2009 18:05:58 9.7 C 3.69 g/m*3 9.7 C 0 km/h
452 28-03-2009 18:17:58 10.5 C 3.59 g/m*3 10.5 C 0 km/h
453 28-03-2009 18:29:58 10.2 C 3.33 g/m*3 10.2 C 0 km/h
454 28-03-2009 18:41:58 9.5 C 3.37 g/m*3 9.5 C 0 km/h
455 28-03-2009 18:53:57 9 C 3.35 g/m*3 9 C 0 km/h
456 28-03-2009 19:05:58 8.7 C 3.46 g/m*3 8.7 C 0 km/h
457 28-03-2009 19:17:58 8.2 C 3.43 g/m*3 8.2 C 0 km/h
458 28-03-2009 19:29:58 7.9 C 3.7 g/m*3 7.9 C 0 km/h
459 28-03-2009 19:41:57 7.6 C 3.71 g/m*3 7.6 C 0 km/h
460 28-03-2009 19:53:57 7.3 C 3.95 g/m*3 7.3 C 0 km/h
461 28-03-2009 20:05:57 6.9 C 4.16 g/m*3 6.9 C 0 km/h
462 28-03-2009 20:17:57 6.7 C 4.33 g/m*3 6.7 C 0 km/h
463 28-03-2009 20:29:57 6.9 C 4.31 g/m*3 6.9 C 0 km/h
464 28-03-2009 20:41:57 7 C 4.34 g/m*3 7 C 0 km/h
465 28-03-2009 20:53:57 6.9 C 4.39 g/m*3 6.9 C 0 km/h
466 28-03-2009 21:05:57 6.4 C 4.32 g/m*3 6.4 C 0 km/h
467 28-03-2009 21:17:56 6.2 C 4.41 g/m*3 6.2 C 0 km/h
468 28-03-2009 21:29:56 6 C 4.43 g/m*3 6 C 0 km/h
469 28-03-2009 21:41:56 6 C 4.43 g/m*3 6 C 0 km/h
470 28-03-2009 21:53:56 6.4 C 4.55 g/m*3 6.4 C 0 km/h
471 28-03-2009 22:05:56 6.4 C 4.55 g/m*3 6.4 C 0 km/h
472 28-03-2009 22:17:56 6.5 C 4.5 g/m*3 6.5 C 0 km/h
473 28-03-2009 22:29:56 6.9 C 4.46 g/m*3 6.9 C 0 km/h
474 28-03-2009 22:42:56 7.1 C 4.29 g/m*3 7.1 C 0 km/h
475 28-03-2009 22:54:56 7.2 C 4.24 g/m*3 7.2 C 0 km/h
Sensor: Nr:Datum:Temp:Abs-Feuchte:Windchill:Wind:
Aussen-T/F 476 28-03-2009 23:06:56 7.2 C 4.24 g/m*3 7.2 C 0 km/h
477 28-03-2009 23:18:56 6.6 C 4.76 g/m*3 6.6 C 0 km/h
478 28-03-2009 23:30:57 6 C 5.01 g/m*3 6 C 0 km/h
479 28-03-2009 23:42:57 5.8 C 5.16 g/m*3 5.8 C 0 km/h
480 28-03-2009 23:54:57 5.9 C 5.34 g/m*3 5.9 C 0 km/h
481 29-03-2009 00:06:57 6 C 5.08 g/m*3 6 C 0 km/h
482 29-03-2009 00:18:57 6.3 C 4.96 g/m*3 6.3 C 0 km/h
483 29-03-2009 00:30:57 6.3 C 4.74 g/m*3 6.3 C 0 km/h
484 29-03-2009 00:42:57 6 C 4.79 g/m*3 6 C 0 km/h
485 29-03-2009 00:54:57 5.9 C 4.9 g/m*3 5.9 C 0 km/h
486 29-03-2009 01:06:57 5.9 C 4.98 g/m*3 5.9 C 0 km/h
487 29-03-2009 01:18:57 5.9 C 4.9 g/m*3 5.9 C 0 km/h
488 29-03-2009 01:30:57 6 C 4.94 g/m*3 6 C 0 km/h
489 29-03-2009 01:42:57 5.9 C 4.98 g/m*3 5.9 C 0 km/h
490 29-03-2009 01:54:57 5.9 C 5.12 g/m*3 5.9 C 0 km/h
491 29-03-2009 02:06:57 5.7 C 4.98 g/m*3 5.7 C 0 km/h
492 29-03-2009 02:18:57 5.3 C 4.99 g/m*3 5.3 C 0 km/h
493 29-03-2009 02:30:57 5.1 C 4.92 g/m*3 5.1 C 0 km/h
494 29-03-2009 02:42:57 4.8 C 4.96 g/m*3 4.8 C 0 km/h
495 29-03-2009 02:54:57 4.9 C 5.06 g/m*3 4.9 C 0 km/h
496 29-03-2009 04:06:57 5 C 5.03 g/m*3 5 C 0 km/h
497 29-03-2009 04:18:57 5.2 C 5.03 g/m*3 5.2 C 0 km/h
498 29-03-2009 04:30:58 5.2 C 4.82 g/m*3 5.2 C 0 km/h
499 29-03-2009 04:42:58 5.2 C 4.68 g/m*3 5.2 C 0 km/h
500 29-03-2009 04:54:58 5.2 C 4.54 g/m*3 5.2 C 0 km/h
Sensor: Nr:Datum:Temp:Abs-Feuchte:Windchill:Wind:
Aussen-T/F 501 29-03-2009 05:06:58 5.1 C 4.31 g/m*3 5.1 C 0 km/h
502 29-03-2009 05:18:58 5.1 C 4.24 g/m*3 5.1 C 0 km/h
503 29-03-2009 05:30:58 5.1 C 4.17 g/m*3 5.1 C 0 km/h
504 29-03-2009 05:42:58 5.1 C 4.31 g/m*3 5.1 C 0 km/h
505 29-03-2009 05:54:58 5.2 C 4.27 g/m*3 5.2 C 0 km/h
506 29-03-2009 06:06:58 5.2 C 4.2 g/m*3 5.2 C 0 km/h
507 29-03-2009 06:18:58 5.2 C 4.2 g/m*3 5.2 C 0 km/h
508 29-03-2009 06:30:58 5.1 C 4.24 g/m*3 5.1 C 0 km/h
509 29-03-2009 06:42:58 5 C 4.21 g/m*3 5 C 0 km/h
510 29-03-2009 06:54:58 4.8 C 4.43 g/m*3 4.8 C 0 km/h
511 29-03-2009 07:06:58 4.6 C 4.43 g/m*3 4.6 C 0 km/h
512 29-03-2009 07:18:58 4.6 C 4.5 g/m*3 4.6 C 0 km/h
513 29-03-2009 07:30:58 4.7 C 4.53 g/m*3 4.7 C 0 km/h
514 29-03-2009 07:42:58 4.5 C 4.47 g/m*3 4.5 C 0 km/h
515 29-03-2009 07:54:58 4.4 C 4.44 g/m*3 4.4 C 0 km/h
516 29-03-2009 08:06:58 4.7 C 4.53 g/m*3 4.7 C 0 km/h
517 29-03-2009 08:18:59 5 C 4.48 g/m*3 5 C 0 km/h
518 29-03-2009 08:30:59 5.1 C 4.45 g/m*3 5.1 C 0 km/h
519 29-03-2009 08:42:59 5.1 C 4.45 g/m*3 5.1 C 0 km/h
520 29-03-2009 08:54:59 5.2 C 4.48 g/m*3 5.2 C 0 km/h
521 29-03-2009 09:06:59 5.4 C 4.47 g/m*3 5.4 C 0 km/h
522 29-03-2009 09:18:59 5.5 C 4.57 g/m*3 5.5 C 0 km/h
523 29-03-2009 09:30:56 5.5 C 4.57 g/m*3 5.5 C 0 km/h
524 29-03-2009 09:42:56 5.6 C 4.67 g/m*3 5.6 C 0 km/h
525 29-03-2009 09:54:56 5.1 C 4.99 g/m*3 5.1 C 0 km/h
Sensor: Nr:Datum:Temp:Abs-Feuchte:Windchill:Wind:
Aussen-T/F 526 29-03-2009 10:06:56 5.3 C 5.27 g/m*3 5.3 C 0 km/h
527 29-03-2009 10:18:01 5.4 C 5.37 g/m*3 5.4 C 0 km/h
528 29-03-2009 10:30:01 5.9 C 5.55 g/m*3 5.9 C 0 km/h
529 29-03-2009 10:42:02 6.3 C 5.4 g/m*3 6.3 C 0 km/h
530 29-03-2009 10:54:01 6.4 C 5.22 g/m*3 6.4 C 0 km/h
531 29-03-2009 11:06:02 6.2 C 5.07 g/m*3 6.2 C 0 km/h
532 29-03-2009 11:18:01 6.2 C 5.07 g/m*3 6.2 C 0 km/h
533 29-03-2009 11:30:01 6.5 C 5.02 g/m*3 6.5 C 0 km/h
534 29-03-2009 11:42:01 6.5 C 4.95 g/m*3 6.5 C 0 km/h
535 29-03-2009 11:54:01 6.7 C 5.01 g/m*3 6.7 C 0 km/h
536 29-03-2009 12:06:01 6.9 C 5 g/m*3 6.9 C 0 km/h
537 29-03-2009 12:18:00 7.6 C 5.08 g/m*3 7.6 C 0 km/h
538 29-03-2009 12:30:00 8.4 C 5.09 g/m*3 8.4 C 0 km/h
539 29-03-2009 12:42:01 8 C 4.88 g/m*3 8 C 0 km/h
540 29-03-2009 12:54:00 8.1 C 4.99 g/m*3 8.1 C 0 km/h
541 29-03-2009 13:06:00 8.9 C 4.99 g/m*3 8.9 C 0 km/h
542 29-03-2009 13:18:00 7.8 C 4.73 g/m*3 7.8 C 0 km/h
543 29-03-2009 13:30:00 7.8 C 5.06 g/m*3 7.8 C 0 km/h
544 29-03-2009 13:42:00 8.5 C 4.95 g/m*3 8.5 C 0 km/h
545 29-03-2009 13:54:00 8.8 C 4.96 g/m*3 8.8 C 0 km/h
546 29-03-2009 14:06:00 9 C 4.58 g/m*3 9 C 0 km/h
547 29-03-2009 14:18:00 7.9 C 4.85 g/m*3 7.9 C 0 km/h
548 29-03-2009 14:30:00 6.7 C 5.09 g/m*3 6.7 C 0 km/h
549 29-03-2009 14:42:59 6.6 C 5.44 g/m*3 6.6 C 0 km/h
550 29-03-2009 14:54:00 6.9 C 5.77 g/m*3 6.9 C 0 km/h
Sensor: Nr:Datum:Temp:Abs-Feuchte:Windchill:Wind:
Aussen-T/F 551 29-03-2009 15:06:59 8.3 C 6.32 g/m*3 8.3 C 0 km/h
552 29-03-2009 15:18:59 9 C 6.08 g/m*3 9 C 0 km/h
553 29-03-2009 15:30:58 8.4 C 5.26 g/m*3 8.4 C 0 km/h
554 29-03-2009 15:42:58 9 C 5.47 g/m*3 9 C 0 km/h
555 29-03-2009 15:54:59 8.1 C 4.66 g/m*3 8.1 C 0 km/h
556 29-03-2009 16:06:58 7.4 C 4.61 g/m*3 7.4 C 0 km/h
557 29-03-2009 16:18:58 7.7 C 4.54 g/m*3 7.7 C 0 km/h
558 29-03-2009 16:30:58 8.1 C 4.58 g/m*3 8.1 C 0 km/h
559 29-03-2009 16:42:58 8.3 C 4.38 g/m*3 8.3 C 0 km/h
560 29-03-2009 16:54:58 8.4 C 4.16 g/m*3 8.4 C 0 km/h
561 29-03-2009 17:06:58 9 C 4.14 g/m*3 9 C 0 km/h
562 29-03-2009 17:18:57 9.5 C 4.28 g/m*3 9.5 C 0 km/h
563 29-03-2009 17:30:58 9.8 C 4.08 g/m*3 9.8 C 0 km/h
564 29-03-2009 17:42:58 9 C 3.97 g/m*3 9 C 0 km/h
565 29-03-2009 17:54:57 8.5 C 3.84 g/m*3 8.5 C 0 km/h
566 29-03-2009 18:06:58 8.2 C 4.02 g/m*3 8.2 C 0 km/h
567 29-03-2009 18:18:57 8 C 4.22 g/m*3 8 C 0 km/h
568 29-03-2009 18:30:57 8 C 4.38 g/m*3 8 C 0 km/h
569 29-03-2009 18:42:57 7.8 C 4.49 g/m*3 7.8 C 0 km/h
570 29-03-2009 18:54:57 7.5 C 4.72 g/m*3 7.5 C 0 km/h
571 29-03-2009 19:06:57 7.3 C 4.82 g/m*3 7.3 C 0 km/h
572 29-03-2009 19:18:56 7 C 4.8 g/m*3 7 C 0 km/h
573 29-03-2009 19:30:56 6.3 C 5.26 g/m*3 6.3 C 0 km/h
574 29-03-2009 19:42:56 6.1 C 5.48 g/m*3 6.1 C 0 km/h
575 29-03-2009 19:54:56 6 C 5.66 g/m*3 6 C 0 km/h
Sensor: Nr:Datum:Temp:Abs-Feuchte:Windchill:Wind:
Aussen-T/F 576 29-03-2009 20:06:56 5.9 C 5.84 g/m*3 5.9 C 0 km/h
577 29-03-2009 20:18:56 5.7 C 5.84 g/m*3 5.7 C 0 km/h
578 29-03-2009 20:30:56 5.5 C 5.83 g/m*3 5.5 C 0 km/h
579 29-03-2009 20:42:56 5.4 C 5.86 g/m*3 5.4 C 0 km/h
580 29-03-2009 20:54:56 5.3 C 5.82 g/m*3 5.3 C 0 km/h
581 29-03-2009 21:06:55 5 C 5.71 g/m*3 5 C 0 km/h
582 29-03-2009 21:18:56 4.8 C 5.7 g/m*3 4.8 C 0 km/h
583 29-03-2009 21:30:55 4.7 C 5.66 g/m*3 4.7 C 0 km/h
584 29-03-2009 21:42:55 4.5 C 5.59 g/m*3 4.5 C 0 km/h
585 29-03-2009 21:54:55 4.5 C 5.65 g/m*3 4.5 C 0 km/h
586 29-03-2009 22:06:55 4.6 C 5.69 g/m*3 4.6 C 0 km/h
587 29-03-2009 22:18:55 4.6 C 5.69 g/m*3 4.6 C 0 km/h
588 29-03-2009 22:30:55 4.4 C 5.55 g/m*3 4.4 C 0 km/h
589 29-03-2009 22:42:55 4.3 C 5.51 g/m*3 4.3 C 0 km/h
590 29-03-2009 22:54:55 4.3 C 5.45 g/m*3 4.3 C 0 km/h
591 29-03-2009 23:06:55 4.3 C 5.38 g/m*3 4.3 C 0 km/h
592 29-03-2009 23:18:54 4.3 C 5.32 g/m*3 4.3 C 0 km/h
593 29-03-2009 23:31:02 4.1 C 5.18 g/m*3 4.1 C 0 km/h
594 29-03-2009 23:43:02 3.8 C 5.14 g/m*3 3.8 C 0 km/h
595 29-03-2009 23:55:02 3.6 C 5.08 g/m*3 3.6 C 0 km/h
596 30-03-2009 00:07:02 3.5 C 5.04 g/m*3 3.5 C 0 km/h
597 30-03-2009 00:19:02 3.3 C 4.97 g/m*3 3.3 C 0 km/h
598 30-03-2009 00:31:02 3.1 C 4.91 g/m*3 3.1 C 0 km/h
599 30-03-2009 00:43:02 3 C 4.93 g/m*3 3 C 0 km/h
600 30-03-2009 00:55:02 3 C 4.93 g/m*3 3 C 0 km/h
Sensor: Nr:Datum:Temp:Abs-Feuchte:Windchill:Wind:
Aussen-T/F 601 30-03-2009 01:07:02 2.7 C 4.89 g/m*3 2.7 C 0 km/h
602 30-03-2009 01:19:02 2.5 C 4.83 g/m*3 2.5 C 0 km/h
603 30-03-2009 01:31:02 2.3 C 4.82 g/m*3 2.3 C 0 km/h
604 30-03-2009 01:43:02 2.1 C 4.76 g/m*3 2.1 C 0 km/h
605 30-03-2009 01:55:02 2 C 4.72 g/m*3 2 C 0 km/h
606 30-03-2009 02:07:03 2 C 4.78 g/m*3 2 C 0 km/h
607 30-03-2009 02:19:03 1.9 C 4.8 g/m*3 1.9 C 0 km/h
608 30-03-2009 02:31:03 1.8 C 4.77 g/m*3 1.8 C 0 km/h
609 30-03-2009 02:43:03 1.7 C 4.74 g/m*3 1.7 C 0 km/h
610 30-03-2009 02:55:03 1.8 C 4.77 g/m*3 1.8 C 0 km/h
611 30-03-2009 03:07:03 1.5 C 4.73 g/m*3 1.5 C 0 km/h
612 30-03-2009 03:19:03 1.5 C 4.67 g/m*3 1.5 C 0 km/h
613 30-03-2009 03:31:03 1.4 C 4.69 g/m*3 1.4 C 0 km/h
614 30-03-2009 03:43:03 1.3 C 4.66 g/m*3 1.3 C 0 km/h
615 30-03-2009 03:55:03 1.2 C 4.63 g/m*3 1.2 C 0 km/h
616 30-03-2009 04:07:03 1.2 C 4.63 g/m*3 1.2 C 0 km/h
617 30-03-2009 04:19:03 1.2 C 4.63 g/m*3 1.2 C 0 km/h
618 30-03-2009 04:31:03 1.1 C 4.6 g/m*3 1.1 C 0 km/h
619 30-03-2009 04:43:03 1.2 C 4.63 g/m*3 1.2 C 0 km/h
620 30-03-2009 04:55:03 1.3 C 4.66 g/m*3 1.3 C 0 km/h
621 30-03-2009 05:07:03 1 C 4.57 g/m*3 1 C 0 km/h
622 30-03-2009 05:19:03 1 C 4.57 g/m*3 1 C 0 km/h
623 30-03-2009 05:31:03 0.8 C 4.56 g/m*3 0.8 C 0 km/h
624 30-03-2009 05:43:03 0.7 C 4.53 g/m*3 0.7 C 0 km/h
625 30-03-2009 05:55:03 0.7 C 4.53 g/m*3 0.7 C 0 km/h
Sensor: Nr:Datum:Temp:Abs-Feuchte:Windchill:Wind:
Aussen-T/F 626 30-03-2009 06:07:04 0.6 C 4.49 g/m*3 0.6 C 0 km/h
627 30-03-2009 06:19:04 0.4 C 4.43 g/m*3 0.4 C 0 km/h
628 30-03-2009 06:31:04 0.3 C 4.4 g/m*3 0.3 C 0 km/h
629 30-03-2009 06:43:04 0.3 C 4.45 g/m*3 0.3 C 0 km/h
630 30-03-2009 06:55:04 0 C 4.31 g/m*3 0 C 0 km/h
631 30-03-2009 07:07:01 -0.2 C 4.25 g/m*3 -0.2 C 0 km/h
632 30-03-2009 07:19:01 -0.2 C 4.25 g/m*3 -0.2 C 0 km/h
633 30-03-2009 07:31:01 -0.2 C 4.25 g/m*3 -0.2 C 0 km/h
634 30-03-2009 07:43:01 -0.2 C 4.3 g/m*3 -0.2 C 0 km/h
635 30-03-2009 07:55:01 -0.2 C 4.3 g/m*3 -0.2 C 0 km/h
636 30-03-2009 08:07:00 0 C 4.36 g/m*3 0 C 0 km/h
637 30-03-2009 08:19:01 0.3 C 4.45 g/m*3 0.3 C 0 km/h
638 30-03-2009 08:31:00 0.5 C 4.56 g/m*3 0.5 C 0 km/h
639 30-03-2009 08:43:00 0.6 C 4.6 g/m*3 0.6 C 0 km/h
640 30-03-2009 08:55:00 0.9 C 4.69 g/m*3 0.9 C 0 km/h
641 30-03-2009 09:07:00 1.3 C 4.82 g/m*3 1.3 C 0 km/h
642 30-03-2009 09:19:00 1.4 C 4.91 g/m*3 1.4 C 0 km/h
643 30-03-2009 09:31:00 1.5 C 4.89 g/m*3 1.5 C 0 km/h
644 30-03-2009 09:43:00 1.9 C 5.08 g/m*3 1.9 C 0 km/h
645 30-03-2009 09:55:00 2.7 C 5.36 g/m*3 2.7 C 0 km/h
646 30-03-2009 10:07:00 3.1 C 5.51 g/m*3 3.1 C 0 km/h
647 30-03-2009 10:19:59 3.4 C 5.62 g/m*3 3.4 C 0 km/h
648 30-03-2009 10:31:59 3.7 C 5.73 g/m*3 3.7 C 0 km/h
649 30-03-2009 10:43:59 4.1 C 5.89 g/m*3 4.1 C 0 km/h
650 30-03-2009 10:55:59 4.6 C 6.09 g/m*3 4.6 C 0 km/h
Sensor: Nr:Datum:Temp:Abs-Feuchte:Windchill:Wind:
Aussen-T/F 651 30-03-2009 11:07:59 5.1 C 6.22 g/m*3 5.1 C 0 km/h
652 30-03-2009 11:19:59 5.7 C 6.48 g/m*3 5.7 C 0 km/h
653 30-03-2009 11:31:58 6.2 C 6.55 g/m*3 6.2 C 0 km/h
654 30-03-2009 11:43:58 6.7 C 6.38 g/m*3 6.7 C 0 km/h
655 30-03-2009 11:55:59 7 C 5.73 g/m*3 7 C 0 km/h
656 30-03-2009 12:07:58 7.7 C 5.76 g/m*3 7.7 C 0 km/h
657 30-03-2009 12:19:58 8.2 C 5.28 g/m*3 8.2 C 0 km/h
658 30-03-2009 12:31:58 8.5 C 4.95 g/m*3 8.5 C 0 km/h
659 30-03-2009 12:43:58 9.1 C 4.88 g/m*3 9.1 C 0 km/h
660 30-03-2009 12:55:58 10.1 C 4.73 g/m*3 10.1 C 0 km/h
661 30-03-2009 13:07:57 10.4 C 4.34 g/m*3 10.4 C 0 km/h
662 30-03-2009 13:19:58 10 C 4.13 g/m*3 10 C 0 km/h
663 30-03-2009 13:31:58 10.1 C 4.26 g/m*3 10.1 C 0 km/h
664 30-03-2009 13:43:58 10.7 C 4.13 g/m*3 10.7 C 0 km/h
665 30-03-2009 13:55:57 11.7 C 4.08 g/m*3 11.7 C 0 km/h
666 30-03-2009 14:07:58 12.9 C 3.94 g/m*3 12.9 C 0 km/h
667 30-03-2009 14:19:57 12.9 C 3.49 g/m*3 12.9 C 0 km/h
668 30-03-2009 14:31:57 12.8 C 3.36 g/m*3 12.8 C 0 km/h
669 30-03-2009 14:43:57 12.7 C 3.34 g/m*3 12.7 C 0 km/h
670 30-03-2009 14:55:57 13.4 C 2.79 g/m*3 13.4 C 0 km/h
671 30-03-2009 15:07:57 13.9 C 2.76 g/m*3 13.9 C 0 km/h
672 30-03-2009 15:19:56 13.2 C 2.87 g/m*3 13.2 C 0 km/h
673 30-03-2009 15:31:56 12.9 C 3.04 g/m*3 12.9 C 0 km/h
674 30-03-2009 15:43:56 14.5 C 2.49 g/m*3 14.5 C 0 km/h
675 30-03-2009 15:55:56 15.8 C 2.69 g/m*3 15.8 C 0 km/h
Sensor: Nr:Datum:Temp:Abs-Feuchte:Windchill:Wind:
Aussen-T/F 676 30-03-2009 16:07:56 16.6 C 2.83 g/m*3 16.6 C 0 km/h
677 30-03-2009 16:19:55 16.7 C 2.84 g/m*3 16.7 C 0 km/h
678 30-03-2009 16:31:56 15.2 C 2.6 g/m*3 15.2 C 0 km/h
679 30-03-2009 16:43:56 15 C 2.56 g/m*3 15 C 0 km/h
680 30-03-2009 16:55:55 15.6 C 2.66 g/m*3 15.6 C 0 km/h
681 30-03-2009 17:07:55 14.2 C 2.44 g/m*3 14.2 C 0 km/h
682 30-03-2009 17:19:56 14.1 C 2.43 g/m*3 14.1 C 0 km/h
683 30-03-2009 17:31:55 15.4 C 2.63 g/m*3 15.4 C 0 km/h
684 30-03-2009 17:43:55 16.3 C 2.77 g/m*3 16.3 C 0 km/h
685 30-03-2009 17:55:55 14.8 C 2.53 g/m*3 14.8 C 0 km/h
686 30-03-2009 18:07:55 14.3 C 2.46 g/m*3 14.3 C 0 km/h
687 30-03-2009 18:19:55 13.5 C 2.46 g/m*3 13.5 C 0 km/h
688 30-03-2009 18:31:54 13.3 C 3 g/m*3 13.3 C 0 km/h
689 30-03-2009 18:43:54 13.5 C 3.04 g/m*3 13.5 C 0 km/h
690 30-03-2009 18:55:55 13.9 C 3.12 g/m*3 13.9 C 0 km/h
691 30-03-2009 19:07:54 12.9 C 3.38 g/m*3 12.9 C 0 km/h
692 30-03-2009 19:19:54 12.5 C 3.41 g/m*3 12.5 C 0 km/h
693 30-03-2009 19:31:54 12.1 C 3.43 g/m*3 12.1 C 0 km/h
694 30-03-2009 19:43:54 11.5 C 3.82 g/m*3 11.5 C 0 km/h
695 30-03-2009 19:55:54 10.7 C 4.03 g/m*3 10.7 C 0 km/h
696 30-03-2009 20:07:54 10.1 C 4.07 g/m*3 10.1 C 0 km/h
697 30-03-2009 20:19:53 9.8 C 4.27 g/m*3 9.8 C 0 km/h
698 30-03-2009 20:31:54 9.3 C 4.4 g/m*3 9.3 C 0 km/h
699 30-03-2009 20:43:54 8.7 C 4.32 g/m*3 8.7 C 0 km/h
700 30-03-2009 20:55:53 8.3 C 4.3 g/m*3 8.3 C 0 km/h
Sensor: Nr:Datum:Temp:Abs-Feuchte:Windchill:Wind:
Aussen-T/F 701 30-03-2009 21:07:53 8 C 4.3 g/m*3 8 C 0 km/h
702 30-03-2009 21:19:53 7.7 C 4.38 g/m*3 7.7 C 0 km/h
703 30-03-2009 21:32:54 7.4 C 4.37 g/m*3 7.4 C 0 km/h
704 30-03-2009 21:44:54 7.2 C 4.47 g/m*3 7.2 C 0 km/h
705 30-03-2009 21:56:54 7 C 4.49 g/m*3 7 C 0 km/h
706 30-03-2009 22:08:54 6.9 C 4.46 g/m*3 6.9 C 0 km/h
707 30-03-2009 22:20:54 6.5 C 4.5 g/m*3 6.5 C 0 km/h
708 30-03-2009 22:32:54 6.3 C 4.52 g/m*3 6.3 C 0 km/h
709 30-03-2009 22:44:54 6.4 C 4.55 g/m*3 6.4 C 0 km/h
710 30-03-2009 22:56:54 5.9 C 4.54 g/m*3 5.9 C 0 km/h
711 30-03-2009 23:08:54 5.5 C 4.42 g/m*3 5.5 C 0 km/h
712 30-03-2009 23:20:54 5.3 C 4.51 g/m*3 5.3 C 0 km/h
713 30-03-2009 23:32:54 5.2 C 4.54 g/m*3 5.2 C 0 km/h
714 30-03-2009 23:44:54 5.1 C 4.58 g/m*3 5.1 C 0 km/h
715 30-03-2009 23:56:54 4.9 C 4.52 g/m*3 4.9 C 0 km/h
716 31-03-2009 00:08:54 4.7 C 4.46 g/m*3 4.7 C 0 km/h
717 31-03-2009 00:20:54 4.5 C 4.47 g/m*3 4.5 C 0 km/h
718 31-03-2009 00:32:54 4.3 C 4.48 g/m*3 4.3 C 0 km/h
719 31-03-2009 00:44:54 4 C 4.45 g/m*3 4 C 0 km/h
720 31-03-2009 00:56:54 3.8 C 4.45 g/m*3 3.8 C 0 km/h
721 31-03-2009 01:08:54 3.6 C 4.46 g/m*3 3.6 C 0 km/h
722 31-03-2009 01:20:54 3.5 C 4.43 g/m*3 3.5 C 0 km/h
723 31-03-2009 01:32:54 3.2 C 4.4 g/m*3 3.2 C 0 km/h
724 31-03-2009 01:44:55 3.1 C 4.43 g/m*3 3.1 C 0 km/h
725 31-03-2009 01:56:55 3 C 4.4 g/m*3 3 C 0 km/h
Sensor: Nr:Datum:Temp:Abs-Feuchte:Windchill:Wind:
Aussen-T/F 726 31-03-2009 02:08:55 2.9 C 4.49 g/m*3 2.9 C 0 km/h
727 31-03-2009 02:20:55 2.7 C 4.37 g/m*3 2.7 C 0 km/h
728 31-03-2009 02:32:55 2.5 C 4.31 g/m*3 2.5 C 0 km/h
729 31-03-2009 02:44:55 2.3 C 4.31 g/m*3 2.3 C 0 km/h
730 31-03-2009 02:56:55 2.1 C 4.25 g/m*3 2.1 C 0 km/h
731 31-03-2009 03:08:55 2.1 C 4.31 g/m*3 2.1 C 0 km/h
732 31-03-2009 03:20:55 2 C 4.33 g/m*3 2 C 0 km/h
733 31-03-2009 03:32:55 1.8 C 4.33 g/m*3 1.8 C 0 km/h
734 31-03-2009 03:44:55 1.6 C 4.27 g/m*3 1.6 C 0 km/h
735 31-03-2009 03:56:55 1.5 C 4.3 g/m*3 1.5 C 0 km/h
736 31-03-2009 04:08:55 1.3 C 4.29 g/m*3 1.3 C 0 km/h
737 31-03-2009 04:20:55 1.2 C 4.26 g/m*3 1.2 C 0 km/h
738 31-03-2009 04:32:55 1 C 4.2 g/m*3 1 C 0 km/h
739 31-03-2009 04:44:55 1 C 4.2 g/m*3 1 C 0 km/h
740 31-03-2009 04:56:55 1 C 4.2 g/m*3 1 C 0 km/h
741 31-03-2009 05:08:55 0.8 C 4.2 g/m*3 0.8 C 0 km/h
742 31-03-2009 05:20:55 0.6 C 4.14 g/m*3 0.6 C 0 km/h
743 31-03-2009 05:32:55 0.6 C 4.14 g/m*3 0.6 C 0 km/h
744 31-03-2009 05:44:56 0.4 C 4.08 g/m*3 0.4 C 0 km/h
745 31-03-2009 05:56:56 0.3 C 4.06 g/m*3 0.3 C 0 km/h
746 31-03-2009 06:08:56 0.3 C 4.11 g/m*3 0.3 C 0 km/h
747 31-03-2009 06:20:56 0.2 C 4.08 g/m*3 0.2 C 0 km/h
748 31-03-2009 06:32:56 0 C 4.07 g/m*3 0 C 0 km/h
749 31-03-2009 06:44:56 -0.2 C 3.97 g/m*3 -0.2 C 0 km/h
750 31-03-2009 06:56:56 -0.3 C 3.94 g/m*3 -0.3 C 0 km/h
Sensor: Nr:Datum:Temp:Abs-Feuchte:Windchill:Wind:
Aussen-T/F 751 31-03-2009 07:08:53 -0.3 C 3.99 g/m*3 -0.3 C 0 km/h
752 31-03-2009 07:20:54 -0.3 C 3.99 g/m*3 -0.3 C 0 km/h
753 31-03-2009 07:32:53 -0.5 C 3.93 g/m*3 -0.5 C 0 km/h
754 31-03-2009 07:44:53 -0.4 C 3.96 g/m*3 -0.4 C 0 km/h
755 31-03-2009 07:56:53 -0.3 C 3.99 g/m*3 -0.3 C 0 km/h
756 31-03-2009 08:08:53 -0.1 C 4.09 g/m*3 -0.1 C 0 km/h
757 31-03-2009 08:20:53 0 C 4.12 g/m*3 0 C 0 km/h
758 31-03-2009 08:32:52 0.1 C 4.2 g/m*3 0.1 C 0 km/h
759 31-03-2009 08:44:53 0.3 C 4.25 g/m*3 0.3 C 0 km/h
760 31-03-2009 08:56:53 0.4 C 4.28 g/m*3 0.4 C 0 km/h
761 31-03-2009 09:08:52 0.6 C 4.34 g/m*3 0.6 C 0 km/h
762 31-03-2009 09:20:52 0.8 C 4.4 g/m*3 0.8 C 0 km/h
763 31-03-2009 09:32:52 1.1 C 4.49 g/m*3 1.1 C 0 km/h
764 31-03-2009 09:44:52 1.5 C 4.67 g/m*3 1.5 C 0 km/h
765 31-03-2009 09:56:52 2.1 C 4.87 g/m*3 2.1 C 0 km/h
766 31-03-2009 10:08:52 2.8 C 5.04 g/m*3 2.8 C 0 km/h
767 31-03-2009 10:20:51 3.4 C 5.01 g/m*3 3.4 C 0 km/h
768 31-03-2009 10:32:52 4.1 C 4.99 g/m*3 4.1 C 0 km/h
769 31-03-2009 10:44:51 4.6 C 5.03 g/m*3 4.6 C 0 km/h
770 31-03-2009 10:56:51 5.2 C 4.82 g/m*3 5.2 C 0 km/h
771 31-03-2009 11:08:52 5.9 C 4.76 g/m*3 5.9 C 0 km/h
772 31-03-2009 11:20:51 6.5 C 4.57 g/m*3 6.5 C 0 km/h
773 31-03-2009 11:32:51 7.4 C 4.69 g/m*3 7.4 C 0 km/h
774 31-03-2009 11:44:51 7.9 C 4.68 g/m*3 7.9 C 0 km/h
775 31-03-2009 11:56:51 8.5 C 4.61 g/m*3 8.5 C 0 km/h
Sensor: Nr:Datum:Temp:Abs-Feuchte:Windchill:Wind:
Aussen-T/F 776 31-03-2009 12:08:51 9.1 C 4.44 g/m*3 9.1 C 0 km/h
777 31-03-2009 12:20:50 9.6 C 4.12 g/m*3 9.6 C 0 km/h
778 31-03-2009 12:32:50 10.6 C 4 g/m*3 10.6 C 0 km/h
779 31-03-2009 12:44:50 11 C 3.6 g/m*3 11 C 0 km/h
780 31-03-2009 12:56:50 11.6 C 3.33 g/m*3 11.6 C 0 km/h
781 31-03-2009 13:08:50 12.1 C 3.32 g/m*3 12.1 C 0 km/h
782 31-03-2009 13:20:49 12.5 C 2.97 g/m*3 12.5 C 0 km/h
783 31-03-2009 13:32:50 13.2 C 2.53 g/m*3 13.2 C 0 km/h
784 31-03-2009 13:44:49 13.6 C 2.59 g/m*3 13.6 C 0 km/h
785 31-03-2009 13:56:49 14.2 C 2.44 g/m*3 14.2 C 0 km/h
786 31-03-2009 14:08:49 14.7 C 2.52 g/m*3 14.7 C 0 km/h
787 31-03-2009 14:20:50 15.1 C 2.58 g/m*3 15.1 C 0 km/h
788 31-03-2009 14:32:49 15.9 C 2.71 g/m*3 15.9 C 0 km/h
789 31-03-2009 14:44:49 16 C 2.72 g/m*3 16 C 0 km/h
790 31-03-2009 14:56:49 16.8 C 2.86 g/m*3 16.8 C 0 km/h
791 31-03-2009 15:08:49 17.2 C 2.93 g/m*3 17.2 C 0 km/h
792 31-03-2009 15:20:49 17.3 C 2.95 g/m*3 17.3 C 0 km/h
793 31-03-2009 15:32:48 17.8 C 3.04 g/m*3 17.8 C 0 km/h
794 31-03-2009 15:44:49 18.1 C 3.09 g/m*3 18.1 C 0 km/h
795 31-03-2009 15:56:49 18.6 C 3.18 g/m*3 18.6 C 0 km/h
796 31-03-2009 16:08:48 18.3 C 3.13 g/m*3 18.3 C 0 km/h
797 31-03-2009 16:20:48 19 C 3.26 g/m*3 19 C 0 km/h
798 31-03-2009 16:32:48 19.6 C 3.38 g/m*3 19.6 C 0 km/h
799 31-03-2009 16:44:48 20 C 3.46 g/m*3 20 C 0 km/h
800 31-03-2009 16:56:49 20.3 C 3.52 g/m*3 20.3 C 0 km/h
Sensor: Nr:Datum:Temp:Abs-Feuchte:Windchill:Wind:
Aussen-T/F 801 31-03-2009 17:08:47 20.3 C 3.52 g/m*3 20.3 C 0 km/h
802 31-03-2009 17:20:48 20.3 C 3.52 g/m*3 20.3 C 0 km/h
803 31-03-2009 17:32:48 20 C 3.46 g/m*3 20 C 0 km/h
804 31-03-2009 17:44:47 20.6 C 3.58 g/m*3 20.6 C 0 km/h
805 31-03-2009 17:56:47 20.1 C 3.48 g/m*3 20.1 C 0 km/h
806 31-03-2009 18:08:48 20 C 3.46 g/m*3 20 C 0 km/h
807 31-03-2009 18:20:47 19.8 C 3.42 g/m*3 19.8 C 0 km/h
808 31-03-2009 18:32:47 19.3 C 3.32 g/m*3 19.3 C 0 km/h
809 31-03-2009 18:44:46 19.2 C 3.3 g/m*3 19.2 C 0 km/h
810 31-03-2009 18:56:46 19 C 3.26 g/m*3 19 C 0 km/h
811 31-03-2009 19:08:47 18.5 C 3.16 g/m*3 18.5 C 0 km/h
812 31-03-2009 19:20:46 17.7 C 3.02 g/m*3 17.7 C 0 km/h
813 31-03-2009 19:32:46 17 C 2.89 g/m*3 17 C 0 km/h
814 31-03-2009 19:44:46 15.7 C 2.81 g/m*3 15.7 C 0 km/h
815 31-03-2009 19:56:46 14.4 C 3.09 g/m*3 14.4 C 0 km/h
816 31-03-2009 20:08:46 13.6 C 3.3 g/m*3 13.6 C 0 km/h
817 31-03-2009 20:20:46 12.7 C 3.34 g/m*3 12.7 C 0 km/h
818 31-03-2009 20:32:46 12.3 C 3.26 g/m*3 12.3 C 0 km/h
819 31-03-2009 20:44:46 11.8 C 3.26 g/m*3 11.8 C 0 km/h
820 31-03-2009 20:56:46 11.7 C 3.24 g/m*3 11.7 C 0 km/h
821 31-03-2009 21:08:46 11.5 C 3.1 g/m*3 11.5 C 0 km/h
822 31-03-2009 21:21:46 11.4 C 3.28 g/m*3 11.4 C 0 km/h
823 31-03-2009 21:33:46 11.1 C 3.22 g/m*3 11.1 C 0 km/h
824 31-03-2009 21:45:46 10.9 C 3.48 g/m*3 10.9 C 0 km/h
825 31-03-2009 21:57:46 10.7 C 3.54 g/m*3 10.7 C 0 km/h
Sensor: Nr:Datum:Temp:Abs-Feuchte:Windchill:Wind:
Aussen-T/F 826 31-03-2009 22:09:46 10.3 C 3.73 g/m*3 10.3 C 0 km/h
827 31-03-2009 22:21:46 9.8 C 3.9 g/m*3 9.8 C 0 km/h
828 31-03-2009 22:33:46 9.5 C 3.82 g/m*3 9.5 C 0 km/h
829 31-03-2009 22:45:46 9.1 C 3.9 g/m*3 9.1 C 0 km/h
830 31-03-2009 22:57:46 8.9 C 4.03 g/m*3 8.9 C 0 km/h
831 31-03-2009 23:09:46 8.7 C 4.06 g/m*3 8.7 C 0 km/h
832 31-03-2009 23:21:46 8.6 C 4.04 g/m*3 8.6 C 0 km/h
833 31-03-2009 23:33:46 8.3 C 4.13 g/m*3 8.3 C 0 km/h
834 31-03-2009 23:45:46 8.1 C 4.08 g/m*3 8.1 C 0 km/h
835 31-03-2009 23:57:46 8.1 C 4.08 g/m*3 8.1 C 0 km/h
836 01-04-2009 00:09:46 8 C 3.97 g/m*3 8 C 0 km/h
837 01-04-2009 00:21:46 7.6 C 4.11 g/m*3 7.6 C 0 km/h
838 01-04-2009 00:33:46 7.5 C 4.16 g/m*3 7.5 C 0 km/h
839 01-04-2009 00:45:47 7.3 C 4.19 g/m*3 7.3 C 0 km/h
840 01-04-2009 00:57:47 7.2 C 4.24 g/m*3 7.2 C 0 km/h
841 01-04-2009 01:09:47 7 C 4.34 g/m*3 7 C 0 km/h
842 01-04-2009 01:21:47 6.9 C 4.31 g/m*3 6.9 C 0 km/h
843 01-04-2009 01:33:47 6.7 C 4.33 g/m*3 6.7 C 0 km/h
844 01-04-2009 01:45:47 6.6 C 4.38 g/m*3 6.6 C 0 km/h
845 01-04-2009 01:57:47 6.3 C 4.44 g/m*3 6.3 C 0 km/h
846 01-04-2009 02:09:47 6.2 C 4.49 g/m*3 6.2 C 0 km/h
847 01-04-2009 02:21:47 5.8 C 4.44 g/m*3 5.8 C 0 km/h
848 01-04-2009 02:33:47 5.6 C 4.45 g/m*3 5.6 C 0 km/h
849 01-04-2009 02:45:47 5.5 C 4.49 g/m*3 5.5 C 0 km/h
850 01-04-2009 02:57:47 5.2 C 4.41 g/m*3 5.2 C 0 km/h
Sensor: Nr:Datum:Temp:Abs-Feuchte:Windchill:Wind:
Aussen-T/F 851 01-04-2009 03:09:47 4.9 C 4.39 g/m*3 4.9 C 0 km/h
852 01-04-2009 03:21:47 4.8 C 4.43 g/m*3 4.8 C 0 km/h
853 01-04-2009 03:33:47 4.7 C 4.46 g/m*3 4.7 C 0 km/h
854 01-04-2009 03:45:47 4.6 C 4.5 g/m*3 4.6 C 0 km/h
855 01-04-2009 03:57:47 4.4 C 4.51 g/m*3 4.4 C 0 km/h
856 01-04-2009 04:09:47 4 C 4.39 g/m*3 4 C 0 km/h
857 01-04-2009 04:21:47 4.1 C 4.48 g/m*3 4.1 C 0 km/h
858 01-04-2009 04:33:47 3.8 C 4.45 g/m*3 3.8 C 0 km/h
859 01-04-2009 04:45:48 3.9 C 4.55 g/m*3 3.9 C 0 km/h
860 01-04-2009 04:57:48 3.6 C 4.46 g/m*3 3.6 C 0 km/h
861 01-04-2009 05:09:48 3.3 C 4.37 g/m*3 3.3 C 0 km/h
862 01-04-2009 05:21:48 3.4 C 4.52 g/m*3 3.4 C 0 km/h
863 01-04-2009 05:33:48 3.2 C 4.46 g/m*3 3.2 C 0 km/h
864 01-04-2009 05:45:48 3.2 C 4.46 g/m*3 3.2 C 0 km/h
865 01-04-2009 05:57:48 3.1 C 4.43 g/m*3 3.1 C 0 km/h
866 01-04-2009 06:09:48 3.3 C 4.49 g/m*3 3.3 C 0 km/h
867 01-04-2009 06:21:48 3.2 C 4.58 g/m*3 3.2 C 0 km/h
868 01-04-2009 06:33:48 2.9 C 4.49 g/m*3 2.9 C 0 km/h
869 01-04-2009 06:45:48 2.7 C 4.49 g/m*3 2.7 C 0 km/h
870 01-04-2009 06:57:48 2.5 C 4.43 g/m*3 2.5 C 0 km/h
871 01-04-2009 07:09:46 2.5 C 4.48 g/m*3 2.5 C 0 km/h
872 01-04-2009 07:21:45 2.1 C 4.31 g/m*3 2.1 C 0 km/h
873 01-04-2009 07:33:45 2.2 C 4.39 g/m*3 2.2 C 0 km/h
874 01-04-2009 07:45:45 2.3 C 4.48 g/m*3 2.3 C 0 km/h
875 01-04-2009 07:57:45 2.4 C 4.51 g/m*3 2.4 C 0 km/h
Sensor: Nr:Datum:Temp:Abs-Feuchte:Windchill:Wind:
Aussen-T/F 876 01-04-2009 08:09:45 2.4 C 4.57 g/m*3 2.4 C 0 km/h
877 01-04-2009 08:21:44 2.5 C 4.6 g/m*3 2.5 C 0 km/h
878 01-04-2009 08:33:45 2.6 C 4.63 g/m*3 2.6 C 0 km/h
879 01-04-2009 08:45:45 2.7 C 4.66 g/m*3 2.7 C 0 km/h
880 01-04-2009 08:57:45 3 C 4.7 g/m*3 3 C 0 km/h
881 01-04-2009 09:09:44 3.3 C 4.79 g/m*3 3.3 C 0 km/h
882 01-04-2009 09:21:45 3.7 C 4.92 g/m*3 3.7 C 0 km/h
883 01-04-2009 09:33:44 4.1 C 4.99 g/m*3 4.1 C 0 km/h
884 01-04-2009 09:45:44 4.9 C 5.06 g/m*3 4.9 C 0 km/h
885 01-04-2009 09:57:44 5.7 C 4.98 g/m*3 5.7 C 0 km/h
886 01-04-2009 10:09:44 6.7 C 4.94 g/m*3 6.7 C 0 km/h
887 01-04-2009 10:21:44 7.4 C 4.85 g/m*3 7.4 C 0 km/h
888 01-04-2009 10:33:44 8.1 C 4.74 g/m*3 8.1 C 0 km/h
889 01-04-2009 10:45:43 8.8 C 4.7 g/m*3 8.8 C 0 km/h
890 01-04-2009 10:57:43 9.4 C 4.61 g/m*3 9.4 C 0 km/h
891 01-04-2009 11:09:44 10.5 C 4.36 g/m*3 10.5 C 0 km/h
892 01-04-2009 11:21:43 11.2 C 4.16 g/m*3 11.2 C 0 km/h
893 01-04-2009 11:33:43 11.8 C 3.89 g/m*3 11.8 C 0 km/h
894 01-04-2009 11:45:43 12.2 C 3.67 g/m*3 12.2 C 0 km/h
895 01-04-2009 11:57:43 12.7 C 3.45 g/m*3 12.7 C 0 km/h
896 01-04-2009 12:09:43 12.9 C 3.27 g/m*3 12.9 C 0 km/h
897 01-04-2009 12:21:42 13.4 C 3.14 g/m*3 13.4 C 0 km/h
898 01-04-2009 12:33:43 13.7 C 3.32 g/m*3 13.7 C 0 km/h
899 01-04-2009 12:45:42 14.1 C 3.16 g/m*3 14.1 C 0 km/h
900 01-04-2009 12:57:42 14.4 C 3.09 g/m*3 14.4 C 0 km/h
Sensor: Nr:Datum:Temp:Abs-Feuchte:Windchill:Wind:
Aussen-T/F 901 01-04-2009 13:09:42 14.8 C 2.91 g/m*3 14.8 C 0 km/h
902 01-04-2009 13:21:42 14.9 C 3.19 g/m*3 14.9 C 0 km/h
903 01-04-2009 13:33:42 15.6 C 2.79 g/m*3 15.6 C 0 km/h
904 01-04-2009 13:45:42 16 C 2.72 g/m*3 16 C 0 km/h
905 01-04-2009 13:57:42 16.5 C 2.81 g/m*3 16.5 C 0 km/h
906 01-04-2009 14:09:41 17.2 C 3.08 g/m*3 17.2 C 0 km/h
907 01-04-2009 14:21:42 17.6 C 3 g/m*3 17.6 C 0 km/h
908 01-04-2009 14:33:41 18.3 C 3.13 g/m*3 18.3 C 0 km/h
909 01-04-2009 14:45:41 18.6 C 3.18 g/m*3 18.6 C 0 km/h
910 01-04-2009 14:57:42 18.8 C 3.22 g/m*3 18.8 C 0 km/h
911 01-04-2009 15:09:41 18.8 C 3.22 g/m*3 18.8 C 0 km/h
912 01-04-2009 15:21:41 19.5 C 3.36 g/m*3 19.5 C 0 km/h
913 01-04-2009 15:33:41 19.9 C 3.44 g/m*3 19.9 C 0 km/h
914 01-04-2009 15:45:41 19.7 C 3.4 g/m*3 19.7 C 0 km/h
915 01-04-2009 15:57:41 20.2 C 3.5 g/m*3 20.2 C 0 km/h
916 01-04-2009 16:09:41 20.3 C 3.52 g/m*3 20.3 C 0 km/h
917 01-04-2009 16:21:40 20.5 C 3.56 g/m*3 20.5 C 0 km/h
918 01-04-2009 16:33:40 20.8 C 3.62 g/m*3 20.8 C 0 km/h
919 01-04-2009 16:45:40 21.1 C 3.69 g/m*3 21.1 C 0 km/h
920 01-04-2009 16:57:40 21.4 C 3.75 g/m*3 21.4 C 0 km/h
921 01-04-2009 17:09:40 21.2 C 3.71 g/m*3 21.2 C 0 km/h
922 01-04-2009 17:21:39 21.5 C 3.77 g/m*3 21.5 C 0 km/h
923 01-04-2009 17:33:40 21.5 C 3.77 g/m*3 21.5 C 0 km/h
924 01-04-2009 17:45:39 21.5 C 3.77 g/m*3 21.5 C 0 km/h
925 01-04-2009 17:57:39 21.1 C 3.69 g/m*3 21.1 C 0 km/h
Sensor: Nr:Datum:Temp:Abs-Feuchte:Windchill:Wind:
Aussen-T/F 926 01-04-2009 18:09:39 20.8 C 3.62 g/m*3 20.8 C 0 km/h
927 01-04-2009 18:21:40 20.3 C 3.52 g/m*3 20.3 C 0 km/h
928 01-04-2009 18:33:39 20.4 C 3.54 g/m*3 20.4 C 0 km/h
929 01-04-2009 18:45:39 19.7 C 3.4 g/m*3 19.7 C 0 km/h
930 01-04-2009 18:57:39 19.1 C 3.28 g/m*3 19.1 C 0 km/h
931 01-04-2009 19:09:39 18.6 C 3.18 g/m*3 18.6 C 0 km/h
932 01-04-2009 19:21:39 18.2 C 3.11 g/m*3 18.2 C 0 km/h
933 01-04-2009 19:33:38 17.5 C 3.13 g/m*3 17.5 C 0 km/h
934 01-04-2009 19:45:39 16.7 C 3.69 g/m*3 16.7 C 0 km/h
935 01-04-2009 19:57:39 15.8 C 3.77 g/m*3 15.8 C 0 km/h
936 01-04-2009 20:09:38 15.1 C 3.74 g/m*3 15.1 C 0 km/h
937 01-04-2009 20:21:38 14.6 C 3.75 g/m*3 14.6 C 0 km/h
938 01-04-2009 20:33:38 14.3 C 3.81 g/m*3 14.3 C 0 km/h
939 01-04-2009 20:45:38 13.8 C 3.93 g/m*3 13.8 C 0 km/h
940 01-04-2009 20:57:38 13.5 C 3.86 g/m*3 13.5 C 0 km/h
941 01-04-2009 21:09:37 13.4 C 3.84 g/m*3 13.4 C 0 km/h
942 01-04-2009 21:21:38 13.1 C 3.77 g/m*3 13.1 C 0 km/h
943 01-04-2009 21:33:38 13 C 3.86 g/m*3 13 C 0 km/h
944 01-04-2009 21:45:37 12.8 C 3.92 g/m*3 12.8 C 0 km/h
945 01-04-2009 21:57:37 12.5 C 3.96 g/m*3 12.5 C 0 km/h
946 01-04-2009 22:10:38 12.5 C 3.96 g/m*3 12.5 C 0 km/h
947 01-04-2009 22:22:38 12.2 C 3.99 g/m*3 12.2 C 0 km/h
948 01-04-2009 22:34:38 12.2 C 3.99 g/m*3 12.2 C 0 km/h
949 01-04-2009 22:46:38 11.9 C 4.13 g/m*3 11.9 C 0 km/h
950 01-04-2009 22:58:38 11.8 C 4.21 g/m*3 11.8 C 0 km/h
Sensor: Nr:Datum:Temp:Abs-Feuchte:Windchill:Wind:
Aussen-T/F 951 01-04-2009 23:10:39 11.7 C 4.18 g/m*3 11.7 C 0 km/h
952 01-04-2009 23:22:39 11.7 C 4.29 g/m*3 11.7 C 0 km/h
953 01-04-2009 23:34:39 12 C 4.26 g/m*3 12 C 0 km/h
954 01-04-2009 23:46:39 12.2 C 4.21 g/m*3 12.2 C 0 km/h
955 01-04-2009 23:58:39 12.4 C 4.15 g/m*3 12.4 C 0 km/h
956 02-04-2009 00:10:39 12.5 C 4.18 g/m*3 12.5 C 0 km/h
957 02-04-2009 00:22:39 12.6 C 4.2 g/m*3 12.6 C 0 km/h
958 02-04-2009 00:34:39 12.5 C 4.29 g/m*3 12.5 C 0 km/h
959 02-04-2009 00:46:39 12.4 C 4.37 g/m*3 12.4 C 0 km/h
960 02-04-2009 00:58:39 12.4 C 4.26 g/m*3 12.4 C 0 km/h
961 02-04-2009 01:10:39 12 C 4.26 g/m*3 12 C 0 km/h
962 02-04-2009 01:22:39 11.8 C 4.32 g/m*3 11.8 C 0 km/h
963 02-04-2009 01:34:39 11.5 C 4.34 g/m*3 11.5 C 0 km/h
964 02-04-2009 01:46:39 11.4 C 4.31 g/m*3 11.4 C 0 km/h
965 02-04-2009 01:58:39 11.5 C 4.44 g/m*3 11.5 C 0 km/h
966 02-04-2009 02:10:39 11.5 C 4.44 g/m*3 11.5 C 0 km/h
967 02-04-2009 02:22:39 11.3 C 4.39 g/m*3 11.3 C 0 km/h
968 02-04-2009 02:34:39 10.8 C 4.45 g/m*3 10.8 C 0 km/h
969 02-04-2009 02:46:39 10.6 C 4.39 g/m*3 10.6 C 0 km/h
970 02-04-2009 02:58:40 10.5 C 4.36 g/m*3 10.5 C 0 km/h
971 02-04-2009 03:10:40 10.3 C 4.41 g/m*3 10.3 C 0 km/h
972 02-04-2009 03:22:40 10.2 C 4.38 g/m*3 10.2 C 0 km/h
973 02-04-2009 03:34:40 10.2 C 4.38 g/m*3 10.2 C 0 km/h
974 02-04-2009 03:46:40 10.1 C 4.35 g/m*3 10.1 C 0 km/h
975 02-04-2009 03:58:40 10 C 4.32 g/m*3 10 C 0 km/h
Sensor: Nr:Datum:Temp:Abs-Feuchte:Windchill:Wind:
Aussen-T/F 976 02-04-2009 04:10:40 10 C 4.32 g/m*3 10 C 0 km/h
977 02-04-2009 04:22:40 10 C 4.32 g/m*3 10 C 0 km/h
978 02-04-2009 04:34:40 9.9 C 4.39 g/m*3 9.9 C 0 km/h
979 02-04-2009 04:46:40 9.8 C 4.36 g/m*3 9.8 C 0 km/h
980 02-04-2009 04:58:40 9.7 C 4.33 g/m*3 9.7 C 0 km/h
981 02-04-2009 05:10:40 9.6 C 4.31 g/m*3 9.6 C 0 km/h
982 02-04-2009 05:22:40 9.5 C 4.37 g/m*3 9.5 C 0 km/h
983 02-04-2009 05:34:40 9.3 C 4.4 g/m*3 9.3 C 0 km/h
984 02-04-2009 05:46:40 9.2 C 4.46 g/m*3 9.2 C 0 km/h
985 02-04-2009 05:58:40 9.3 C 4.49 g/m*3 9.3 C 0 km/h
986 02-04-2009 06:10:40 9.2 C 4.46 g/m*3 9.2 C 0 km/h
987 02-04-2009 06:22:40 8.9 C 4.56 g/m*3 8.9 C 0 km/h
988 02-04-2009 06:34:40 8.7 C 4.58 g/m*3 8.7 C 0 km/h
989 02-04-2009 06:46:41 8.5 C 4.61 g/m*3 8.5 C 0 km/h
990 02-04-2009 06:58:41 8.5 C 4.61 g/m*3 8.5 C 0 km/h
991 02-04-2009 07:10:38 8.5 C 4.61 g/m*3 8.5 C 0 km/h
992 02-04-2009 07:22:38 8.4 C 4.67 g/m*3 8.4 C 0 km/h
993 02-04-2009 07:34:38 8.3 C 4.72 g/m*3 8.3 C 0 km/h
994 02-04-2009 07:46:38 8.2 C 4.77 g/m*3 8.2 C 0 km/h
995 02-04-2009 07:58:38 8.2 C 4.77 g/m*3 8.2 C 0 km/h
996 02-04-2009 08:10:38 8.1 C 4.74 g/m*3 8.1 C 0 km/h
997 02-04-2009 08:22:37 8.2 C 4.77 g/m*3 8.2 C 0 km/h
998 02-04-2009 08:34:38 8.3 C 4.8 g/m*3 8.3 C 0 km/h
999 02-04-2009 08:46:37 8.5 C 4.87 g/m*3 8.5 C 0 km/h
1000 02-04-2009 08:58:37 8.9 C 4.99 g/m*3 8.9 C 0 km/h
Sensor: Nr:Datum:Temp:Abs-Feuchte:Windchill:Wind:
Aussen-T/F 1001 02-04-2009 09:10:37 9.1 C 4.97 g/m*3 9.1 C 0 km/h
1002 02-04-2009 09:22:37 9.5 C 4.92 g/m*3 9.5 C 0 km/h
1003 02-04-2009 09:34:37 10.1 C 4.92 g/m*3 10.1 C 0 km/h
1004 02-04-2009 09:46:36 10.7 C 4.91 g/m*3 10.7 C 0 km/h
1005 02-04-2009 09:58:36 11.1 C 4.94 g/m*3 11.1 C 0 km/h
1006 02-04-2009 10:10:37 11.6 C 4.89 g/m*3 11.6 C 0 km/h
1007 02-04-2009 10:22:36 12.1 C 5.04 g/m*3 12.1 C 0 km/h
1008 02-04-2009 10:34:36 12.6 C 5.09 g/m*3 12.6 C 0 km/h
1009 02-04-2009 10:46:37 13.1 C 5.02 g/m*3 13.1 C 0 km/h
1010 02-04-2009 10:58:37 13.5 C 5.03 g/m*3 13.5 C 0 km/h
1011 02-04-2009 11:10:36 14 C 4.95 g/m*3 14 C 0 km/h
1012 02-04-2009 11:22:36 14.3 C 5.04 g/m*3 14.3 C 0 km/h
1013 02-04-2009 11:34:35 14.6 C 5.01 g/m*3 14.6 C 0 km/h
1014 02-04-2009 11:46:36 15.1 C 5.03 g/m*3 15.1 C 0 km/h
1015 02-04-2009 11:58:36 15.4 C 4.99 g/m*3 15.4 C 0 km/h
1016 02-04-2009 12:10:35 15.8 C 5.12 g/m*3 15.8 C 0 km/h
1017 02-04-2009 12:22:35 16.4 C 5.3 g/m*3 16.4 C 0 km/h
1018 02-04-2009 12:34:35 16.6 C 5.23 g/m*3 16.6 C 0 km/h
1019 02-04-2009 12:46:35 17 C 5.21 g/m*3 17 C 0 km/h
1020 02-04-2009 12:58:35 17.4 C 5.19 g/m*3 17.4 C 0 km/h
1021 02-04-2009 13:10:34 17.8 C 5.31 g/m*3 17.8 C 0 km/h
1022 02-04-2009 13:22:35 18.2 C 5.44 g/m*3 18.2 C 0 km/h
1023 02-04-2009 13:34:35 18.7 C 5.12 g/m*3 18.7 C 0 km/h
1024 02-04-2009 13:46:34 19.4 C 5.34 g/m*3 19.4 C 0 km/h
1025 02-04-2009 13:58:34 19.6 C 5.06 g/m*3 19.6 C 0 km/h
Sensor: Nr:Datum:Temp:Abs-Feuchte:Windchill:Wind:
Aussen-T/F 1026 02-04-2009 14:10:35 20 C 5.18 g/m*3 20 C 0 km/h
1027 02-04-2009 14:22:34 20.3 C 5.1 g/m*3 20.3 C 0 km/h
1028 02-04-2009 14:34:34 20.8 C 5.07 g/m*3 20.8 C 0 km/h
1029 02-04-2009 14:46:34 21.6 C 4.93 g/m*3 21.6 C 0 km/h
1030 02-04-2009 14:58:34 22.2 C 5.1 g/m*3 22.2 C 0 km/h
1031 02-04-2009 15:10:34 22.6 C 4.82 g/m*3 22.6 C 0 km/h
1032 02-04-2009 15:22:33 23 C 4.52 g/m*3 23 C 0 km/h
1033 02-04-2009 15:34:33 23.5 C 4.86 g/m*3 23.5 C 0 km/h
1034 02-04-2009 15:46:33 23.6 C 4.47 g/m*3 23.6 C 0 km/h
1035 02-04-2009 15:58:33 24.4 C 4.67 g/m*3 24.4 C 0 km/h
1036 02-04-2009 16:10:33 24.1 C 4.38 g/m*3 24.1 C 0 km/h
1037 02-04-2009 16:22:33 24.1 C 4.59 g/m*3 24.1 C 0 km/h
1038 02-04-2009 16:34:33 25.3 C 4.68 g/m*3 25.3 C 0 km/h
1039 02-04-2009 16:46:33 25.1 C 4.63 g/m*3 25.1 C 0 km/h
1040 02-04-2009 16:58:33 25.4 C 4.71 g/m*3 25.4 C 0 km/h
1041 02-04-2009 17:10:32 25.5 C 4.73 g/m*3 25.5 C 0 km/h
1042 02-04-2009 17:22:33 25.7 C 4.79 g/m*3 25.7 C 0 km/h
1043 02-04-2009 17:34:32 25.6 C 4.76 g/m*3 25.6 C 0 km/h
1044 02-04-2009 17:46:32 25.8 C 4.82 g/m*3 25.8 C 0 km/h
1045 02-04-2009 17:58:32 25.4 C 4.71 g/m*3 25.4 C 0 km/h
1046 02-04-2009 18:10:32 25.3 C 4.68 g/m*3 25.3 C 0 km/h
1047 02-04-2009 18:22:32 25.1 C 4.63 g/m*3 25.1 C 0 km/h
1048 02-04-2009 18:34:32 24.9 C 4.81 g/m*3 24.9 C 0 km/h
1049 02-04-2009 18:46:31 24.7 C 4.75 g/m*3 24.7 C 0 km/h
1050 02-04-2009 18:58:31 24.1 C 4.81 g/m*3 24.1 C 0 km/h
Sensor: Nr:Datum:Temp:Abs-Feuchte:Windchill:Wind:
Aussen-T/F 1051 02-04-2009 19:10:32 22.9 C 5.11 g/m*3 22.9 C 0 km/h
1052 02-04-2009 19:22:31 22.5 C 5.19 g/m*3 22.5 C 0 km/h
1053 02-04-2009 19:34:31 21.6 C 5.31 g/m*3 21.6 C 0 km/h
1054 02-04-2009 19:46:31 20.7 C 5.58 g/m*3 20.7 C 0 km/h
1055 02-04-2009 19:58:31 19.8 C 5.98 g/m*3 19.8 C 0 km/h
1056 02-04-2009 20:10:31 19.2 C 5.77 g/m*3 19.2 C 0 km/h
1057 02-04-2009 20:22:30 18.7 C 5.92 g/m*3 18.7 C 0 km/h
1058 02-04-2009 20:34:31 18.2 C 5.75 g/m*3 18.2 C 0 km/h
1059 02-04-2009 20:46:30 17.6 C 6 g/m*3 17.6 C 0 km/h
1060 02-04-2009 20:58:30 17.1 C 5.82 g/m*3 17.1 C 0 km/h
1061 02-04-2009 21:10:30 16.8 C 5.72 g/m*3 16.8 C 0 km/h
1062 02-04-2009 21:22:31 16.8 C 5.86 g/m*3 16.8 C 0 km/h
1063 02-04-2009 21:34:30 16.6 C 5.79 g/m*3 16.6 C 0 km/h
1064 02-04-2009 21:46:30 16.5 C 5.76 g/m*3 16.5 C 0 km/h
1065 02-04-2009 21:58:30 16.1 C 5.76 g/m*3 16.1 C 0 km/h
1066 02-04-2009 22:11:32 15.8 C 5.79 g/m*3 15.8 C 0 km/h
1067 02-04-2009 22:23:32 15.6 C 5.72 g/m*3 15.6 C 0 km/h
1068 02-04-2009 22:35:32 15.4 C 5.78 g/m*3 15.4 C 0 km/h
1069 02-04-2009 22:47:32 15.1 C 5.81 g/m*3 15.1 C 0 km/h
1070 02-04-2009 22:59:32 14.8 C 5.83 g/m*3 14.8 C 0 km/h
1071 02-04-2009 23:11:32 14.5 C 5.85 g/m*3 14.5 C 0 km/h
1072 02-04-2009 23:23:32 14.4 C 5.81 g/m*3 14.4 C 0 km/h
1073 02-04-2009 23:35:32 14 C 5.91 g/m*3 14 C 0 km/h
1074 02-04-2009 23:47:32 14 C 5.79 g/m*3 14 C 0 km/h
1075 02-04-2009 23:59:32 13.9 C 5.99 g/m*3 13.9 C 0 km/h
Sensor: Nr:Datum:Temp:Abs-Feuchte:Windchill:Wind:
Aussen-T/F 1076 03-04-2009 00:11:32 13.6 C 5.88 g/m*3 13.6 C 0 km/h
1077 03-04-2009 00:23:32 13.8 C 5.96 g/m*3 13.8 C 0 km/h
1078 03-04-2009 00:35:32 13.6 C 5.88 g/m*3 13.6 C 0 km/h
1079 03-04-2009 00:47:32 13.4 C 5.93 g/m*3 13.4 C 0 km/h
1080 03-04-2009 00:59:32 13.2 C 5.86 g/m*3 13.2 C 0 km/h
1081 03-04-2009 01:11:32 13.1 C 5.82 g/m*3 13.1 C 0 km/h
1082 03-04-2009 01:23:32 12.8 C 6.05 g/m*3 12.8 C 0 km/h
1083 03-04-2009 01:35:32 12.6 C 5.97 g/m*3 12.6 C 0 km/h
1084 03-04-2009 01:47:32 12.6 C 6.08 g/m*3 12.6 C 0 km/h
1085 03-04-2009 01:59:33 12.4 C 6.01 g/m*3 12.4 C 0 km/h
1086 03-04-2009 02:11:33 12.2 C 6.04 g/m*3 12.2 C 0 km/h
1087 03-04-2009 02:23:33 12 C 5.97 g/m*3 12 C 0 km/h
1088 03-04-2009 02:35:33 11.6 C 6.13 g/m*3 11.6 C 0 km/h
1089 03-04-2009 02:47:33 11.4 C 6.16 g/m*3 11.4 C 0 km/h
1090 03-04-2009 02:59:33 11.1 C 6.14 g/m*3 11.1 C 0 km/h
1091 03-04-2009 03:11:33 10.7 C 6.09 g/m*3 10.7 C 0 km/h
1092 03-04-2009 03:23:33 10.4 C 6.07 g/m*3 10.4 C 0 km/h
1093 03-04-2009 03:35:33 10.2 C 6.19 g/m*3 10.2 C 0 km/h
1094 03-04-2009 03:47:33 10.1 C 6.15 g/m*3 10.1 C 0 km/h
1095 03-04-2009 03:59:33 9.8 C 6.12 g/m*3 9.8 C 0 km/h
1096 03-04-2009 04:11:33 9.6 C 6.14 g/m*3 9.6 C 0 km/h
1097 03-04-2009 04:23:33 9.5 C 6.19 g/m*3 9.5 C 0 km/h
1098 03-04-2009 04:35:33 9.2 C 6.16 g/m*3 9.2 C 0 km/h
1099 03-04-2009 04:47:33 9 C 6.17 g/m*3 9 C 0 km/h
1100 03-04-2009 04:59:33 8.9 C 6.22 g/m*3 8.9 C 0 km/h
Sensor: Nr:Datum:Temp:Abs-Feuchte:Windchill:Wind:
Aussen-T/F 1101 03-04-2009 05:11:33 8.9 C 6.13 g/m*3 8.9 C 0 km/h
1102 03-04-2009 05:23:33 8.7 C 6.23 g/m*3 8.7 C 0 km/h
1103 03-04-2009 05:35:33 8.6 C 6.19 g/m*3 8.6 C 0 km/h
1104 03-04-2009 05:47:34 8.4 C 6.19 g/m*3 8.4 C 0 km/h
1105 03-04-2009 05:59:34 8.2 C 6.11 g/m*3 8.2 C 0 km/h
1106 03-04-2009 06:11:34 8 C 6.12 g/m*3 8 C 0 km/h
1107 03-04-2009 06:23:34 7.8 C 6.2 g/m*3 7.8 C 0 km/h
1108 03-04-2009 06:35:34 7.8 C 6.28 g/m*3 7.8 C 0 km/h
1109 03-04-2009 06:47:34 7.7 C 6.16 g/m*3 7.7 C 0 km/h
1110 03-04-2009 06:59:34 7.6 C 6.12 g/m*3 7.6 C 0 km/h
1111 03-04-2009 07:11:31 7.6 C 6.12 g/m*3 7.6 C 0 km/h
1112 03-04-2009 07:23:31 7.5 C 6.08 g/m*3 7.5 C 0 km/h
1113 03-04-2009 07:35:31 7.4 C 6.04 g/m*3 7.4 C 0 km/h
1114 03-04-2009 07:47:31 7.3 C 6 g/m*3 7.3 C 0 km/h
1115 03-04-2009 07:59:31 7.4 C 6.12 g/m*3 7.4 C 0 km/h
1116 03-04-2009 08:11:30 7.4 C 6.12 g/m*3 7.4 C 0 km/h
1117 03-04-2009 08:23:31 7.5 C 6.16 g/m*3 7.5 C 0 km/h
1118 03-04-2009 08:35:30 7.6 C 6.2 g/m*3 7.6 C 0 km/h
1119 03-04-2009 08:47:30 7.7 C 6.32 g/m*3 7.7 C 0 km/h
1120 03-04-2009 08:59:30 8 C 6.37 g/m*3 8 C 0 km/h
1121 03-04-2009 09:11:30 8.3 C 6.49 g/m*3 8.3 C 0 km/h
1122 03-04-2009 09:23:30 8.7 C 6.57 g/m*3 8.7 C 0 km/h
1123 03-04-2009 09:35:30 9.1 C 6.57 g/m*3 9.1 C 0 km/h
1124 03-04-2009 09:47:30 9.7 C 6.73 g/m*3 9.7 C 0 km/h
1125 03-04-2009 09:59:30 10.5 C 6.69 g/m*3 10.5 C 0 km/h
Sensor: Nr:Datum:Temp:Abs-Feuchte:Windchill:Wind:
Aussen-T/F 1126 03-04-2009 10:11:29 11.2 C 6.79 g/m*3 11.2 C 0 km/h
1127 03-04-2009 10:23:29 11.7 C 6.59 g/m*3 11.7 C 0 km/h
1128 03-04-2009 10:35:29 12.4 C 6.45 g/m*3 12.4 C 0 km/h
1129 03-04-2009 10:47:29 13 C 6.58 g/m*3 13 C 0 km/h
1130 03-04-2009 10:59:29 13.6 C 6.71 g/m*3 13.6 C 0 km/h
1131 03-04-2009 11:11:29 14.3 C 6.63 g/m*3 14.3 C 0 km/h
1132 03-04-2009 11:23:28 14.9 C 6.63 g/m*3 14.9 C 0 km/h
1133 03-04-2009 11:35:29 15.5 C 6.34 g/m*3 15.5 C 0 km/h
1134 03-04-2009 11:47:28 16.1 C 6.17 g/m*3 16.1 C 0 km/h
1135 03-04-2009 11:59:28 17 C 6.08 g/m*3 17 C 0 km/h
1136 03-04-2009 12:11:28 17.6 C 6 g/m*3 17.6 C 0 km/h
1137 03-04-2009 12:23:29 18.1 C 6.03 g/m*3 18.1 C 0 km/h
1138 03-04-2009 12:35:28 18.4 C 5.98 g/m*3 18.4 C 0 km/h
1139 03-04-2009 12:47:28 18.8 C 6.12 g/m*3 18.8 C 0 km/h
1140 03-04-2009 12:59:28 19 C 5.87 g/m*3 19 C 0 km/h
1141 03-04-2009 13:11:28 19.5 C 6.04 g/m*3 19.5 C 0 km/h
1142 03-04-2009 13:23:28 20.2 C 6.12 g/m*3 20.2 C 0 km/h
1143 03-04-2009 13:35:27 20.6 C 5.73 g/m*3 20.6 C 0 km/h
1144 03-04-2009 13:47:27 20.7 C 5.76 g/m*3 20.7 C 0 km/h
1145 03-04-2009 13:59:27 21.2 C 5.56 g/m*3 21.2 C 0 km/h
1146 03-04-2009 14:11:27 21.7 C 5.72 g/m*3 21.7 C 0 km/h
1147 03-04-2009 14:23:27 22.9 C 6.13 g/m*3 22.9 C 0 km/h
1148 03-04-2009 14:35:27 23.3 C 5.44 g/m*3 23.3 C 0 km/h
1149 03-04-2009 14:47:27 23.9 C 5.41 g/m*3 23.9 C 0 km/h
1150 03-04-2009 14:59:27 24 C 5.44 g/m*3 24 C 0 km/h
Sensor: Nr:Datum:Temp:Abs-Feuchte:Windchill:Wind:
Aussen-T/F 1151 03-04-2009 15:11:27 23.8 C 5.38 g/m*3 23.8 C 0 km/h
1152 03-04-2009 15:23:27 24.3 C 5.09 g/m*3 24.3 C 0 km/h
1153 03-04-2009 15:35:26 25.1 C 5.09 g/m*3 25.1 C 0 km/h
1154 03-04-2009 15:47:26 25.5 C 5.21 g/m*3 25.5 C 0 km/h
1155 03-04-2009 15:59:26 23.4 C 5.26 g/m*3 23.4 C 0 km/h
1156 03-04-2009 16:11:26 24.6 C 5.4 g/m*3 24.6 C 0 km/h
1157 03-04-2009 16:23:25 23.7 C 5.35 g/m*3 23.7 C 0 km/h
1158 03-04-2009 16:35:26 24.5 C 5.6 g/m*3 24.5 C 0 km/h
1159 03-04-2009 16:47:25 24.5 C 5.6 g/m*3 24.5 C 0 km/h
1160 03-04-2009 16:59:25 24.4 C 5.56 g/m*3 24.4 C 0 km/h
1161 03-04-2009 17:11:26 26 C 5.11 g/m*3 26 C 0 km/h
1162 03-04-2009 17:23:25 24.8 C 5.69 g/m*3 24.8 C 0 km/h
1163 03-04-2009 17:35:25 25.8 C 5.54 g/m*3 25.8 C 0 km/h
1164 03-04-2009 17:47:25 25.8 C 5.54 g/m*3 25.8 C 0 km/h
1165 03-04-2009 17:59:25 26.5 C 5.26 g/m*3 26.5 C 0 km/h
1166 03-04-2009 18:11:25 26.8 C 5.35 g/m*3 26.8 C 0 km/h
1167 03-04-2009 18:23:25 26.1 C 5.39 g/m*3 26.1 C 0 km/h
1168 03-04-2009 18:35:24 25.6 C 5.48 g/m*3 25.6 C 0 km/h
1169 03-04-2009 18:47:25 25.3 C 5.62 g/m*3 25.3 C 0 km/h
1170 03-04-2009 18:59:25 24.7 C 5.88 g/m*3 24.7 C 0 km/h
1171 03-04-2009 19:11:24 24.3 C 5.97 g/m*3 24.3 C 0 km/h
1172 03-04-2009 19:23:24 23.5 C 6.34 g/m*3 23.5 C 0 km/h
1173 03-04-2009 19:35:24 22.4 C 6.55 g/m*3 22.4 C 0 km/h
1174 03-04-2009 19:47:24 21.5 C 6.6 g/m*3 21.5 C 0 km/h
1175 03-04-2009 19:59:24 20.8 C 6.88 g/m*3 20.8 C 0 km/h
Sensor: Nr:Datum:Temp:Abs-Feuchte:Windchill:Wind:
Aussen-T/F 1176 03-04-2009 20:11:23 20.2 C 6.82 g/m*3 20.2 C 0 km/h
1177 03-04-2009 20:23:24 19.5 C 6.88 g/m*3 19.5 C 0 km/h
1178 03-04-2009 20:35:24 19.1 C 6.88 g/m*3 19.1 C 0 km/h
1179 03-04-2009 20:47:23 18.8 C 6.76 g/m*3 18.8 C 0 km/h
1180 03-04-2009 20:59:24 18.9 C 6.8 g/m*3 18.9 C 0 km/h
1181 03-04-2009 21:11:23 18.6 C 6.84 g/m*3 18.6 C 0 km/h
1182 03-04-2009 21:23:23 18.3 C 6.72 g/m*3 18.3 C 0 km/h
1183 03-04-2009 21:35:23 18.1 C 6.95 g/m*3 18.1 C 0 km/h
1184 03-04-2009 21:47:23 17.7 C 6.94 g/m*3 17.7 C 0 km/h
1185 03-04-2009 21:59:23 17.4 C 6.97 g/m*3 17.4 C 0 km/h
1186 03-04-2009 22:11:22 17.2 C 7.03 g/m*3 17.2 C 0 km/h
1187 03-04-2009 22:23:22 17.2 C 7.03 g/m*3 17.2 C 0 km/h
1188 03-04-2009 22:36:24 17 C 6.95 g/m*3 17 C 0 km/h
1189 03-04-2009 22:48:24 16.7 C 7.11 g/m*3 16.7 C 0 km/h
1190 03-04-2009 23:00:24 16.4 C 7.12 g/m*3 16.4 C 0 km/h
1191 03-04-2009 23:12:24 16.3 C 7.08 g/m*3 16.3 C 0 km/h
1192 03-04-2009 23:24:24 16.1 C 7.13 g/m*3 16.1 C 0 km/h
1193 03-04-2009 23:36:24 15.9 C 7.31 g/m*3 15.9 C 0 km/h
1194 03-04-2009 23:48:24 15.8 C 7.27 g/m*3 15.8 C 0 km/h
1195 04-04-2009 00:00:24 15.6 C 7.31 g/m*3 15.6 C 0 km/h
1196 04-04-2009 00:12:24 15.4 C 7.36 g/m*3 15.4 C 0 km/h
1197 04-04-2009 00:24:24 15.4 C 7.23 g/m*3 15.4 C 0 km/h
1198 04-04-2009 00:36:24 15.6 C 7.31 g/m*3 15.6 C 0 km/h
1199 04-04-2009 00:48:24 15.5 C 7.27 g/m*3 15.5 C 0 km/h
1200 04-04-2009 01:00:24 15.3 C 7.31 g/m*3 15.3 C 0 km/h
Sensor: Nr:Datum:Temp:Abs-Feuchte:Windchill:Wind:
Aussen-T/F 1201 04-04-2009 01:12:24 15.2 C 7.4 g/m*3 15.2 C 0 km/h
1202 04-04-2009 01:24:24 15.1 C 7.35 g/m*3 15.1 C 0 km/h
1203 04-04-2009 01:36:24 15.1 C 7.35 g/m*3 15.1 C 0 km/h
1204 04-04-2009 01:48:24 15 C 7.44 g/m*3 15 C 0 km/h
1205 04-04-2009 02:00:24 14.9 C 7.52 g/m*3 14.9 C 0 km/h
1206 04-04-2009 02:12:25 14.8 C 7.47 g/m*3 14.8 C 0 km/h
1207 04-04-2009 02:24:25 14.7 C 7.43 g/m*3 14.7 C 0 km/h
1208 04-04-2009 02:36:25 14.5 C 7.46 g/m*3 14.5 C 0 km/h
1209 04-04-2009 02:48:25 14.2 C 7.45 g/m*3 14.2 C 0 km/h
1210 04-04-2009 03:00:25 14.1 C 7.52 g/m*3 14.1 C 0 km/h
1211 04-04-2009 03:12:25 14 C 7.6 g/m*3 14 C 0 km/h
1212 04-04-2009 03:24:25 13.6 C 7.65 g/m*3 13.6 C 0 km/h
1213 04-04-2009 03:36:25 13.6 C 7.65 g/m*3 13.6 C 0 km/h
1214 04-04-2009 03:48:25 13.7 C 7.7 g/m*3 13.7 C 0 km/h
1215 04-04-2009 04:00:25 13.6 C 7.65 g/m*3 13.6 C 0 km/h
1216 04-04-2009 04:12:25 13.6 C 7.65 g/m*3 13.6 C 0 km/h
1217 04-04-2009 04:24:25 13.6 C 7.65 g/m*3 13.6 C 0 km/h
1218 04-04-2009 04:36:25 13.7 C 7.7 g/m*3 13.7 C 0 km/h
1219 04-04-2009 04:48:25 13.7 C 7.58 g/m*3 13.7 C 0 km/h
1220 04-04-2009 05:00:25 13.8 C 7.63 g/m*3 13.8 C 0 km/h
1221 04-04-2009 05:12:25 13.9 C 7.55 g/m*3 13.9 C 0 km/h
1222 04-04-2009 05:24:25 13.9 C 7.55 g/m*3 13.9 C 0 km/h
1223 04-04-2009 05:36:25 13.9 C 7.55 g/m*3 13.9 C 0 km/h
1224 04-04-2009 05:48:25 14 C 7.48 g/m*3 14 C 0 km/h
1225 04-04-2009 06:00:26 14.2 C 7.57 g/m*3 14.2 C 0 km/h
Sensor: Nr:Datum:Temp:Abs-Feuchte:Windchill:Wind:
Aussen-T/F 1226 04-04-2009 06:12:26 13.8 C 7.51 g/m*3 13.8 C 0 km/h
1227 04-04-2009 06:24:26 13.7 C 7.58 g/m*3 13.7 C 0 km/h
1228 04-04-2009 06:36:26 13.7 C 7.58 g/m*3 13.7 C 0 km/h
1229 04-04-2009 06:48:26 13.6 C 7.53 g/m*3 13.6 C 0 km/h
1230 04-04-2009 07:00:26 13.7 C 7.58 g/m*3 13.7 C 0 km/h
1231 04-04-2009 07:12:26 13.6 C 7.53 g/m*3 13.6 C 0 km/h
1232 04-04-2009 07:24:26 13.5 C 7.49 g/m*3 13.5 C 0 km/h
1233 04-04-2009 07:36:26 13.7 C 7.46 g/m*3 13.7 C 0 km/h
1234 04-04-2009 07:48:26 13.6 C 7.41 g/m*3 13.6 C 0 km/h
1235 04-04-2009 08:00:26 13.5 C 7.49 g/m*3 13.5 C 0 km/h
1236 04-04-2009 08:12:26 13.5 C 7.49 g/m*3 13.5 C 0 km/h
1237 04-04-2009 08:24:26 13.7 C 7.58 g/m*3 13.7 C 0 km/h
1238 04-04-2009 08:36:24 13.9 C 7.55 g/m*3 13.9 C 0 km/h
1239 04-04-2009 08:48:24 14.1 C 7.4 g/m*3 14.1 C 0 km/h
1240 04-04-2009 09:00:24 14.2 C 7.33 g/m*3 14.2 C 0 km/h
1241 04-04-2009 09:12:24 14.4 C 7.42 g/m*3 14.4 C 0 km/h
1242 04-04-2009 09:24:23 14.4 C 7.42 g/m*3 14.4 C 0 km/h
1243 04-04-2009 09:36:24 14.5 C 7.34 g/m*3 14.5 C 0 km/h
1244 04-04-2009 09:48:23 14.6 C 7.38 g/m*3 14.6 C 0 km/h
1245 04-04-2009 10:00:23 14.9 C 7.39 g/m*3 14.9 C 0 km/h
1246 04-04-2009 10:12:23 15.3 C 7.44 g/m*3 15.3 C 0 km/h
1247 04-04-2009 10:24:23 15.5 C 7.4 g/m*3 15.5 C 0 km/h
1248 04-04-2009 10:36:23 15.7 C 7.36 g/m*3 15.7 C 0 km/h
1249 04-04-2009 10:48:23 16 C 7.22 g/m*3 16 C 0 km/h
1250 04-04-2009 11:00:23 16.4 C 7.4 g/m*3 16.4 C 0 km/h
Sensor: Nr:Datum:Temp:Abs-Feuchte:Windchill:Wind:
Aussen-T/F 1251 04-04-2009 11:12:23 16.7 C 7.25 g/m*3 16.7 C 0 km/h
1252 04-04-2009 11:24:22 17.6 C 7.2 g/m*3 17.6 C 0 km/h
1253 04-04-2009 11:36:23 17.7 C 6.94 g/m*3 17.7 C 0 km/h
1254 04-04-2009 11:48:22 18 C 6.91 g/m*3 18 C 0 km/h
1255 04-04-2009 12:00:22 18.4 C 6.76 g/m*3 18.4 C 0 km/h
1256 04-04-2009 12:12:22 18.5 C 6.8 g/m*3 18.5 C 0 km/h
1257 04-04-2009 12:24:21 18.7 C 6.72 g/m*3 18.7 C 0 km/h
1258 04-04-2009 12:36:22 18.7 C 6.56 g/m*3 18.7 C 0 km/h
1259 04-04-2009 12:48:22 19.1 C 6.56 g/m*3 19.1 C 0 km/h
1260 04-04-2009 13:00:21 19.5 C 6.55 g/m*3 19.5 C 0 km/h
1261 04-04-2009 13:12:21 19.5 C 6.38 g/m*3 19.5 C 0 km/h
1262 04-04-2009 13:24:22 19.4 C 6.17 g/m*3 19.4 C 0 km/h
1263 04-04-2009 13:36:21 19.3 C 6.14 g/m*3 19.3 C 0 km/h
1264 04-04-2009 13:48:21 19.9 C 6.19 g/m*3 19.9 C 0 km/h
1265 04-04-2009 14:00:21 20.1 C 6.08 g/m*3 20.1 C 0 km/h
1266 04-04-2009 14:12:21 20.3 C 6.16 g/m*3 20.3 C 0 km/h
1267 04-04-2009 14:24:21 20.7 C 6.3 g/m*3 20.7 C 0 km/h
1268 04-04-2009 14:36:20 20.9 C 6.19 g/m*3 20.9 C 0 km/h
1269 04-04-2009 14:48:20 21.1 C 6.08 g/m*3 21.1 C 0 km/h
1270 04-04-2009 15:00:21 21.6 C 6.07 g/m*3 21.6 C 0 km/h
1271 04-04-2009 15:12:21 21.6 C 5.88 g/m*3 21.6 C 0 km/h
1272 04-04-2009 15:24:20 21.9 C 5.79 g/m*3 21.9 C 0 km/h
1273 04-04-2009 15:36:21 22.1 C 5.86 g/m*3 22.1 C 0 km/h
1274 04-04-2009 15:48:20 22.1 C 5.86 g/m*3 22.1 C 0 km/h
1275 04-04-2009 16:00:20 22.1 C 5.86 g/m*3 22.1 C 0 km/h
Sensor: Nr:Datum:Temp:Abs-Feuchte:Windchill:Wind:
Aussen-T/F 1276 04-04-2009 16:12:20 21.7 C 6.68 g/m*3 21.7 C 0 km/h
1277 04-04-2009 16:24:20 20.3 C 7.03 g/m*3 20.3 C 0 km/h
1278 04-04-2009 16:36:20 20.9 C 6.92 g/m*3 20.9 C 0 km/h
1279 04-04-2009 16:48:19 20.8 C 6.88 g/m*3 20.8 C 0 km/h
1280 04-04-2009 17:00:20 21.8 C 7.1 g/m*3 21.8 C 0 km/h
1281 04-04-2009 17:12:20 22.2 C 6.87 g/m*3 22.2 C 0 km/h
1282 04-04-2009 17:24:19 21.9 C 7.14 g/m*3 21.9 C 0 km/h
1283 04-04-2009 17:36:19 21.6 C 7.02 g/m*3 21.6 C 0 km/h
1284 04-04-2009 17:48:19 20.7 C 7.02 g/m*3 20.7 C 0 km/h
1285 04-04-2009 18:00:19 21.6 C 7.02 g/m*3 21.6 C 0 km/h
1286 04-04-2009 18:12:19 21.4 C 6.75 g/m*3 21.4 C 0 km/h
1287 04-04-2009 18:24:18 20.1 C 6.95 g/m*3 20.1 C 0 km/h
1288 04-04-2009 18:36:18 19.7 C 6.96 g/m*3 19.7 C 0 km/h
1289 04-04-2009 18:48:19 19.2 C 6.76 g/m*3 19.2 C 0 km/h
1290 04-04-2009 19:00:18 18.8 C 6.76 g/m*3 18.8 C 0 km/h
1291 04-04-2009 19:12:18 18.7 C 6.72 g/m*3 18.7 C 0 km/h
1292 04-04-2009 19:24:18 18.2 C 6.68 g/m*3 18.2 C 0 km/h
1293 04-04-2009 19:36:18 17.9 C 7.02 g/m*3 17.9 C 0 km/h
1294 04-04-2009 19:48:18 17.6 C 7.05 g/m*3 17.6 C 0 km/h
1295 04-04-2009 20:00:17 17.4 C 7.11 g/m*3 17.4 C 0 km/h
1296 04-04-2009 20:12:17 17.2 C 7.03 g/m*3 17.2 C 0 km/h
1297 04-04-2009 20:24:18 17.1 C 7.13 g/m*3 17.1 C 0 km/h
1298 04-04-2009 20:36:17 17 C 7.23 g/m*3 17 C 0 km/h
1299 04-04-2009 20:48:17 16.9 C 7.34 g/m*3 16.9 C 0 km/h
1300 04-04-2009 21:00:17 16.8 C 7.29 g/m*3 16.8 C 0 km/h
Sensor: Nr:Datum:Temp:Abs-Feuchte:Windchill:Wind:
Aussen-T/F 1301 04-04-2009 21:12:17 16.8 C 7.43 g/m*3 16.8 C 0 km/h
1302 04-04-2009 21:24:17 16.5 C 7.3 g/m*3 16.5 C 0 km/h
1303 04-04-2009 21:36:17 16.3 C 7.35 g/m*3 16.3 C 0 km/h
1304 04-04-2009 21:48:16 16.2 C 7.31 g/m*3 16.2 C 0 km/h
1305 04-04-2009 22:00:17 15.9 C 7.45 g/m*3 15.9 C 0 km/h
1306 04-04-2009 22:12:17 15.6 C 7.45 g/m*3 15.6 C 0 km/h
1307 04-04-2009 22:24:16 15.2 C 7.4 g/m*3 15.2 C 0 km/h
1308 04-04-2009 22:37:17 15.1 C 7.35 g/m*3 15.1 C 0 km/h
1309 04-04-2009 22:49:17 14.9 C 7.52 g/m*3 14.9 C 0 km/h
1310 04-04-2009 23:01:17 14.5 C 7.46 g/m*3 14.5 C 0 km/h
1311 04-04-2009 23:13:17 14.3 C 7.62 g/m*3 14.3 C 0 km/h
1312 04-04-2009 23:25:17 14.2 C 7.57 g/m*3 14.2 C 0 km/h
1313 04-04-2009 23:37:17 14.4 C 7.54 g/m*3 14.4 C 0 km/h
1314 04-04-2009 23:49:17 14.4 C 7.54 g/m*3 14.4 C 0 km/h
1315 05-04-2009 00:01:17 14.4 C 7.42 g/m*3 14.4 C 0 km/h
1316 05-04-2009 00:13:17 14.2 C 7.45 g/m*3 14.2 C 0 km/h
1317 05-04-2009 00:25:17 14 C 7.36 g/m*3 14 C 0 km/h
1318 05-04-2009 00:37:17 13.7 C 7.34 g/m*3 13.7 C 0 km/h
1319 05-04-2009 00:49:17 13.7 C 7.46 g/m*3 13.7 C 0 km/h
1320 05-04-2009 01:01:17 13.9 C 7.43 g/m*3 13.9 C 0 km/h
1321 05-04-2009 01:13:18 14.1 C 7.4 g/m*3 14.1 C 0 km/h
1322 05-04-2009 01:25:18 13.8 C 7.51 g/m*3 13.8 C 0 km/h
1323 05-04-2009 01:37:18 13.5 C 7.25 g/m*3 13.5 C 0 km/h
1324 05-04-2009 01:49:18 13.1 C 7.19 g/m*3 13.1 C 0 km/h
1325 05-04-2009 02:01:18 13 C 7.26 g/m*3 13 C 0 km/h
Sensor: Nr:Datum:Temp:Abs-Feuchte:Windchill:Wind:
Aussen-T/F 1326 05-04-2009 02:13:18 12.8 C 7.39 g/m*3 12.8 C 0 km/h
1327 05-04-2009 02:25:18 12.7 C 7.35 g/m*3 12.7 C 0 km/h
1328 05-04-2009 02:37:18 12.5 C 7.26 g/m*3 12.5 C 0 km/h
1329 05-04-2009 02:49:18 12.8 C 7.39 g/m*3 12.8 C 0 km/h
1330 05-04-2009 03:01:18 12.6 C 7.3 g/m*3 12.6 C 0 km/h
1331 05-04-2009 03:13:18 12.3 C 7.17 g/m*3 12.3 C 0 km/h
1332 05-04-2009 03:25:18 12.2 C 7.23 g/m*3 12.2 C 0 km/h
1333 05-04-2009 03:37:18 12 C 7.25 g/m*3 12 C 0 km/h
1334 05-04-2009 03:49:18 11.9 C 7.31 g/m*3 11.9 C 0 km/h
1335 05-04-2009 04:01:18 11.7 C 7.22 g/m*3 11.7 C 0 km/h
1336 05-04-2009 04:13:18 11.2 C 6.99 g/m*3 11.2 C 0 km/h
1337 05-04-2009 04:25:18 11 C 7.01 g/m*3 11 C 0 km/h
1338 05-04-2009 04:37:18 10.8 C 7.12 g/m*3 10.8 C 0 km/h
1339 05-04-2009 04:49:18 10.7 C 7.07 g/m*3 10.7 C 0 km/h
1340 05-04-2009 05:01:19 10.8 C 7.22 g/m*3 10.8 C 0 km/h
1341 05-04-2009 05:13:19 10.7 C 7.17 g/m*3 10.7 C 0 km/h
1342 05-04-2009 05:25:19 10.7 C 7.17 g/m*3 10.7 C 0 km/h
1343 05-04-2009 05:37:19 10.7 C 7.17 g/m*3 10.7 C 0 km/h
1344 05-04-2009 05:49:16 10.8 C 7.22 g/m*3 10.8 C 0 km/h
1345 05-04-2009 06:01:17 10.7 C 7.17 g/m*3 10.7 C 0 km/h
1346 05-04-2009 06:13:17 10.6 C 7.12 g/m*3 10.6 C 0 km/h
1347 05-04-2009 06:25:17 10.6 C 7.12 g/m*3 10.6 C 0 km/h
1348 05-04-2009 06:37:16 10.6 C 7.12 g/m*3 10.6 C 0 km/h
1349 05-04-2009 06:49:17 10.7 C 7.17 g/m*3 10.7 C 0 km/h
1350 05-04-2009 07:01:01 10.8 C 7.22 g/m*3 10.8 C 0 km/h
Sensor: Nr:Datum:Temp:Abs-Feuchte:Windchill:Wind:
Aussen-T/F 1351 05-04-2009 07:13:01 10.6 C 7.12 g/m*3 10.6 C 0 km/h
1352 05-04-2009 07:25:01 10.7 C 7.27 g/m*3 10.7 C 0 km/h
1353 05-04-2009 07:37:01 10.9 C 7.26 g/m*3 10.9 C 0 km/h
1354 05-04-2009 07:49:01 11 C 7.21 g/m*3 11 C 0 km/h
1355 05-04-2009 08:01:01 11 C 7.21 g/m*3 11 C 0 km/h
1356 05-04-2009 08:13:01 11 C 7.21 g/m*3 11 C 0 km/h
1357 05-04-2009 08:25:00 11.2 C 7.3 g/m*3 11.2 C 0 km/h
1358 05-04-2009 08:37:01 11.3 C 7.24 g/m*3 11.3 C 0 km/h
1359 05-04-2009 08:49:00 11.5 C 7.33 g/m*3 11.5 C 0 km/h
1360 05-04-2009 09:01:01 11.6 C 7.28 g/m*3 11.6 C 0 km/h
1361 05-04-2009 09:13:01 12.4 C 7.43 g/m*3 12.4 C 0 km/h
1362 05-04-2009 09:25:00 12.3 C 7.17 g/m*3 12.3 C 0 km/h
1363 05-04-2009 09:37:01 12.6 C 7.19 g/m*3 12.6 C 0 km/h
1364 05-04-2009 09:49:00 12.7 C 7.12 g/m*3 12.7 C 0 km/h
1365 05-04-2009 10:01:00 13.1 C 7.19 g/m*3 13.1 C 0 km/h
1366 05-04-2009 10:13:00 13.2 C 6.77 g/m*3 13.2 C 0 km/h
1367 05-04-2009 10:25:59 13.4 C 6.86 g/m*3 13.4 C 0 km/h
1368 05-04-2009 10:37:00 13.9 C 6.83 g/m*3 13.9 C 0 km/h
1369 05-04-2009 10:49:59 14.2 C 6.47 g/m*3 14.2 C 0 km/h
1370 05-04-2009 11:01:01 15 C 6.54 g/m*3 15 C 0 km/h
1371 05-04-2009 11:13:01 15.2 C 6.49 g/m*3 15.2 C 0 km/h
1372 05-04-2009 11:25:02 15.2 C 6.1 g/m*3 15.2 C 0 km/h
1373 05-04-2009 11:37:02 15.5 C 6.48 g/m*3 15.5 C 0 km/h
1374 05-04-2009 11:49:02 16.3 C 6.1 g/m*3 16.3 C 0 km/h
1375 05-04-2009 12:01:01 16 C 6.27 g/m*3 16 C 0 km/h
Sensor: Nr:Datum:Temp:Abs-Feuchte:Windchill:Wind:
Aussen-T/F 1376 05-04-2009 12:13:01 16.7 C 6.25 g/m*3 16.7 C 0 km/h
1377 05-04-2009 12:25:02 17.4 C 6.52 g/m*3 17.4 C 0 km/h
1378 05-04-2009 12:37:01 17.7 C 6.49 g/m*3 17.7 C 0 km/h
1379 05-04-2009 12:49:01 17.8 C 6.68 g/m*3 17.8 C 0 km/h
1380 05-04-2009 13:01:01 18.2 C 6.53 g/m*3 18.2 C 0 km/h
1381 05-04-2009 13:13:01 18.7 C 6.56 g/m*3 18.7 C 0 km/h
1382 05-04-2009 13:25:01 19.2 C 6.43 g/m*3 19.2 C 0 km/h
1383 05-04-2009 13:37:00 19.5 C 6.21 g/m*3 19.5 C 0 km/h
1384 05-04-2009 13:49:00 19 C 6.19 g/m*3 19 C 0 km/h
1385 05-04-2009 14:01:00 19.2 C 6.43 g/m*3 19.2 C 0 km/h
1386 05-04-2009 14:13:00 20.2 C 6.29 g/m*3 20.2 C 0 km/h
1387 05-04-2009 14:25:00 19.9 C 6.19 g/m*3 19.9 C 0 km/h
1388 05-04-2009 14:37:00 20 C 6.05 g/m*3 20 C 0 km/h
1389 05-04-2009 14:49:00 19.7 C 5.94 g/m*3 19.7 C 0 km/h
1390 05-04-2009 15:01:00 20.7 C 6.12 g/m*3 20.7 C 0 km/h
1391 05-04-2009 15:13:00 21.2 C 5.93 g/m*3 21.2 C 0 km/h
1392 05-04-2009 15:24:59 20.1 C 5.74 g/m*3 20.1 C 0 km/h
1393 05-04-2009 15:37:00 20.2 C 5.94 g/m*3 20.2 C 0 km/h
1394 05-04-2009 15:49:59 21.6 C 5.69 g/m*3 21.6 C 0 km/h
1395 05-04-2009 16:01:59 20.3 C 5.28 g/m*3 20.3 C 0 km/h
1396 05-04-2009 16:13:00 21.5 C 5.28 g/m*3 21.5 C 0 km/h
1397 05-04-2009 16:25:59 21.8 C 5.37 g/m*3 21.8 C 0 km/h
1398 05-04-2009 16:37:59 20.8 C 5.61 g/m*3 20.8 C 0 km/h
1399 05-04-2009 16:49:58 21.1 C 5.34 g/m*3 21.1 C 0 km/h
1400 05-04-2009 17:01:59 20.5 C 5.16 g/m*3 20.5 C 0 km/h
Sensor: Nr:Datum:Temp:Abs-Feuchte:Windchill:Wind:
Aussen-T/F 1401 05-04-2009 17:13:59 21.2 C 5 g/m*3 21.2 C 0 km/h
1402 05-04-2009 17:25:59 19.7 C 5.09 g/m*3 19.7 C 0 km/h
1403 05-04-2009 17:37:58 19.9 C 5.33 g/m*3 19.9 C 0 km/h
1404 05-04-2009 17:49:59 19.1 C 5.41 g/m*3 19.1 C 0 km/h
1405 05-04-2009 18:01:58 18.9 C 5.51 g/m*3 18.9 C 0 km/h
1406 05-04-2009 18:13:58 19.5 C 5.54 g/m*3 19.5 C 0 km/h
1407 05-04-2009 18:25:58 19 C 5.7 g/m*3 19 C 0 km/h
1408 05-04-2009 18:37:58 18.3 C 5.63 g/m*3 18.3 C 0 km/h
1409 05-04-2009 18:49:58 17.8 C 5.77 g/m*3 17.8 C 0 km/h
1410 05-04-2009 19:01:58 17.4 C 5.93 g/m*3 17.4 C 0 km/h
1411 05-04-2009 19:13:58 17.2 C 5.86 g/m*3 17.2 C 0 km/h
1412 05-04-2009 19:25:57 17 C 5.93 g/m*3 17 C 0 km/h
1413 05-04-2009 19:37:58 16.8 C 6 g/m*3 16.8 C 0 km/h
1414 05-04-2009 19:49:57 16.7 C 6.25 g/m*3 16.7 C 0 km/h
1415 05-04-2009 20:01:57 16.3 C 6.24 g/m*3 16.3 C 0 km/h
1416 05-04-2009 20:13:57 15.9 C 6.37 g/m*3 15.9 C 0 km/h
1417 05-04-2009 20:25:57 15.8 C 6.6 g/m*3 15.8 C 0 km/h
1418 05-04-2009 20:37:57 15.7 C 6.56 g/m*3 15.7 C 0 km/h
1419 05-04-2009 20:49:56 15.5 C 6.61 g/m*3 15.5 C 0 km/h
1420 05-04-2009 21:01:57 15.4 C 6.7 g/m*3 15.4 C 0 km/h
1421 05-04-2009 21:13:57 15.2 C 6.62 g/m*3 15.2 C 0 km/h
1422 05-04-2009 21:25:56 14.8 C 6.59 g/m*3 14.8 C 0 km/h
1423 05-04-2009 21:37:56 14.4 C 6.8 g/m*3 14.4 C 0 km/h
1424 05-04-2009 21:49:56 14.3 C 6.76 g/m*3 14.3 C 0 km/h
1425 05-04-2009 22:01:56 14.1 C 6.67 g/m*3 14.1 C 0 km/h
Sensor: Nr:Datum:Temp:Abs-Feuchte:Windchill:Wind:
Aussen-T/F 1426 05-04-2009 22:13:56 14 C 6.75 g/m*3 14 C 0 km/h
1427 05-04-2009 22:25:55 13.8 C 6.91 g/m*3 13.8 C 0 km/h
1428 05-04-2009 22:38:57 13.6 C 6.94 g/m*3 13.6 C 0 km/h
1429 05-04-2009 22:50:57 13.4 C 6.97 g/m*3 13.4 C 0 km/h
1430 05-04-2009 23:02:57 13 C 6.92 g/m*3 13 C 0 km/h
1431 05-04-2009 23:14:57 13 C 6.92 g/m*3 13 C 0 km/h
1432 05-04-2009 23:26:57 13 C 7.03 g/m*3 13 C 0 km/h
1433 05-04-2009 23:38:57 12.7 C 6.9 g/m*3 12.7 C 0 km/h
1434 05-04-2009 23:50:57 12.6 C 6.97 g/m*3 12.6 C 0 km/h
1435 06-04-2009 00:02:57 12.8 C 7.06 g/m*3 12.8 C 0 km/h
1436 06-04-2009 00:14:57 12.9 C 7.1 g/m*3 12.9 C 0 km/h
1437 06-04-2009 00:26:57 12.6 C 6.97 g/m*3 12.6 C 0 km/h
1438 06-04-2009 00:38:57 12.5 C 7.04 g/m*3 12.5 C 0 km/h
1439 06-04-2009 00:50:57 12.7 C 7.12 g/m*3 12.7 C 0 km/h
1440 06-04-2009 01:02:57 12.7 C 7.12 g/m*3 12.7 C 0 km/h
1441 06-04-2009 01:14:57 12.7 C 7.12 g/m*3 12.7 C 0 km/h
1442 06-04-2009 01:26:57 12.7 C 7.12 g/m*3 12.7 C 0 km/h
1443 06-04-2009 01:38:57 12.2 C 6.91 g/m*3 12.2 C 0 km/h
1444 06-04-2009 01:50:57 11.8 C 6.95 g/m*3 11.8 C 0 km/h
1445 06-04-2009 02:02:57 11.5 C 6.92 g/m*3 11.5 C 0 km/h
1446 06-04-2009 02:14:57 11.4 C 6.88 g/m*3 11.4 C 0 km/h
1447 06-04-2009 02:26:58 11 C 6.91 g/m*3 11 C 0 km/h
1448 06-04-2009 02:38:58 10.9 C 6.96 g/m*3 10.9 C 0 km/h
1449 06-04-2009 02:50:58 10.7 C 6.97 g/m*3 10.7 C 0 km/h
1450 06-04-2009 03:02:58 10.5 C 6.89 g/m*3 10.5 C 0 km/h
Sensor: Nr:Datum:Temp:Abs-Feuchte:Windchill:Wind:
Aussen-T/F 1451 06-04-2009 03:14:58 10.2 C 6.76 g/m*3 10.2 C 0 km/h
1452 06-04-2009 03:26:58 10.1 C 6.81 g/m*3 10.1 C 0 km/h
1453 06-04-2009 03:38:58 10 C 6.86 g/m*3 10 C 0 km/h
1454 06-04-2009 03:50:58 9.9 C 6.91 g/m*3 9.9 C 0 km/h
1455 06-04-2009 04:02:58 9.7 C 6.82 g/m*3 9.7 C 0 km/h
1456 06-04-2009 04:14:58 9.5 C 6.74 g/m*3 9.5 C 0 km/h
1457 06-04-2009 04:26:58 9.3 C 6.74 g/m*3 9.3 C 0 km/h
1458 06-04-2009 04:38:58 9.2 C 6.7 g/m*3 9.2 C 0 km/h
1459 06-04-2009 04:50:58 9 C 6.7 g/m*3 9 C 0 km/h
1460 06-04-2009 05:02:58 9 C 6.7 g/m*3 9 C 0 km/h
1461 06-04-2009 05:14:58 8.8 C 6.79 g/m*3 8.8 C 0 km/h
1462 06-04-2009 05:26:58 8.6 C 6.7 g/m*3 8.6 C 0 km/h
1463 06-04-2009 05:38:58 8.5 C 6.74 g/m*3 8.5 C 0 km/h
1464 06-04-2009 05:50:58 8.3 C 6.66 g/m*3 8.3 C 0 km/h
1465 06-04-2009 06:02:58 8.2 C 6.7 g/m*3 8.2 C 0 km/h
1466 06-04-2009 06:14:59 8 C 6.61 g/m*3 8 C 0 km/h
1467 06-04-2009 06:26:59 7.7 C 6.65 g/m*3 7.7 C 0 km/h
1468 06-04-2009 06:38:59 7.7 C 6.65 g/m*3 7.7 C 0 km/h
1469 06-04-2009 06:50:59 7.6 C 6.69 g/m*3 7.6 C 0 km/h
1470 06-04-2009 07:02:56 7.5 C 6.64 g/m*3 7.5 C 0 km/h
1471 06-04-2009 07:14:57 7.4 C 6.6 g/m*3 7.4 C 0 km/h
1472 06-04-2009 07:26:58 7.3 C 6.64 g/m*3 7.3 C 0 km/h
1473 06-04-2009 07:38:56 7.3 C 6.64 g/m*3 7.3 C 0 km/h
1474 06-04-2009 07:50:56 7.3 C 6.64 g/m*3 7.3 C 0 km/h
1475 06-04-2009 08:02:56 7.5 C 6.72 g/m*3 7.5 C 0 km/h
Sensor: Nr:Datum:Temp:Abs-Feuchte:Windchill:Wind:
Aussen-T/F 1476 06-04-2009 08:14:56 7.6 C 6.77 g/m*3 7.6 C 0 km/h
1477 06-04-2009 08:26:56 7.6 C 6.69 g/m*3 7.6 C 0 km/h
1478 06-04-2009 08:38:56 7.7 C 6.73 g/m*3 7.7 C 0 km/h
1479 06-04-2009 08:50:56 7.8 C 6.77 g/m*3 7.8 C 0 km/h
1480 06-04-2009 09:02:56 7.8 C 6.77 g/m*3 7.8 C 0 km/h
1481 06-04-2009 09:14:55 8 C 6.86 g/m*3 8 C 0 km/h
1482 06-04-2009 09:26:55 8.3 C 7 g/m*3 8.3 C 0 km/h
1483 06-04-2009 09:38:55 8.5 C 7 g/m*3 8.5 C 0 km/h
1484 06-04-2009 09:50:55 8.6 C 7.05 g/m*3 8.6 C 0 km/h
1485 06-04-2009 10:02:55 9.1 C 7.19 g/m*3 9.1 C 0 km/h
1486 06-04-2009 10:14:55 9.6 C 7.24 g/m*3 9.6 C 0 km/h
1487 06-04-2009 10:26:55 10.1 C 7.19 g/m*3 10.1 C 0 km/h
1488 06-04-2009 10:38:54 10.8 C 7.31 g/m*3 10.8 C 0 km/h
1489 06-04-2009 10:50:55 11.5 C 7.23 g/m*3 11.5 C 0 km/h
1490 06-04-2009 11:02:55 12.2 C 7.34 g/m*3 12.2 C 0 km/h
1491 06-04-2009 11:14:54 13.1 C 7.42 g/m*3 13.1 C 0 km/h
1492 06-04-2009 11:26:54 13.9 C 7.55 g/m*3 13.9 C 0 km/h
1493 06-04-2009 11:38:54 14.6 C 7.51 g/m*3 14.6 C 0 km/h
1494 06-04-2009 11:50:54 15.2 C 7.27 g/m*3 15.2 C 0 km/h
1495 06-04-2009 12:02:54 15.9 C 7.31 g/m*3 15.9 C 0 km/h
1496 06-04-2009 12:14:53 16.5 C 7.3 g/m*3 16.5 C 0 km/h
1497 06-04-2009 12:26:53 17.5 C 7.16 g/m*3 17.5 C 0 km/h
1498 06-04-2009 12:38:54 17.9 C 7.02 g/m*3 17.9 C 0 km/h
1499 06-04-2009 12:50:53 18.6 C 7 g/m*3 18.6 C 0 km/h
1500 06-04-2009 13:02:53 19.3 C 6.8 g/m*3 19.3 C 0 km/h
Sensor: Nr:Datum:Temp:Abs-Feuchte:Windchill:Wind:
Aussen-T/F 1501 06-04-2009 13:14:54 19.4 C 6.67 g/m*3 19.4 C 0 km/h
1502 06-04-2009 13:26:54 20 C 6.74 g/m*3 20 C 0 km/h
1503 06-04-2009 13:38:53 20.8 C 6.7 g/m*3 20.8 C 0 km/h
1504 06-04-2009 13:50:53 21.5 C 6.41 g/m*3 21.5 C 0 km/h
1505 06-04-2009 14:02:52 21.4 C 6.19 g/m*3 21.4 C 0 km/h
1506 06-04-2009 14:14:53 21.7 C 6.1 g/m*3 21.7 C 0 km/h
1507 06-04-2009 14:26:53 22.2 C 5.89 g/m*3 22.2 C 0 km/h
1508 06-04-2009 14:38:52 22.5 C 6.19 g/m*3 22.5 C 0 km/h
1509 06-04-2009 14:50:52 22.5 C 5.99 g/m*3 22.5 C 0 km/h
1510 06-04-2009 15:02:52 23.2 C 5.82 g/m*3 23.2 C 0 km/h
1511 06-04-2009 15:14:52 24.1 C 5.47 g/m*3 24.1 C 0 km/h
1512 06-04-2009 15:26:52 24.1 C 5.25 g/m*3 24.1 C 0 km/h
1513 06-04-2009 15:38:52 23.8 C 5.16 g/m*3 23.8 C 0 km/h
1514 06-04-2009 15:50:52 24.1 C 5.25 g/m*3 24.1 C 0 km/h
1515 06-04-2009 16:02:52 23.5 C 5.29 g/m*3 23.5 C 0 km/h
1516 06-04-2009 16:14:51 22.1 C 5.27 g/m*3 22.1 C 0 km/h
1517 06-04-2009 16:26:51 22.4 C 5.56 g/m*3 22.4 C 0 km/h
1518 06-04-2009 16:38:51 22.6 C 5.42 g/m*3 22.6 C 0 km/h
1519 06-04-2009 16:50:51 22.3 C 5.13 g/m*3 22.3 C 0 km/h
1520 06-04-2009 17:02:51 22.1 C 5.08 g/m*3 22.1 C 0 km/h
1521 06-04-2009 17:14:50 21.8 C 5.18 g/m*3 21.8 C 0 km/h
1522 06-04-2009 17:26:50 21.9 C 5.02 g/m*3 21.9 C 0 km/h
1523 06-04-2009 17:38:51 21.6 C 4.93 g/m*3 21.6 C 0 km/h
1524 06-04-2009 17:50:50 21.4 C 5.25 g/m*3 21.4 C 0 km/h
1525 06-04-2009 18:02:50 21.4 C 5.25 g/m*3 21.4 C 0 km/h
Sensor: Nr:Datum:Temp:Abs-Feuchte:Windchill:Wind:
Aussen-T/F 1526 06-04-2009 18:14:51 21.9 C 5.6 g/m*3 21.9 C 0 km/h
1527 06-04-2009 18:26:51 21.7 C 5.53 g/m*3 21.7 C 0 km/h
1528 06-04-2009 18:38:50 21.8 C 5.76 g/m*3 21.8 C 0 km/h
1529 06-04-2009 18:50:50 21.6 C 5.69 g/m*3 21.6 C 0 km/h
1530 06-04-2009 19:02:50 21.8 C 5.76 g/m*3 21.8 C 0 km/h
1531 06-04-2009 19:14:50 21.5 C 6.03 g/m*3 21.5 C 0 km/h
1532 06-04-2009 19:26:50 21 C 5.86 g/m*3 21 C 0 km/h
1533 06-04-2009 19:38:49 20.2 C 6.12 g/m*3 20.2 C 0 km/h
1534 06-04-2009 19:50:50 19.2 C 6.1 g/m*3 19.2 C 0 km/h
1535 06-04-2009 20:02:49 18.5 C 6.01 g/m*3 18.5 C 0 km/h
1536 06-04-2009 20:14:49 18.1 C 6.18 g/m*3 18.1 C 0 km/h
1537 06-04-2009 20:26:49 17.6 C 6 g/m*3 17.6 C 0 km/h
1538 06-04-2009 20:38:49 17.2 C 6 g/m*3 17.2 C 0 km/h
1539 06-04-2009 20:50:49 16.7 C 5.97 g/m*3 16.7 C 0 km/h
1540 06-04-2009 21:02:49 16.6 C 5.93 g/m*3 16.6 C 0 km/h
1541 06-04-2009 21:14:48 16.3 C 5.83 g/m*3 16.3 C 0 km/h
1542 06-04-2009 21:26:48 16 C 5.86 g/m*3 16 C 0 km/h
1543 06-04-2009 21:39:49 15.8 C 5.79 g/m*3 15.8 C 0 km/h
1544 06-04-2009 21:51:49 15.6 C 5.85 g/m*3 15.6 C 0 km/h
1545 06-04-2009 22:03:49 15.4 C 5.91 g/m*3 15.4 C 0 km/h
1546 06-04-2009 22:15:49 15.2 C 5.84 g/m*3 15.2 C 0 km/h
1547 06-04-2009 22:27:49 15.1 C 5.93 g/m*3 15.1 C 0 km/h
1548 06-04-2009 22:39:49 15.5 C 5.95 g/m*3 15.5 C 0 km/h
1549 06-04-2009 22:51:49 15.4 C 6.04 g/m*3 15.4 C 0 km/h
1550 06-04-2009 23:03:49 15.2 C 6.1 g/m*3 15.2 C 0 km/h
Sensor: Nr:Datum:Temp:Abs-Feuchte:Windchill:Wind:
Aussen-T/F 1551 06-04-2009 23:15:49 15.1 C 6.19 g/m*3 15.1 C 0 km/h
1552 06-04-2009 23:27:49 14.9 C 6.37 g/m*3 14.9 C 0 km/h
1553 06-04-2009 23:39:49 14.6 C 6.38 g/m*3 14.6 C 0 km/h
1554 06-04-2009 23:51:49 14.6 C 6.38 g/m*3 14.6 C 0 km/h
1555 07-04-2009 00:03:49 14.3 C 6.39 g/m*3 14.3 C 0 km/h
1556 07-04-2009 00:15:50 14.1 C 6.43 g/m*3 14.1 C 0 km/h
1557 07-04-2009 00:27:50 13.9 C 6.59 g/m*3 13.9 C 0 km/h
1558 07-04-2009 00:39:50 13.8 C 6.55 g/m*3 13.8 C 0 km/h
1559 07-04-2009 00:51:50 13.6 C 6.71 g/m*3 13.6 C 0 km/h
1560 07-04-2009 01:03:50 13.5 C 6.78 g/m*3 13.5 C 0 km/h
1561 07-04-2009 01:15:50 13.2 C 6.77 g/m*3 13.2 C 0 km/h
1562 07-04-2009 01:27:50 12.9 C 6.76 g/m*3 12.9 C 0 km/h
1563 07-04-2009 01:39:50 12.5 C 6.71 g/m*3 12.5 C 0 km/h
1564 07-04-2009 01:51:50 12.1 C 6.76 g/m*3 12.1 C 0 km/h
1565 07-04-2009 02:03:50 11.9 C 6.88 g/m*3 11.9 C 0 km/h
1566 07-04-2009 02:15:50 11.8 C 6.95 g/m*3 11.8 C 0 km/h
1567 07-04-2009 02:27:50 11.4 C 6.77 g/m*3 11.4 C 0 km/h
1568 07-04-2009 02:39:50 11.3 C 6.83 g/m*3 11.3 C 0 km/h
1569 07-04-2009 02:51:50 11.2 C 6.79 g/m*3 11.2 C 0 km/h
1570 07-04-2009 03:03:50 11.1 C 6.85 g/m*3 11.1 C 0 km/h
1571 07-04-2009 03:15:50 10.9 C 6.86 g/m*3 10.9 C 0 km/h
1572 07-04-2009 03:27:50 10.6 C 6.83 g/m*3 10.6 C 0 km/h
1573 07-04-2009 03:39:50 10.5 C 6.89 g/m*3 10.5 C 0 km/h
1574 07-04-2009 03:51:50 10.3 C 6.8 g/m*3 10.3 C 0 km/h
1575 07-04-2009 04:03:50 10 C 6.77 g/m*3 10 C 0 km/h
Sensor: Nr:Datum:Temp:Abs-Feuchte:Windchill:Wind:
Aussen-T/F 1576 07-04-2009 04:15:51 9.8 C 6.87 g/m*3 9.8 C 0 km/h
1577 07-04-2009 04:27:51 9.8 C 6.87 g/m*3 9.8 C 0 km/h
1578 07-04-2009 04:39:51 9.8 C 6.87 g/m*3 9.8 C 0 km/h
1579 07-04-2009 04:51:51 9.7 C 6.82 g/m*3 9.7 C 0 km/h
1580 07-04-2009 05:03:51 9.6 C 6.78 g/m*3 9.6 C 0 km/h
1581 07-04-2009 05:15:51 9.4 C 6.69 g/m*3 9.4 C 0 km/h
1582 07-04-2009 05:27:51 9.4 C 6.78 g/m*3 9.4 C 0 km/h
1583 07-04-2009 05:39:51 9.2 C 6.79 g/m*3 9.2 C 0 km/h
1584 07-04-2009 05:51:51 9 C 6.7 g/m*3 9 C 0 km/h
1585 07-04-2009 06:03:51 8.7 C 6.66 g/m*3 8.7 C 0 km/h
1586 07-04-2009 06:15:51 8.6 C 6.62 g/m*3 8.6 C 0 km/h
1587 07-04-2009 06:27:51 8.4 C 6.62 g/m*3 8.4 C 0 km/h
1588 07-04-2009 06:39:51 8.4 C 6.7 g/m*3 8.4 C 0 km/h
1589 07-04-2009 06:51:51 8.3 C 6.74 g/m*3 8.3 C 0 km/h
1590 07-04-2009 07:03:51 8.2 C 6.7 g/m*3 8.2 C 0 km/h
1591 07-04-2009 07:15:49 8.1 C 6.66 g/m*3 8.1 C 0 km/h
1592 07-04-2009 07:27:49 8.1 C 6.74 g/m*3 8.1 C 0 km/h
1593 07-04-2009 07:39:48 8.1 C 6.74 g/m*3 8.1 C 0 km/h
1594 07-04-2009 07:51:49 8.1 C 6.74 g/m*3 8.1 C 0 km/h
1595 07-04-2009 08:03:48 8.1 C 6.74 g/m*3 8.1 C 0 km/h
1596 07-04-2009 08:15:48 8.2 C 6.78 g/m*3 8.2 C 0 km/h
1597 07-04-2009 08:27:48 8.3 C 6.83 g/m*3 8.3 C 0 km/h
1598 07-04-2009 08:39:47 8.6 C 6.96 g/m*3 8.6 C 0 km/h
1599 07-04-2009 08:51:48 8.9 C 7.1 g/m*3 8.9 C 0 km/h
1600 07-04-2009 09:03:48 9.1 C 7.1 g/m*3 9.1 C 0 km/h
Sensor: Nr:Datum:Temp:Abs-Feuchte:Windchill:Wind:
Aussen-T/F 1601 07-04-2009 09:15:47 9.6 C 7.24 g/m*3 9.6 C 0 km/h
1602 07-04-2009 09:27:47 10 C 7.05 g/m*3 10 C 0 km/h
1603 07-04-2009 09:39:48 10.6 C 7.12 g/m*3 10.6 C 0 km/h
1604 07-04-2009 09:51:47 11.2 C 7.2 g/m*3 11.2 C 0 km/h
1605 07-04-2009 10:03:47 12 C 7.25 g/m*3 12 C 0 km/h
1606 07-04-2009 10:15:47 12.8 C 7.17 g/m*3 12.8 C 0 km/h
1607 07-04-2009 10:27:47 13.4 C 6.97 g/m*3 13.4 C 0 km/h
1608 07-04-2009 10:39:47 14.2 C 7.33 g/m*3 14.2 C 0 km/h
1609 07-04-2009 10:51:46 15.4 C 6.44 g/m*3 15.4 C 0 km/h
1610 07-04-2009 11:03:46 16.6 C 5.93 g/m*3 16.6 C 0 km/h
1611 07-04-2009 11:15:47 17.1 C 5.82 g/m*3 17.1 C 0 km/h
1612 07-04-2009 11:27:47 17.7 C 6.04 g/m*3 17.7 C 0 km/h
1613 07-04-2009 11:39:46 18.2 C 5.91 g/m*3 18.2 C 0 km/h
1614 07-04-2009 11:51:46 18.5 C 5.85 g/m*3 18.5 C 0 km/h
1615 07-04-2009 12:03:46 19.2 C 5.77 g/m*3 19.2 C 0 km/h
1616 07-04-2009 12:15:46 19.8 C 5.64 g/m*3 19.8 C 0 km/h
1617 07-04-2009 12:27:46 20.1 C 5.39 g/m*3 20.1 C 0 km/h
1618 07-04-2009 12:39:46 20.4 C 5.48 g/m*3 20.4 C 0 km/h
1619 07-04-2009 12:51:46 20.4 C 5.31 g/m*3 20.4 C 0 km/h
1620 07-04-2009 13:03:46 20.9 C 5.46 g/m*3 20.9 C 0 km/h
1621 07-04-2009 13:15:45 21 C 5.5 g/m*3 21 C 0 km/h
1622 07-04-2009 13:27:45 21.5 C 5.47 g/m*3 21.5 C 0 km/h
1623 07-04-2009 13:39:45 21.7 C 5.34 g/m*3 21.7 C 0 km/h
1624 07-04-2009 13:51:45 21.5 C 5.66 g/m*3 21.5 C 0 km/h
1625 07-04-2009 14:03:45 20.8 C 5.79 g/m*3 20.8 C 0 km/h
Sensor: Nr:Datum:Temp:Abs-Feuchte:Windchill:Wind:
Aussen-T/F 1626 07-04-2009 14:15:44 21.2 C 5.93 g/m*3 21.2 C 0 km/h
1627 07-04-2009 14:27:44 22.5 C 5.99 g/m*3 22.5 C 0 km/h
1628 07-04-2009 14:39:45 22.3 C 5.53 g/m*3 22.3 C 0 km/h
1629 07-04-2009 14:51:44 22.8 C 5.49 g/m*3 22.8 C 0 km/h
1630 07-04-2009 15:03:44 22.9 C 5.31 g/m*3 22.9 C 0 km/h
1631 07-04-2009 15:15:45 22.9 C 5.11 g/m*3 22.9 C 0 km/h
1632 07-04-2009 15:27:45 22.6 C 5.02 g/m*3 22.6 C 0 km/h
1633 07-04-2009 15:39:44 22.1 C 5.08 g/m*3 22.1 C 0 km/h
1634 07-04-2009 15:51:44 21.8 C 5.37 g/m*3 21.8 C 0 km/h
1635 07-04-2009 16:03:44 22.7 C 5.46 g/m*3 22.7 C 0 km/h
1636 07-04-2009 16:15:44 22.9 C 5.31 g/m*3 22.9 C 0 km/h
1637 07-04-2009 16:27:44 22.3 C 5.33 g/m*3 22.3 C 0 km/h
1638 07-04-2009 16:39:43 21.7 C 5.53 g/m*3 21.7 C 0 km/h
1639 07-04-2009 16:51:44 21.4 C 5.44 g/m*3 21.4 C 0 km/h
1640 07-04-2009 17:03:43 21.2 C 5.56 g/m*3 21.2 C 0 km/h
1641 07-04-2009 17:15:43 20.9 C 5.65 g/m*3 20.9 C 0 km/h
1642 07-04-2009 17:27:43 20.7 C 5.76 g/m*3 20.7 C 0 km/h
1643 07-04-2009 17:39:43 20.4 C 5.84 g/m*3 20.4 C 0 km/h
1644 07-04-2009 17:51:43 20.4 C 6.01 g/m*3 20.4 C 0 km/h
1645 07-04-2009 18:03:43 18.7 C 7.04 g/m*3 18.7 C 0 km/h
1646 07-04-2009 18:15:42 18.3 C 7.66 g/m*3 18.3 C 0 km/h
1647 07-04-2009 18:27:42 17.7 C 7.69 g/m*3 17.7 C 0 km/h
1648 07-04-2009 18:39:43 17.7 C 7.85 g/m*3 17.7 C 0 km/h
1649 07-04-2009 18:51:42 16.3 C 8.88 g/m*3 16.3 C 0 km/h
1650 07-04-2009 19:03:42 15.3 C 8.75 g/m*3 15.3 C 0 km/h
Sensor: Nr:Datum:Temp:Abs-Feuchte:Windchill:Wind:
Aussen-T/F 1651 07-04-2009 19:15:41 15.3 C 9.66 g/m*3 15.3 C 0 km/h
1652 07-04-2009 19:27:41 14.7 C 9.82 g/m*3 14.7 C 0 km/h
1653 07-04-2009 19:39:42 14.6 C 10.14 g/m*3 14.6 C 0 km/h
1654 07-04-2009 19:51:41 14.8 C 9.37 g/m*3 14.8 C 0 km/h
1655 07-04-2009 20:03:41 14.7 C 8.69 g/m*3 14.7 C 0 km/h
1656 07-04-2009 20:15:42 14.5 C 8.46 g/m*3 14.5 C 0 km/h
1657 07-04-2009 20:27:42 14.3 C 8.85 g/m*3 14.3 C 0 km/h
1658 07-04-2009 20:39:41 14.2 C 9.16 g/m*3 14.2 C 0 km/h
1659 07-04-2009 20:51:41 14.1 C 8.86 g/m*3 14.1 C 0 km/h
1660 07-04-2009 21:03:41 14.1 C 8.86 g/m*3 14.1 C 0 km/h
1661 07-04-2009 21:15:41 14 C 8.93 g/m*3 14 C 0 km/h
1662 07-04-2009 21:27:41 14.1 C 8.98 g/m*3 14.1 C 0 km/h
1663 07-04-2009 21:39:41 13.9 C 8.87 g/m*3 13.9 C 0 km/h
1664 07-04-2009 21:52:42 13.9 C 8.87 g/m*3 13.9 C 0 km/h
1665 07-04-2009 22:04:42 13.5 C 8.89 g/m*3 13.5 C 0 km/h
1666 07-04-2009 22:16:42 13.2 C 8.96 g/m*3 13.2 C 0 km/h
1667 07-04-2009 22:28:42 13.3 C 9.36 g/m*3 13.3 C 0 km/h
1668 07-04-2009 22:40:42 13.1 C 9.24 g/m*3 13.1 C 0 km/h
1669 07-04-2009 22:52:42 13 C 9.19 g/m*3 13 C 0 km/h
1670 07-04-2009 23:04:42 12.4 C 8.85 g/m*3 12.4 C 0 km/h
1671 07-04-2009 23:16:42 12.3 C 9.01 g/m*3 12.3 C 0 km/h
1672 07-04-2009 23:28:42 12.4 C 9.07 g/m*3 12.4 C 0 km/h
1673 07-04-2009 23:40:42 12.6 C 8.96 g/m*3 12.6 C 0 km/h
1674 07-04-2009 23:52:42 12.7 C 8.79 g/m*3 12.7 C 0 km/h
1675 08-04-2009 00:04:42 12.6 C 8.3 g/m*3 12.6 C 0 km/h
Sensor: Nr:Datum:Temp:Abs-Feuchte:Windchill:Wind:
Aussen-T/F 1676 08-04-2009 00:16:42 12.5 C 8.25 g/m*3 12.5 C 0 km/h
1677 08-04-2009 00:28:42 12.6 C 8.3 g/m*3 12.6 C 0 km/h
1678 08-04-2009 00:40:42 12.5 C 8.14 g/m*3 12.5 C 0 km/h
1679 08-04-2009 00:52:42 12.4 C 8.09 g/m*3 12.4 C 0 km/h
1680 08-04-2009 01:04:42 12.5 C 8.14 g/m*3 12.5 C 0 km/h
1681 08-04-2009 01:16:43 12.4 C 8.09 g/m*3 12.4 C 0 km/h
1682 08-04-2009 01:28:43 12.2 C 7.99 g/m*3 12.2 C 0 km/h
1683 08-04-2009 01:40:43 12.2 C 8.09 g/m*3 12.2 C 0 km/h
1684 08-04-2009 01:52:43 12.2 C 8.09 g/m*3 12.2 C 0 km/h
1685 08-04-2009 02:04:43 12.2 C 8.09 g/m*3 12.2 C 0 km/h
1686 08-04-2009 02:16:43 12.2 C 8.09 g/m*3 12.2 C 0 km/h
1687 08-04-2009 02:28:43 12.1 C 7.83 g/m*3 12.1 C 0 km/h
1688 08-04-2009 02:40:43 12.1 C 7.61 g/m*3 12.1 C 0 km/h
1689 08-04-2009 02:52:43 12.1 C 7.4 g/m*3 12.1 C 0 km/h
1690 08-04-2009 03:04:43 12 C 7.25 g/m*3 12 C 0 km/h
1691 08-04-2009 03:16:43 12 C 7.25 g/m*3 12 C 0 km/h
1692 08-04-2009 03:28:43 11.8 C 7.26 g/m*3 11.8 C 0 km/h
1693 08-04-2009 03:40:43 11.7 C 7.22 g/m*3 11.7 C 0 km/h
1694 08-04-2009 03:52:43 11.5 C 7.23 g/m*3 11.5 C 0 km/h
1695 08-04-2009 04:04:43 11.6 C 7.38 g/m*3 11.6 C 0 km/h
1696 08-04-2009 04:16:43 11.4 C 7.19 g/m*3 11.4 C 0 km/h
1697 08-04-2009 04:28:43 11.3 C 7.14 g/m*3 11.3 C 0 km/h
1698 08-04-2009 04:40:43 11.3 C 7.24 g/m*3 11.3 C 0 km/h
1699 08-04-2009 04:52:43 11.4 C 7.39 g/m*3 11.4 C 0 km/h
1700 08-04-2009 05:04:43 11.4 C 7.39 g/m*3 11.4 C 0 km/h
Sensor: Nr:Datum:Temp:Abs-Feuchte:Windchill:Wind:
Aussen-T/F 1701 08-04-2009 05:16:43 11.3 C 7.34 g/m*3 11.3 C 0 km/h
1702 08-04-2009 05:28:44 11.4 C 7.39 g/m*3 11.4 C 0 km/h
1703 08-04-2009 05:40:44 11.4 C 7.39 g/m*3 11.4 C 0 km/h
1704 08-04-2009 05:52:44 11.5 C 7.44 g/m*3 11.5 C 0 km/h
1705 08-04-2009 06:04:44 11.7 C 7.53 g/m*3 11.7 C 0 km/h
1706 08-04-2009 06:16:44 11.5 C 7.44 g/m*3 11.5 C 0 km/h
1707 08-04-2009 06:28:44 11.7 C 7.53 g/m*3 11.7 C 0 km/h
1708 08-04-2009 06:40:44 11.4 C 7.29 g/m*3 11.4 C 0 km/h
1709 08-04-2009 06:52:44 11.4 C 7.29 g/m*3 11.4 C 0 km/h
1710 08-04-2009 07:04:41 11.2 C 7.2 g/m*3 11.2 C 0 km/h
1711 08-04-2009 07:16:42 11.2 C 7.2 g/m*3 11.2 C 0 km/h
1712 08-04-2009 07:28:42 11.1 C 7.25 g/m*3 11.1 C 0 km/h
1713 08-04-2009 07:40:41 11.2 C 7.2 g/m*3 11.2 C 0 km/h
1714 08-04-2009 07:52:41 11.3 C 7.24 g/m*3 11.3 C 0 km/h
1715 08-04-2009 08:04:41 11.3 C 7.24 g/m*3 11.3 C 0 km/h
1716 08-04-2009 08:16:41 11.5 C 7.23 g/m*3 11.5 C 0 km/h
1717 08-04-2009 08:28:41 11.7 C 7.22 g/m*3 11.7 C 0 km/h
1718 08-04-2009 08:40:40 11.9 C 7.1 g/m*3 11.9 C 0 km/h
1719 08-04-2009 08:52:40 12.1 C 7.08 g/m*3 12.1 C 0 km/h
1720 08-04-2009 09:04:40 12.2 C 7.01 g/m*3 12.2 C 0 km/h
1721 08-04-2009 09:16:40 12 C 6.93 g/m*3 12 C 0 km/h
1722 08-04-2009 09:28:40 11.9 C 6.99 g/m*3 11.9 C 0 km/h
1723 08-04-2009 09:40:40 12.1 C 6.76 g/m*3 12.1 C 0 km/h
1724 08-04-2009 09:52:40 12.5 C 6.71 g/m*3 12.5 C 0 km/h
1725 08-04-2009 10:04:40 12.9 C 6.65 g/m*3 12.9 C 0 km/h
Sensor: Nr:Datum:Temp:Abs-Feuchte:Windchill:Wind:
Aussen-T/F 1726 08-04-2009 10:16:39 13.3 C 6.47 g/m*3 13.3 C 0 km/h
1727 08-04-2009 10:28:39 13.5 C 6.2 g/m*3 13.5 C 0 km/h
1728 08-04-2009 10:40:39 14.2 C 6.11 g/m*3 14.2 C 0 km/h
1729 08-04-2009 10:52:39 14.5 C 5.72 g/m*3 14.5 C 0 km/h
1730 08-04-2009 11:04:39 15.1 C 5.81 g/m*3 15.1 C 0 km/h
1731 08-04-2009 11:16:39 15.4 C 5.52 g/m*3 15.4 C 0 km/h
1732 08-04-2009 11:28:39 15.1 C 5.16 g/m*3 15.1 C 0 km/h
1733 08-04-2009 11:40:39 14.8 C 5.19 g/m*3 14.8 C 0 km/h
1734 08-04-2009 11:52:39 14.9 C 4.97 g/m*3 14.9 C 0 km/h
1735 08-04-2009 12:04:38 15.4 C 5.12 g/m*3 15.4 C 0 km/h
1736 08-04-2009 12:16:39 15.8 C 5.38 g/m*3 15.8 C 0 km/h
1737 08-04-2009 12:28:39 15.8 C 5.25 g/m*3 15.8 C 0 km/h
1738 08-04-2009 12:40:38 15.4 C 4.86 g/m*3 15.4 C 0 km/h
1739 08-04-2009 12:52:38 16.2 C 4.96 g/m*3 16.2 C 0 km/h
1740 08-04-2009 13:04:37 16.3 C 4.44 g/m*3 16.3 C 0 km/h
1741 08-04-2009 13:16:38 16.7 C 4.55 g/m*3 16.7 C 0 km/h
1742 08-04-2009 13:28:38 16.8 C 4.15 g/m*3 16.8 C 0 km/h
1743 08-04-2009 13:40:38 17.3 C 3.98 g/m*3 17.3 C 0 km/h
1744 08-04-2009 13:52:37 17.7 C 4.07 g/m*3 17.7 C 0 km/h
1745 08-04-2009 14:04:38 17.5 C 3.88 g/m*3 17.5 C 0 km/h
1746 08-04-2009 14:16:37 17.9 C 3.51 g/m*3 17.9 C 0 km/h
1747 08-04-2009 14:28:37 18 C 3.07 g/m*3 18 C 0 km/h
1748 08-04-2009 14:40:37 17.8 C 3.04 g/m*3 17.8 C 0 km/h
1749 08-04-2009 14:52:37 17.4 C 2.96 g/m*3 17.4 C 0 km/h
1750 08-04-2009 15:04:37 17.7 C 3.17 g/m*3 17.7 C 0 km/h
Sensor: Nr:Datum:Temp:Abs-Feuchte:Windchill:Wind:
Aussen-T/F 1751 08-04-2009 15:16:36 18.4 C 3.15 g/m*3 18.4 C 0 km/h
1752 08-04-2009 15:28:36 17.5 C 2.98 g/m*3 17.5 C 0 km/h
1753 08-04-2009 15:40:37 17.2 C 3.08 g/m*3 17.2 C 0 km/h
1754 08-04-2009 15:52:36 17.5 C 3.13 g/m*3 17.5 C 0 km/h
1755 08-04-2009 16:04:36 17.7 C 3.17 g/m*3 17.7 C 0 km/h
1756 08-04-2009 16:16:36 17.7 C 3.32 g/m*3 17.7 C 0 km/h
1757 08-04-2009 16:28:36 17.7 C 3.32 g/m*3 17.7 C 0 km/h
1758 08-04-2009 16:40:36 17.5 C 3.13 g/m*3 17.5 C 0 km/h
1759 08-04-2009 16:52:36 17.5 C 2.98 g/m*3 17.5 C 0 km/h
1760 08-04-2009 17:04:35 17.6 C 3 g/m*3 17.6 C 0 km/h
1761 08-04-2009 17:16:36 17.6 C 3 g/m*3 17.6 C 0 km/h
1762 08-04-2009 17:28:37 17.2 C 2.93 g/m*3 17.2 C 0 km/h
1763 08-04-2009 17:40:35 17.5 C 2.98 g/m*3 17.5 C 0 km/h
1764 08-04-2009 17:52:35 17.7 C 3.32 g/m*3 17.7 C 0 km/h
1765 08-04-2009 18:04:35 17.7 C 3.17 g/m*3 17.7 C 0 km/h
1766 08-04-2009 18:16:35 17.5 C 2.98 g/m*3 17.5 C 0 km/h
1767 08-04-2009 18:28:35 17.2 C 2.93 g/m*3 17.2 C 0 km/h
1768 08-04-2009 18:40:35 17.6 C 3.3 g/m*3 17.6 C 0 km/h
1769 08-04-2009 18:52:35 17.8 C 3.19 g/m*3 17.8 C 0 km/h
1770 08-04-2009 19:04:35 17.7 C 3.32 g/m*3 17.7 C 0 km/h
1771 08-04-2009 19:16:34 18.3 C 3.28 g/m*3 18.3 C 0 km/h
1772 08-04-2009 19:28:34 17.5 C 3.58 g/m*3 17.5 C 0 km/h
1773 08-04-2009 19:40:34 16.6 C 4.24 g/m*3 16.6 C 0 km/h
1774 08-04-2009 19:52:34 15.9 C 4.47 g/m*3 15.9 C 0 km/h
1775 08-04-2009 20:04:34 15.6 C 4.65 g/m*3 15.6 C 0 km/h
Sensor: Nr:Datum:Temp:Abs-Feuchte:Windchill:Wind:
Aussen-T/F 1776 08-04-2009 20:16:33 15.2 C 4.67 g/m*3 15.2 C 0 km/h
1777 08-04-2009 20:28:33 15 C 4.87 g/m*3 15 C 0 km/h
1778 08-04-2009 20:40:34 14.7 C 5.04 g/m*3 14.7 C 0 km/h
1779 08-04-2009 20:52:34 14.6 C 5.26 g/m*3 14.6 C 0 km/h
1780 08-04-2009 21:04:33 14.6 C 5.38 g/m*3 14.6 C 0 km/h
1781 08-04-2009 21:16:34 14.6 C 5.38 g/m*3 14.6 C 0 km/h
1782 08-04-2009 21:28:34 14.4 C 5.56 g/m*3 14.4 C 0 km/h
1783 08-04-2009 21:40:33 14.2 C 5.62 g/m*3 14.2 C 0 km/h
1784 08-04-2009 21:52:33 14.2 C 5.86 g/m*3 14.2 C 0 km/h
1785 08-04-2009 22:04:33 13.8 C 5.96 g/m*3 13.8 C 0 km/h
1786 08-04-2009 22:17:35 13.6 C 6.12 g/m*3 13.6 C 0 km/h
1787 08-04-2009 22:29:35 13.2 C 6.2 g/m*3 13.2 C 0 km/h
1788 08-04-2009 22:41:35 13.2 C 6.32 g/m*3 13.2 C 0 km/h
1789 08-04-2009 22:53:35 13.2 C 6.32 g/m*3 13.2 C 0 km/h
1790 08-04-2009 23:05:35 13.2 C 6.32 g/m*3 13.2 C 0 km/h
1791 08-04-2009 23:17:35 13.2 C 6.32 g/m*3 13.2 C 0 km/h
1792 08-04-2009 23:29:35 13.1 C 6.28 g/m*3 13.1 C 0 km/h
1793 08-04-2009 23:41:35 13.2 C 6.32 g/m*3 13.2 C 0 km/h
1794 08-04-2009 23:53:35 13.2 C 6.43 g/m*3 13.2 C 0 km/h
1795 09-04-2009 00:05:35 13.2 C 6.54 g/m*3 13.2 C 0 km/h
1796 09-04-2009 00:17:35 13.2 C 6.66 g/m*3 13.2 C 0 km/h
1797 09-04-2009 00:29:35 13.2 C 6.66 g/m*3 13.2 C 0 km/h
1798 09-04-2009 00:41:35 13.2 C 6.77 g/m*3 13.2 C 0 km/h
1799 09-04-2009 00:53:35 13.2 C 6.77 g/m*3 13.2 C 0 km/h
1800 09-04-2009 01:05:35 13.3 C 6.93 g/m*3 13.3 C 0 km/h
Sensor: Nr:Datum:Temp:Abs-Feuchte:Windchill:Wind:
Aussen-T/F 1801 09-04-2009 01:17:35 13.2 C 7 g/m*3 13.2 C 0 km/h
1802 09-04-2009 01:29:36 13.2 C 7.12 g/m*3 13.2 C 0 km/h
1803 09-04-2009 01:41:36 13.1 C 7.19 g/m*3 13.1 C 0 km/h
1804 09-04-2009 01:53:36 13.2 C 7.23 g/m*3 13.2 C 0 km/h
1805 09-04-2009 02:05:36 13.2 C 7.23 g/m*3 13.2 C 0 km/h
1806 09-04-2009 02:17:36 13.3 C 7.39 g/m*3 13.3 C 0 km/h
1807 09-04-2009 02:29:36 13.4 C 7.32 g/m*3 13.4 C 0 km/h
1808 09-04-2009 02:41:36 13.5 C 7.37 g/m*3 13.5 C 0 km/h
1809 09-04-2009 02:53:36 13.5 C 7.37 g/m*3 13.5 C 0 km/h
1810 09-04-2009 03:05:36 13.3 C 7.28 g/m*3 13.3 C 0 km/h
1811 09-04-2009 03:17:36 13.3 C 7.28 g/m*3 13.3 C 0 km/h
1812 09-04-2009 03:29:36 13 C 7.37 g/m*3 13 C 0 km/h
1813 09-04-2009 03:41:36 13.2 C 7.46 g/m*3 13.2 C 0 km/h
1814 09-04-2009 03:53:36 13.2 C 7.46 g/m*3 13.2 C 0 km/h
1815 09-04-2009 04:05:36 13.4 C 7.44 g/m*3 13.4 C 0 km/h
1816 09-04-2009 04:17:36 13.4 C 7.32 g/m*3 13.4 C 0 km/h
1817 09-04-2009 04:29:36 13.1 C 7.3 g/m*3 13.1 C 0 km/h
1818 09-04-2009 04:41:36 13.3 C 7.39 g/m*3 13.3 C 0 km/h
1819 09-04-2009 04:53:36 13.3 C 7.39 g/m*3 13.3 C 0 km/h
1820 09-04-2009 05:05:36 13.3 C 7.39 g/m*3 13.3 C 0 km/h
1821 09-04-2009 05:17:36 12.4 C 7.98 g/m*3 12.4 C 0 km/h
1822 09-04-2009 05:29:36 12.3 C 8.04 g/m*3 12.3 C 0 km/h
1823 09-04-2009 05:41:37 12.4 C 8.09 g/m*3 12.4 C 0 km/h
1824 09-04-2009 05:53:37 12.4 C 8.09 g/m*3 12.4 C 0 km/h
1825 09-04-2009 06:05:37 12.1 C 8.26 g/m*3 12.1 C 0 km/h
Sensor: Nr:Datum:Temp:Abs-Feuchte:Windchill:Wind:
Aussen-T/F 1826 09-04-2009 06:17:37 12.1 C 8.36 g/m*3 12.1 C 0 km/h
1827 09-04-2009 06:29:37 12.3 C 8.36 g/m*3 12.3 C 0 km/h
1828 09-04-2009 06:41:37 12.4 C 8.19 g/m*3 12.4 C 0 km/h
1829 09-04-2009 06:53:37 12.4 C 8.19 g/m*3 12.4 C 0 km/h
1830 09-04-2009 07:05:34 12.4 C 8.19 g/m*3 12.4 C 0 km/h
1831 09-04-2009 07:17:34 12.5 C 8.25 g/m*3 12.5 C 0 km/h
1832 09-04-2009 07:29:34 12.7 C 8.24 g/m*3 12.7 C 0 km/h
1833 09-04-2009 07:41:33 12.8 C 8.29 g/m*3 12.8 C 0 km/h
1834 09-04-2009 07:53:34 12.9 C 8.23 g/m*3 12.9 C 0 km/h
1835 09-04-2009 08:05:33 13.1 C 8.22 g/m*3 13.1 C 0 km/h
1836 09-04-2009 08:17:33 13.4 C 8.02 g/m*3 13.4 C 0 km/h
1837 09-04-2009 08:29:33 13.6 C 8 g/m*3 13.6 C 0 km/h
1838 09-04-2009 08:41:33 13.9 C 8.03 g/m*3 13.9 C 0 km/h
1839 09-04-2009 08:53:33 14.1 C 7.89 g/m*3 14.1 C 0 km/h
1840 09-04-2009 09:05:33 14.2 C 7.69 g/m*3 14.2 C 0 km/h
1841 09-04-2009 09:17:33 14.6 C 7.76 g/m*3 14.6 C 0 km/h
1842 09-04-2009 09:29:33 14.4 C 7.54 g/m*3 14.4 C 0 km/h
1843 09-04-2009 09:41:33 14.5 C 7.59 g/m*3 14.5 C 0 km/h
1844 09-04-2009 09:53:32 14.5 C 7.59 g/m*3 14.5 C 0 km/h
1845 09-04-2009 10:05:33 14.6 C 7.38 g/m*3 14.6 C 0 km/h
1846 09-04-2009 10:17:32 14.7 C 7.55 g/m*3 14.7 C 0 km/h
1847 09-04-2009 10:29:32 14.6 C 7.38 g/m*3 14.6 C 0 km/h
1848 09-04-2009 10:41:32 14.5 C 7.46 g/m*3 14.5 C 0 km/h
1849 09-04-2009 10:53:32 14.8 C 7.6 g/m*3 14.8 C 0 km/h
1850 09-04-2009 11:05:32 15.2 C 7.53 g/m*3 15.2 C 0 km/h
Sensor: Nr:Datum:Temp:Abs-Feuchte:Windchill:Wind:
Aussen-T/F 1851 09-04-2009 11:17:31 15.4 C 7.49 g/m*3 15.4 C 0 km/h
1852 09-04-2009 11:29:31 15.6 C 7.58 g/m*3 15.6 C 0 km/h
1853 09-04-2009 11:41:31 15.6 C 7.58 g/m*3 15.6 C 0 km/h
1854 09-04-2009 11:53:31 16.5 C 7.58 g/m*3 16.5 C 0 km/h
1855 09-04-2009 12:05:31 16.5 C 7.44 g/m*3 16.5 C 0 km/h
1856 09-04-2009 12:17:31 16.4 C 7.4 g/m*3 16.4 C 0 km/h
1857 09-04-2009 12:29:31 16.4 C 7.4 g/m*3 16.4 C 0 km/h
1858 09-04-2009 12:41:31 16.3 C 7.49 g/m*3 16.3 C 0 km/h
1859 09-04-2009 12:53:31 16.7 C 7.39 g/m*3 16.7 C 0 km/h
1860 09-04-2009 13:05:30 16.8 C 7.43 g/m*3 16.8 C 0 km/h
1861 09-04-2009 13:17:31 17 C 7.23 g/m*3 17 C 0 km/h
1862 09-04-2009 13:29:31 16.9 C 7.48 g/m*3 16.9 C 0 km/h
1863 09-04-2009 13:41:31 17.2 C 7.32 g/m*3 17.2 C 0 km/h
1864 09-04-2009 13:53:30 18.1 C 7.42 g/m*3 18.1 C 0 km/h
1865 09-04-2009 14:05:30 18.5 C 7.28 g/m*3 18.5 C 0 km/h
1866 09-04-2009 14:17:30 19.7 C 7.13 g/m*3 19.7 C 0 km/h
1867 09-04-2009 14:29:30 19.1 C 6.88 g/m*3 19.1 C 0 km/h
1868 09-04-2009 14:41:30 19.5 C 7.05 g/m*3 19.5 C 0 km/h
1869 09-04-2009 14:53:29 20.4 C 7.25 g/m*3 20.4 C 0 km/h
1870 09-04-2009 15:05:30 21.2 C 6.86 g/m*3 21.2 C 0 km/h
1871 09-04-2009 15:17:29 21.1 C 6.82 g/m*3 21.1 C 0 km/h
1872 09-04-2009 15:29:29 20.3 C 7.03 g/m*3 20.3 C 0 km/h
1873 09-04-2009 15:41:29 19.7 C 6.96 g/m*3 19.7 C 0 km/h
1874 09-04-2009 15:53:29 20.7 C 7.02 g/m*3 20.7 C 0 km/h
1875 09-04-2009 16:05:29 20.9 C 6.92 g/m*3 20.9 C 0 km/h
Sensor: Nr:Datum:Temp:Abs-Feuchte:Windchill:Wind:
Aussen-T/F 1876 09-04-2009 16:17:29 21 C 6.78 g/m*3 21 C 0 km/h
1877 09-04-2009 16:29:29 21 C 6.59 g/m*3 21 C 0 km/h
1878 09-04-2009 16:41:28 21.8 C 6.72 g/m*3 21.8 C 0 km/h
1879 09-04-2009 16:53:29 22.7 C 6.67 g/m*3 22.7 C 0 km/h
1880 09-04-2009 17:05:28 24 C 6.31 g/m*3 24 C 0 km/h
1881 09-04-2009 17:17:28 23.8 C 6.24 g/m*3 23.8 C 0 km/h
1882 09-04-2009 17:29:28 22.8 C 6.1 g/m*3 22.8 C 0 km/h
1883 09-04-2009 17:41:28 22 C 6.02 g/m*3 22 C 0 km/h
1884 09-04-2009 17:53:28 23.1 C 6.2 g/m*3 23.1 C 0 km/h
1885 09-04-2009 18:05:28 23.8 C 6.24 g/m*3 23.8 C 0 km/h
1886 09-04-2009 18:17:28 24.3 C 5.97 g/m*3 24.3 C 0 km/h
1887 09-04-2009 18:29:28 24.2 C 5.94 g/m*3 24.2 C 0 km/h
1888 09-04-2009 18:41:27 23.9 C 6.06 g/m*3 23.9 C 0 km/h
1889 09-04-2009 18:53:02 23.7 C 5.99 g/m*3 23.7 C 0 km/h
1890 09-04-2009 19:05:01 23.5 C 5.92 g/m*3 23.5 C 0 km/h
1891 09-04-2009 19:17:02 23.1 C 5.79 g/m*3 23.1 C 0 km/h
1892 09-04-2009 19:29:02 23 C 6.17 g/m*3 23 C 0 km/h
1893 09-04-2009 19:41:01 22.6 C 6.43 g/m*3 22.6 C 0 km/h
1894 09-04-2009 19:53:01 21.5 C 6.6 g/m*3 21.5 C 0 km/h
1895 09-04-2009 20:05:02 19.9 C 6.7 g/m*3 19.9 C 0 km/h
1896 09-04-2009 20:17:01 18.6 C 6.68 g/m*3 18.6 C 0 km/h
1897 09-04-2009 20:29:01 17.9 C 6.87 g/m*3 17.9 C 0 km/h
1898 09-04-2009 20:41:01 17.3 C 6.78 g/m*3 17.3 C 0 km/h
1899 09-04-2009 20:53:01 16.9 C 6.9 g/m*3 16.9 C 0 km/h
1900 09-04-2009 21:05:01 16.6 C 7.06 g/m*3 16.6 C 0 km/h
Sensor: Nr:Datum:Temp:Abs-Feuchte:Windchill:Wind:
Aussen-T/F 1901 09-04-2009 21:17:00 16.2 C 6.9 g/m*3 16.2 C 0 km/h
1902 09-04-2009 21:29:00 16 C 6.95 g/m*3 16 C 0 km/h
1903 09-04-2009 21:41:00 15.8 C 7 g/m*3 15.8 C 0 km/h
1904 09-04-2009 21:53:00 15.6 C 7.05 g/m*3 15.6 C 0 km/h
1905 09-04-2009 22:05:00 15.4 C 7.09 g/m*3 15.4 C 0 km/h
1906 09-04-2009 22:17:00 15.2 C 7.01 g/m*3 15.2 C 0 km/h
1907 09-04-2009 22:29:00 14.9 C 7.14 g/m*3 14.9 C 0 km/h
1908 09-04-2009 22:41:59 14.8 C 7.09 g/m*3 14.8 C 0 km/h
1909 09-04-2009 23:05:59 14.6 C 7.13 g/m*3 14.6 C 0 km/h
1910 09-04-2009 23:17:59 14.4 C 7.05 g/m*3 14.4 C 0 km/h
1911 09-04-2009 23:29:59 14 C 7 g/m*3 14 C 0 km/h
1912 09-04-2009 23:41:59 13.8 C 7.15 g/m*3 13.8 C 0 km/h
1913 09-04-2009 23:53:59 13.7 C 7.22 g/m*3 13.7 C 0 km/h
1914 10-04-2009 00:05:59 13.4 C 7.21 g/m*3 13.4 C 0 km/h
1915 10-04-2009 00:17:59 13.2 C 7.23 g/m*3 13.2 C 0 km/h
1916 10-04-2009 00:29:59 13 C 7.14 g/m*3 13 C 0 km/h
1917 10-04-2009 00:41:59 12.9 C 7.21 g/m*3 12.9 C 0 km/h
1918 10-04-2009 00:53:59 12.9 C 7.33 g/m*3 12.9 C 0 km/h
1919 10-04-2009 01:05:59 12.8 C 7.28 g/m*3 12.8 C 0 km/h
1920 10-04-2009 01:17:59 12.7 C 7.24 g/m*3 12.7 C 0 km/h
1921 10-04-2009 01:29:59 12.7 C 7.35 g/m*3 12.7 C 0 km/h
1922 10-04-2009 01:41:59 12.8 C 7.39 g/m*3 12.8 C 0 km/h
1923 10-04-2009 01:53:59 12.8 C 7.39 g/m*3 12.8 C 0 km/h
1924 10-04-2009 02:05:59 12.7 C 7.35 g/m*3 12.7 C 0 km/h
1925 10-04-2009 02:17:59 12.3 C 7.38 g/m*3 12.3 C 0 km/h
Sensor: Nr:Datum:Temp:Abs-Feuchte:Windchill:Wind:
Aussen-T/F 1926 10-04-2009 02:29:59 12.4 C 7.43 g/m*3 12.4 C 0 km/h
1927 10-04-2009 02:41:59 12.5 C 7.37 g/m*3 12.5 C 0 km/h
1928 10-04-2009 02:53:59 12.5 C 7.37 g/m*3 12.5 C 0 km/h
1929 10-04-2009 03:06:00 12.4 C 7.32 g/m*3 12.4 C 0 km/h
1930 10-04-2009 03:18:00 12.4 C 7.32 g/m*3 12.4 C 0 km/h
1931 10-04-2009 03:30:00 12.4 C 7.43 g/m*3 12.4 C 0 km/h
1932 10-04-2009 03:42:00 12.4 C 7.43 g/m*3 12.4 C 0 km/h
1933 10-04-2009 03:54:00 12.2 C 7.34 g/m*3 12.2 C 0 km/h
1934 10-04-2009 04:06:00 12.2 C 7.34 g/m*3 12.2 C 0 km/h
1935 10-04-2009 04:18:00 12.1 C 7.4 g/m*3 12.1 C 0 km/h
1936 10-04-2009 04:30:00 12.1 C 7.4 g/m*3 12.1 C 0 km/h
1937 10-04-2009 04:42:00 12.1 C 7.4 g/m*3 12.1 C 0 km/h
1938 10-04-2009 04:54:00 12.1 C 7.4 g/m*3 12.1 C 0 km/h
1939 10-04-2009 05:06:00 12 C 7.35 g/m*3 12 C 0 km/h
1940 10-04-2009 05:18:00 11.9 C 7.41 g/m*3 11.9 C 0 km/h
1941 10-04-2009 05:30:00 11.9 C 7.52 g/m*3 11.9 C 0 km/h
1942 10-04-2009 05:42:00 11.7 C 7.53 g/m*3 11.7 C 0 km/h
1943 10-04-2009 05:54:00 11.8 C 7.58 g/m*3 11.8 C 0 km/h
1944 10-04-2009 06:06:00 11.6 C 7.59 g/m*3 11.6 C 0 km/h
1945 10-04-2009 06:18:00 11.5 C 7.64 g/m*3 11.5 C 0 km/h
1946 10-04-2009 06:30:00 11.4 C 7.6 g/m*3 11.4 C 0 km/h
1947 10-04-2009 06:42:00 11.3 C 7.55 g/m*3 11.3 C 0 km/h
1948 10-04-2009 06:54:00 11.3 C 7.65 g/m*3 11.3 C 0 km/h
1949 10-04-2009 07:06:00 11.1 C 7.55 g/m*3 11.1 C 0 km/h
1950 10-04-2009 07:18:01 11.1 C 7.66 g/m*3 11.1 C 0 km/h
Sensor: Nr:Datum:Temp:Abs-Feuchte:Windchill:Wind:
Aussen-T/F 1951 10-04-2009 07:30:01 11.1 C 7.66 g/m*3 11.1 C 0 km/h
1952 10-04-2009 07:30:58 11.3 C 7.75 g/m*3 11.3 C 0 km/h
1953 10-04-2009 07:42:58 11.4 C 7.7 g/m*3 11.4 C 0 km/h
1954 10-04-2009 07:54:58 11.5 C 7.75 g/m*3 11.5 C 0 km/h
1955 10-04-2009 08:06:58 11.7 C 7.84 g/m*3 11.7 C 0 km/h
1956 10-04-2009 08:18:58 12 C 7.89 g/m*3 12 C 0 km/h
1957 10-04-2009 08:30:58 12.3 C 7.93 g/m*3 12.3 C 0 km/h
1958 10-04-2009 08:42:58 12.9 C 8.11 g/m*3 12.9 C 0 km/h
1959 10-04-2009 08:54:58 13.2 C 7.81 g/m*3 13.2 C 0 km/h
1960 10-04-2009 09:06:58 13.6 C 7.89 g/m*3 13.6 C 0 km/h
1961 10-04-2009 09:18:57 13.8 C 7.86 g/m*3 13.8 C 0 km/h
1962 10-04-2009 09:30:57 13.9 C 7.79 g/m*3 13.9 C 0 km/h
1963 10-04-2009 09:42:57 14.3 C 7.86 g/m*3 14.3 C 0 km/h
1964 10-04-2009 09:54:57 14.9 C 7.77 g/m*3 14.9 C 0 km/h
1965 10-04-2009 10:06:57 15.5 C 7.8 g/m*3 15.5 C 0 km/h
1966 10-04-2009 10:18:56 16.2 C 7.72 g/m*3 16.2 C 0 km/h
1967 10-04-2009 10:30:57 16.8 C 7.72 g/m*3 16.8 C 0 km/h
1968 10-04-2009 10:42:57 17.4 C 7.41 g/m*3 17.4 C 0 km/h
1969 10-04-2009 10:54:56 17.8 C 7.59 g/m*3 17.8 C 0 km/h
1970 10-04-2009 11:06:57 18.5 C 7.12 g/m*3 18.5 C 0 km/h
1971 10-04-2009 11:18:56 19.2 C 6.76 g/m*3 19.2 C 0 km/h
1972 10-04-2009 11:30:56 19.7 C 6.79 g/m*3 19.7 C 0 km/h
1973 10-04-2009 11:42:56 20 C 6.57 g/m*3 20 C 0 km/h
1974 10-04-2009 11:54:56 20.4 C 6.72 g/m*3 20.4 C 0 km/h
1975 10-04-2009 12:06:56 21 C 6.41 g/m*3 21 C 0 km/h
Sensor: Nr:Datum:Temp:Abs-Feuchte:Windchill:Wind:
Aussen-T/F 1976 10-04-2009 12:18:56 21.7 C 6.87 g/m*3 21.7 C 0 km/h
1977 10-04-2009 12:30:55 22.1 C 6.25 g/m*3 22.1 C 0 km/h
1978 10-04-2009 12:42:55 22.6 C 6.43 g/m*3 22.6 C 0 km/h
1979 10-04-2009 12:54:56 23 C 6.37 g/m*3 23 C 0 km/h
1980 10-04-2009 13:06:55 23.2 C 6.24 g/m*3 23.2 C 0 km/h
1981 10-04-2009 13:18:55 23.4 C 5.89 g/m*3 23.4 C 0 km/h
1982 10-04-2009 13:30:55 24.1 C 5.91 g/m*3 24.1 C 0 km/h
1983 10-04-2009 13:42:55 24.7 C 5.66 g/m*3 24.7 C 0 km/h
1984 10-04-2009 13:54:55 24.9 C 5.26 g/m*3 24.9 C 0 km/h
1985 10-04-2009 14:06:54 25.5 C 5.45 g/m*3 25.5 C 0 km/h
1986 10-04-2009 14:18:55 25 C 4.83 g/m*3 25 C 0 km/h
1987 10-04-2009 14:30:55 25.9 C 4.84 g/m*3 25.9 C 0 km/h
1988 10-04-2009 14:42:55 26.5 C 5.01 g/m*3 26.5 C 0 km/h
1989 10-04-2009 14:54:54 26.7 C 5.06 g/m*3 26.7 C 0 km/h
1990 10-04-2009 15:06:54 27.4 C 5.26 g/m*3 27.4 C 0 km/h
1991 10-04-2009 15:18:54 27.5 C 5.29 g/m*3 27.5 C 0 km/h
1992 10-04-2009 15:30:54 27.9 C 5.41 g/m*3 27.9 C 0 km/h
1993 10-04-2009 15:42:54 28.4 C 5.56 g/m*3 28.4 C 0 km/h
1994 10-04-2009 15:54:53 28.5 C 5.59 g/m*3 28.5 C 0 km/h
1995 10-04-2009 16:06:54 28.9 C 5.71 g/m*3 28.9 C 0 km/h
1996 10-04-2009 16:18:53 28.8 C 5.68 g/m*3 28.8 C 0 km/h
1997 10-04-2009 16:30:53 28.3 C 5.53 g/m*3 28.3 C 0 km/h
1998 10-04-2009 16:42:53 28.1 C 5.47 g/m*3 28.1 C 0 km/h
1999 10-04-2009 16:54:53 27.9 C 5.41 g/m*3 27.9 C 0 km/h
2000 10-04-2009 17:06:53 28.9 C 5.71 g/m*3 28.9 C 0 km/h
Sensor: Nr:Datum:Temp:Abs-Feuchte:Windchill:Wind:
Aussen-T/F 2001 10-04-2009 17:18:53 29.3 C 5.84 g/m*3 29.3 C 0 km/h
2002 10-04-2009 17:30:52 29.6 C 5.94 g/m*3 29.6 C 0 km/h
2003 10-04-2009 17:42:52 29.9 C 6.03 g/m*3 29.9 C 0 km/h
2004 10-04-2009 17:54:53 28.9 C 5.71 g/m*3 28.9 C 0 km/h
2005 10-04-2009 18:06:52 28.5 C 5.59 g/m*3 28.5 C 0 km/h
2006 10-04-2009 18:18:52 28.1 C 5.47 g/m*3 28.1 C 0 km/h
2007 10-04-2009 18:30:52 26.3 C 4.95 g/m*3 26.3 C 0 km/h
2008 10-04-2009 18:42:52 26.9 C 5.12 g/m*3 26.9 C 0 km/h
2009 10-04-2009 18:54:52 27.2 C 5.2 g/m*3 27.2 C 0 km/h
2010 10-04-2009 19:06:52 27 C 5.15 g/m*3 27 C 0 km/h
2011 10-04-2009 19:18:52 27.1 C 5.18 g/m*3 27.1 C 0 km/h
2012 10-04-2009 19:30:52 26.7 C 5.06 g/m*3 26.7 C 0 km/h
2013 10-04-2009 19:42:52 25.6 C 5 g/m*3 25.6 C 0 km/h
2014 10-04-2009 19:54:51 24.1 C 5.25 g/m*3 24.1 C 0 km/h
2015 10-04-2009 20:06:52 22.8 C 5.28 g/m*3 22.8 C 0 km/h
2016 10-04-2009 20:18:51 22 C 5.43 g/m*3 22 C 0 km/h
2017 10-04-2009 20:30:51 21.2 C 5.56 g/m*3 21.2 C 0 km/h
2018 10-04-2009 20:42:51 20.8 C 5.79 g/m*3 20.8 C 0 km/h
2019 10-04-2009 20:54:50 20.4 C 6.01 g/m*3 20.4 C 0 km/h
2020 10-04-2009 21:06:50 19.8 C 6.15 g/m*3 19.8 C 0 km/h
2021 10-04-2009 21:18:51 19.7 C 6.28 g/m*3 19.7 C 0 km/h
2022 10-04-2009 21:30:51 19.5 C 6.38 g/m*3 19.5 C 0 km/h
2023 10-04-2009 21:42:51 19.2 C 6.27 g/m*3 19.2 C 0 km/h
2024 10-04-2009 21:54:50 18.7 C 6.4 g/m*3 18.7 C 0 km/h
2025 10-04-2009 22:06:51 18.5 C 6.33 g/m*3 18.5 C 0 km/h
Sensor: Nr:Datum:Temp:Abs-Feuchte:Windchill:Wind:
Aussen-T/F 2026 10-04-2009 22:18:50 18.3 C 6.41 g/m*3 18.3 C 0 km/h
2027 10-04-2009 22:31:51 18 C 6.3 g/m*3 18 C 0 km/h
2028 10-04-2009 22:43:51 17.7 C 6.49 g/m*3 17.7 C 0 km/h
2029 10-04-2009 22:55:51 17.4 C 6.52 g/m*3 17.4 C 0 km/h
2030 10-04-2009 23:07:51 17.1 C 6.4 g/m*3 17.1 C 0 km/h
2031 10-04-2009 23:19:51 16.8 C 6.58 g/m*3 16.8 C 0 km/h
2032 10-04-2009 23:31:51 16.7 C 6.68 g/m*3 16.7 C 0 km/h
2033 10-04-2009 23:43:51 16.3 C 6.38 g/m*3 16.3 C 0 km/h
2034 10-04-2009 23:55:51 16 C 6.54 g/m*3 16 C 0 km/h
2035 11-04-2009 00:07:51 15.7 C 6.69 g/m*3 15.7 C 0 km/h
2036 11-04-2009 00:19:51 15.3 C 6.66 g/m*3 15.3 C 0 km/h
2037 11-04-2009 00:31:51 15.2 C 6.62 g/m*3 15.2 C 0 km/h
2038 11-04-2009 00:43:51 15 C 6.67 g/m*3 15 C 0 km/h
2039 11-04-2009 00:55:51 14.7 C 6.92 g/m*3 14.7 C 0 km/h
2040 11-04-2009 01:07:51 14.5 C 6.84 g/m*3 14.5 C 0 km/h
2041 11-04-2009 01:19:51 14 C 6.88 g/m*3 14 C 0 km/h
2042 11-04-2009 01:31:51 13.8 C 7.03 g/m*3 13.8 C 0 km/h
2043 11-04-2009 01:43:51 13.6 C 7.06 g/m*3 13.6 C 0 km/h
2044 11-04-2009 01:55:51 13.5 C 7.02 g/m*3 13.5 C 0 km/h
2045 11-04-2009 02:07:51 13.4 C 6.86 g/m*3 13.4 C 0 km/h
2046 11-04-2009 02:19:52 13.2 C 6.77 g/m*3 13.2 C 0 km/h
2047 11-04-2009 02:31:52 13 C 6.92 g/m*3 13 C 0 km/h
2048 11-04-2009 02:43:52 13 C 7.03 g/m*3 13 C 0 km/h
2049 11-04-2009 02:55:52 12.5 C 7.04 g/m*3 12.5 C 0 km/h
2050 11-04-2009 03:07:52 12.4 C 6.99 g/m*3 12.4 C 0 km/h
Sensor: Nr:Datum:Temp:Abs-Feuchte:Windchill:Wind:
Aussen-T/F 2051 11-04-2009 03:19:52 12.3 C 6.95 g/m*3 12.3 C 0 km/h
2052 11-04-2009 03:31:52 12 C 6.93 g/m*3 12 C 0 km/h
2053 11-04-2009 03:43:52 11.7 C 7.11 g/m*3 11.7 C 0 km/h
2054 11-04-2009 03:55:52 11.4 C 7.08 g/m*3 11.4 C 0 km/h
2055 11-04-2009 04:07:52 11.3 C 7.04 g/m*3 11.3 C 0 km/h
2056 11-04-2009 04:19:52 11.1 C 7.05 g/m*3 11.1 C 0 km/h
2057 11-04-2009 04:31:52 11.2 C 7.1 g/m*3 11.2 C 0 km/h
2058 11-04-2009 04:43:52 11.4 C 7.08 g/m*3 11.4 C 0 km/h
2059 11-04-2009 04:55:52 11.3 C 7.04 g/m*3 11.3 C 0 km/h
2060 11-04-2009 05:07:52 11.2 C 7.1 g/m*3 11.2 C 0 km/h
2061 11-04-2009 05:19:52 11.4 C 7.19 g/m*3 11.4 C 0 km/h
2062 11-04-2009 05:31:52 11.4 C 7.08 g/m*3 11.4 C 0 km/h
2063 11-04-2009 05:43:52 11.4 C 7.08 g/m*3 11.4 C 0 km/h
2064 11-04-2009 05:55:52 11.2 C 7.1 g/m*3 11.2 C 0 km/h
2065 11-04-2009 06:07:52 11 C 7.01 g/m*3 11 C 0 km/h
2066 11-04-2009 06:19:52 10.9 C 7.06 g/m*3 10.9 C 0 km/h
2067 11-04-2009 06:31:53 10.5 C 6.98 g/m*3 10.5 C 0 km/h
2068 11-04-2009 06:43:53 10.2 C 6.95 g/m*3 10.2 C 0 km/h
2069 11-04-2009 06:55:53 10.2 C 7.04 g/m*3 10.2 C 0 km/h
2070 11-04-2009 07:07:53 10.3 C 7.09 g/m*3 10.3 C 0 km/h
2071 11-04-2009 07:19:53 10.2 C 7.14 g/m*3 10.2 C 0 km/h
2072 11-04-2009 07:31:53 10.3 C 7.18 g/m*3 10.3 C 0 km/h
2073 11-04-2009 07:43:53 10.3 C 7.18 g/m*3 10.3 C 0 km/h
2074 11-04-2009 07:55:53 10.4 C 7.13 g/m*3 10.4 C 0 km/h
2075 11-04-2009 08:07:53 10.4 C 7.23 g/m*3 10.4 C 0 km/h
Sensor: Nr:Datum:Temp:Abs-Feuchte:Windchill:Wind:
Aussen-T/F 2076 11-04-2009 08:19:53 10.6 C 7.22 g/m*3 10.6 C 0 km/h
2077 11-04-2009 08:31:51 10.7 C 7.27 g/m*3 10.7 C 0 km/h
2078 11-04-2009 08:43:51 11.1 C 7.35 g/m*3 11.1 C 0 km/h
2079 11-04-2009 08:55:50 11.5 C 7.44 g/m*3 11.5 C 0 km/h
2080 11-04-2009 09:07:51 12.1 C 7.4 g/m*3 12.1 C 0 km/h
2081 11-04-2009 09:19:50 12.7 C 7.46 g/m*3 12.7 C 0 km/h
2082 11-04-2009 09:31:50 13.4 C 7.21 g/m*3 13.4 C 0 km/h
2083 11-04-2009 09:43:50 13.5 C 7.13 g/m*3 13.5 C 0 km/h
2084 11-04-2009 09:55:50 13.7 C 7.22 g/m*3 13.7 C 0 km/h
2085 11-04-2009 10:07:50 14.5 C 7.46 g/m*3 14.5 C 0 km/h
2086 11-04-2009 10:19:50 15.1 C 7.35 g/m*3 15.1 C 0 km/h
2087 11-04-2009 10:31:49 15.6 C 7.31 g/m*3 15.6 C 0 km/h
2088 11-04-2009 10:43:49 16.1 C 7.26 g/m*3 16.1 C 0 km/h
2089 11-04-2009 10:55:49 16.6 C 7.2 g/m*3 16.6 C 0 km/h
2090 11-04-2009 11:07:49 17.4 C 7.41 g/m*3 17.4 C 0 km/h
2091 11-04-2009 11:19:50 18.5 C 7.12 g/m*3 18.5 C 0 km/h
2092 11-04-2009 11:31:49 19.3 C 6.8 g/m*3 19.3 C 0 km/h
2093 11-04-2009 11:43:49 19.6 C 6.75 g/m*3 19.6 C 0 km/h
2094 11-04-2009 11:55:49 20 C 6.39 g/m*3 20 C 0 km/h
2095 11-04-2009 12:07:48 20.4 C 6.37 g/m*3 20.4 C 0 km/h
2096 11-04-2009 12:19:49 21.2 C 6.3 g/m*3 21.2 C 0 km/h
2097 11-04-2009 12:31:48 21.7 C 6.29 g/m*3 21.7 C 0 km/h
2098 11-04-2009 12:43:48 22.1 C 6.05 g/m*3 22.1 C 0 km/h
2099 11-04-2009 12:55:48 22.6 C 6.03 g/m*3 22.6 C 0 km/h
2100 11-04-2009 13:07:48 23.3 C 5.85 g/m*3 23.3 C 0 km/h
Sensor: Nr:Datum:Temp:Abs-Feuchte:Windchill:Wind:
Aussen-T/F 2101 11-04-2009 13:19:48 23.4 C 6.1 g/m*3 23.4 C 0 km/h
2102 11-04-2009 13:31:48 23.6 C 5.74 g/m*3 23.6 C 0 km/h
2103 11-04-2009 13:43:48 24.2 C 5.94 g/m*3 24.2 C 0 km/h
2104 11-04-2009 13:55:48 24.6 C 5.63 g/m*3 24.6 C 0 km/h
2105 11-04-2009 14:07:48 25.5 C 5.92 g/m*3 25.5 C 0 km/h
2106 11-04-2009 14:19:47 25.6 C 5.71 g/m*3 25.6 C 0 km/h
2107 11-04-2009 14:31:48 24.9 C 5.72 g/m*3 24.9 C 0 km/h
2108 11-04-2009 14:43:48 25.1 C 5.79 g/m*3 25.1 C 0 km/h
2109 11-04-2009 14:55:47 25.5 C 5.92 g/m*3 25.5 C 0 km/h
2110 11-04-2009 15:07:47 27.2 C 5.72 g/m*3 27.2 C 0 km/h
2111 11-04-2009 15:19:47 27 C 5.4 g/m*3 27 C 0 km/h
2112 11-04-2009 15:31:47 26.9 C 5.63 g/m*3 26.9 C 0 km/h
2113 11-04-2009 15:43:47 26.1 C 5.39 g/m*3 26.1 C 0 km/h
2114 11-04-2009 15:55:46 25.3 C 5.38 g/m*3 25.3 C 0 km/h
2115 11-04-2009 16:07:47 25.2 C 5.59 g/m*3 25.2 C 0 km/h
2116 11-04-2009 16:19:47 25.2 C 6.05 g/m*3 25.2 C 0 km/h
2117 11-04-2009 16:31:46 25.9 C 5.08 g/m*3 25.9 C 0 km/h
2118 11-04-2009 16:43:46 26.5 C 5.01 g/m*3 26.5 C 0 km/h
2119 11-04-2009 16:55:46 26 C 4.87 g/m*3 26 C 0 km/h
2120 11-04-2009 17:07:46 23.4 C 5.47 g/m*3 23.4 C 0 km/h
2121 11-04-2009 17:19:46 21.3 C 9.13 g/m*3 21.3 C 0 km/h
2122 11-04-2009 17:31:45 22.4 C 8.14 g/m*3 22.4 C 0 km/h
2123 11-04-2009 17:43:45 24.1 C 7.44 g/m*3 24.1 C 0 km/h
2124 11-04-2009 17:55:46 25.3 C 6.09 g/m*3 25.3 C 0 km/h
2125 11-04-2009 18:07:45 25.2 C 6.05 g/m*3 25.2 C 0 km/h
Sensor: Nr:Datum:Temp:Abs-Feuchte:Windchill:Wind:
Aussen-T/F 2126 11-04-2009 18:19:45 23.5 C 6.34 g/m*3 23.5 C 0 km/h
2127 11-04-2009 18:31:45 22.9 C 6.34 g/m*3 22.9 C 0 km/h
2128 11-04-2009 18:43:45 22.3 C 6.32 g/m*3 22.3 C 0 km/h
2129 11-04-2009 18:55:45 22 C 6.4 g/m*3 22 C 0 km/h
2130 11-04-2009 19:07:45 22.1 C 6.44 g/m*3 22.1 C 0 km/h
2131 11-04-2009 19:19:44 21.6 C 6.64 g/m*3 21.6 C 0 km/h
2132 11-04-2009 19:31:45 21.3 C 6.52 g/m*3 21.3 C 0 km/h
2133 11-04-2009 19:43:45 20.9 C 6.56 g/m*3 20.9 C 0 km/h
2134 11-04-2009 19:55:44 20.5 C 6.58 g/m*3 20.5 C 0 km/h
2135 11-04-2009 20:07:44 19.9 C 6.87 g/m*3 19.9 C 0 km/h
2136 11-04-2009 20:19:44 19.6 C 6.75 g/m*3 19.6 C 0 km/h
2137 11-04-2009 20:31:44 18.9 C 6.97 g/m*3 18.9 C 0 km/h
2138 11-04-2009 20:43:44 18.8 C 6.76 g/m*3 18.8 C 0 km/h
2139 11-04-2009 20:55:43 18.5 C 6.96 g/m*3 18.5 C 0 km/h
2140 11-04-2009 21:07:43 18.3 C 6.88 g/m*3 18.3 C 0 km/h
2141 11-04-2009 21:19:43 18.4 C 6.92 g/m*3 18.4 C 0 km/h
2142 11-04-2009 21:31:44 18.3 C 6.88 g/m*3 18.3 C 0 km/h
2143 11-04-2009 21:43:44 17.9 C 7.18 g/m*3 17.9 C 0 km/h
2144 11-04-2009 21:55:43 17.6 C 7.2 g/m*3 17.6 C 0 km/h
2145 11-04-2009 22:07:43 17.4 C 7.26 g/m*3 17.4 C 0 km/h
2146 11-04-2009 22:19:43 17.1 C 7.28 g/m*3 17.1 C 0 km/h
2147 11-04-2009 22:31:43 16.8 C 7.43 g/m*3 16.8 C 0 km/h
2148 11-04-2009 22:43:43 16.5 C 7.44 g/m*3 16.5 C 0 km/h
2149 11-04-2009 22:55:42 16.3 C 7.49 g/m*3 16.3 C 0 km/h
2150 11-04-2009 23:07:43 16.1 C 7.54 g/m*3 16.1 C 0 km/h
Sensor: Nr:Datum:Temp:Abs-Feuchte:Windchill:Wind:
Aussen-T/F 2151 11-04-2009 23:19:42 15.9 C 7.58 g/m*3 15.9 C 0 km/h
2152 11-04-2009 23:32:43 15.8 C 7.54 g/m*3 15.8 C 0 km/h
2153 11-04-2009 23:44:43 15.4 C 7.62 g/m*3 15.4 C 0 km/h
2154 11-04-2009 23:56:43 15.2 C 7.66 g/m*3 15.2 C 0 km/h
2155 12-04-2009 00:08:43 14.8 C 7.73 g/m*3 14.8 C 0 km/h
2156 12-04-2009 00:20:44 14.5 C 7.71 g/m*3 14.5 C 0 km/h
2157 12-04-2009 00:32:44 14.4 C 7.79 g/m*3 14.4 C 0 km/h
2158 12-04-2009 00:44:44 14.2 C 7.69 g/m*3 14.2 C 0 km/h
2159 12-04-2009 00:56:44 14 C 7.72 g/m*3 14 C 0 km/h
2160 12-04-2009 01:08:44 13.8 C 7.86 g/m*3 13.8 C 0 km/h
2161 12-04-2009 01:20:44 13.7 C 7.93 g/m*3 13.7 C 0 km/h
2162 12-04-2009 01:32:44 13.4 C 7.9 g/m*3 13.4 C 0 km/h
2163 12-04-2009 01:44:44 13.3 C 7.86 g/m*3 13.3 C 0 km/h
2164 12-04-2009 01:56:44 13.2 C 7.81 g/m*3 13.2 C 0 km/h
2165 12-04-2009 02:08:44 13.2 C 7.81 g/m*3 13.2 C 0 km/h
2166 12-04-2009 02:20:44 13 C 7.83 g/m*3 13 C 0 km/h
2167 12-04-2009 02:32:44 12.9 C 7.89 g/m*3 12.9 C 0 km/h
2168 12-04-2009 02:44:44 12.7 C 7.9 g/m*3 12.7 C 0 km/h
2169 12-04-2009 02:56:44 12.5 C 7.92 g/m*3 12.5 C 0 km/h
2170 12-04-2009 03:08:44 12.3 C 7.82 g/m*3 12.3 C 0 km/h
2171 12-04-2009 03:20:44 12.1 C 7.83 g/m*3 12.1 C 0 km/h
2172 12-04-2009 03:32:44 11.9 C 7.94 g/m*3 11.9 C 0 km/h
2173 12-04-2009 03:44:44 11.7 C 7.84 g/m*3 11.7 C 0 km/h
2174 12-04-2009 03:56:44 11.6 C 7.8 g/m*3 11.6 C 0 km/h
2175 12-04-2009 04:08:45 11.4 C 7.7 g/m*3 11.4 C 0 km/h
Sensor: Nr:Datum:Temp:Abs-Feuchte:Windchill:Wind:
Aussen-T/F 2176 12-04-2009 04:20:45 11.2 C 7.7 g/m*3 11.2 C 0 km/h
2177 12-04-2009 04:32:45 11.1 C 7.76 g/m*3 11.1 C 0 km/h
2178 12-04-2009 04:44:45 11 C 7.61 g/m*3 11 C 0 km/h
2179 12-04-2009 04:56:45 10.8 C 7.71 g/m*3 10.8 C 0 km/h
2180 12-04-2009 05:08:45 10.7 C 7.66 g/m*3 10.7 C 0 km/h
2181 12-04-2009 05:20:45 10.6 C 7.71 g/m*3 10.6 C 0 km/h
2182 12-04-2009 05:32:45 10.4 C 7.61 g/m*3 10.4 C 0 km/h
2183 12-04-2009 05:44:45 10.2 C 7.61 g/m*3 10.2 C 0 km/h
2184 12-04-2009 05:56:45 10.2 C 7.61 g/m*3 10.2 C 0 km/h
2185 12-04-2009 06:08:45 10 C 7.52 g/m*3 10 C 0 km/h
2186 12-04-2009 06:20:45 9.9 C 7.66 g/m*3 9.9 C 0 km/h
2187 12-04-2009 06:32:45 9.7 C 7.56 g/m*3 9.7 C 0 km/h
2188 12-04-2009 06:44:45 9.6 C 7.51 g/m*3 9.6 C 0 km/h
2189 12-04-2009 06:56:45 9.6 C 7.42 g/m*3 9.6 C 0 km/h
2190 12-04-2009 07:08:45 9.7 C 7.56 g/m*3 9.7 C 0 km/h
2191 12-04-2009 07:20:45 10 C 7.52 g/m*3 10 C 0 km/h
2192 12-04-2009 07:32:45 10.2 C 7.61 g/m*3 10.2 C 0 km/h
2193 12-04-2009 07:44:45 10.5 C 7.66 g/m*3 10.5 C 0 km/h
2194 12-04-2009 07:56:46 10.8 C 7.81 g/m*3 10.8 C 0 km/h
2195 12-04-2009 08:08:46 11.1 C 7.76 g/m*3 11.1 C 0 km/h
2196 12-04-2009 08:20:46 11.1 C 7.66 g/m*3 11.1 C 0 km/h
2197 12-04-2009 08:32:42 11.2 C 7.6 g/m*3 11.2 C 0 km/h
2198 12-04-2009 08:44:43 11.5 C 7.64 g/m*3 11.5 C 0 km/h
2199 12-04-2009 08:56:43 11.9 C 7.73 g/m*3 11.9 C 0 km/h
2200 12-04-2009 09:08:42 12.2 C 7.77 g/m*3 12.2 C 0 km/h
Sensor: Nr:Datum:Temp:Abs-Feuchte:Windchill:Wind:
Aussen-T/F 2201 12-04-2009 09:20:42 12.6 C 7.74 g/m*3 12.6 C 0 km/h
2202 12-04-2009 09:32:42 13 C 7.83 g/m*3 13 C 0 km/h
2203 12-04-2009 09:44:42 13.8 C 8.1 g/m*3 13.8 C 0 km/h
2204 12-04-2009 09:56:42 14.3 C 7.86 g/m*3 14.3 C 0 km/h
2205 12-04-2009 10:08:41 14.8 C 7.98 g/m*3 14.8 C 0 km/h
2206 12-04-2009 10:20:42 15.6 C 8.11 g/m*3 15.6 C 0 km/h
2207 12-04-2009 10:32:42 16.3 C 8.19 g/m*3 16.3 C 0 km/h
2208 12-04-2009 10:44:41 16.8 C 8.29 g/m*3 16.8 C 0 km/h
2209 12-04-2009 10:56:41 17.3 C 8.1 g/m*3 17.3 C 0 km/h
2210 12-04-2009 11:08:42 17.8 C 8.35 g/m*3 17.8 C 0 km/h
2211 12-04-2009 11:20:41 18.2 C 8.24 g/m*3 18.2 C 0 km/h
2212 12-04-2009 11:32:41 18.5 C 8.23 g/m*3 18.5 C 0 km/h
2213 12-04-2009 11:44:41 18.9 C 8.1 g/m*3 18.9 C 0 km/h
2214 12-04-2009 11:56:41 19.5 C 8.22 g/m*3 19.5 C 0 km/h
2215 12-04-2009 12:08:41 20.2 C 8.04 g/m*3 20.2 C 0 km/h
2216 12-04-2009 12:20:40 20.5 C 7.83 g/m*3 20.5 C 0 km/h
2217 12-04-2009 12:32:40 20.8 C 8.15 g/m*3 20.8 C 0 km/h
2218 12-04-2009 12:44:40 21.2 C 7.78 g/m*3 21.2 C 0 km/h
2219 12-04-2009 12:56:40 20.9 C 7.83 g/m*3 20.9 C 0 km/h
2220 12-04-2009 13:08:40 22.5 C 7.99 g/m*3 22.5 C 0 km/h
2221 12-04-2009 13:20:40 23 C 7.6 g/m*3 23 C 0 km/h
2222 12-04-2009 13:32:40 22.9 C 7.77 g/m*3 22.9 C 0 km/h
2223 12-04-2009 13:44:39 22.7 C 7.68 g/m*3 22.7 C 0 km/h
2224 12-04-2009 13:56:39 22.1 C 7.81 g/m*3 22.1 C 0 km/h
2225 12-04-2009 14:08:40 21.9 C 8.1 g/m*3 21.9 C 0 km/h
Sensor: Nr:Datum:Temp:Abs-Feuchte:Windchill:Wind:
Aussen-T/F 2226 12-04-2009 14:20:40 21.9 C 7.91 g/m*3 21.9 C 0 km/h
2227 12-04-2009 14:32:39 23 C 7.81 g/m*3 23 C 0 km/h
2228 12-04-2009 14:44:40 23.6 C 7.87 g/m*3 23.6 C 0 km/h
2229 12-04-2009 14:56:40 23.6 C 7.87 g/m*3 23.6 C 0 km/h
2230 12-04-2009 15:08:39 24.2 C 7.7 g/m*3 24.2 C 0 km/h
2231 12-04-2009 15:20:39 25.1 C 7.41 g/m*3 25.1 C 0 km/h
2232 12-04-2009 15:32:38 25.6 C 7.62 g/m*3 25.6 C 0 km/h
2233 12-04-2009 15:44:39 24.5 C 7.16 g/m*3 24.5 C 0 km/h
2234 12-04-2009 15:56:39 24 C 7.4 g/m*3 24 C 0 km/h
2235 12-04-2009 16:08:38 24.1 C 7.44 g/m*3 24.1 C 0 km/h
2236 12-04-2009 16:20:38 23.8 C 8.17 g/m*3 23.8 C 0 km/h
2237 12-04-2009 16:32:39 23.1 C 7.65 g/m*3 23.1 C 0 km/h
2238 12-04-2009 16:44:38 22.7 C 7.88 g/m*3 22.7 C 0 km/h
2239 12-04-2009 16:56:38 23.3 C 7.95 g/m*3 23.3 C 0 km/h
2240 12-04-2009 17:08:38 23.3 C 7.74 g/m*3 23.3 C 0 km/h
2241 12-04-2009 17:20:37 23.7 C 7.7 g/m*3 23.7 C 0 km/h
2242 12-04-2009 17:32:38 24 C 7.61 g/m*3 24 C 0 km/h
2243 12-04-2009 17:44:37 23.7 C 7.7 g/m*3 23.7 C 0 km/h
2244 12-04-2009 17:56:37 23.9 C 7.79 g/m*3 23.9 C 0 km/h
2245 12-04-2009 18:08:37 24 C 7.61 g/m*3 24 C 0 km/h
2246 12-04-2009 18:20:37 23.3 C 7.95 g/m*3 23.3 C 0 km/h
2247 12-04-2009 18:32:37 22.7 C 8.28 g/m*3 22.7 C 0 km/h
2248 12-04-2009 18:44:36 22.4 C 8.34 g/m*3 22.4 C 0 km/h
2249 12-04-2009 18:56:36 22 C 8.35 g/m*3 22 C 0 km/h
2250 12-04-2009 19:08:37 21.4 C 8.25 g/m*3 21.4 C 0 km/h
Sensor: Nr:Datum:Temp:Abs-Feuchte:Windchill:Wind:
Aussen-T/F 2251 12-04-2009 19:20:37 21 C 8.24 g/m*3 21 C 0 km/h
2252 12-04-2009 19:32:36 20.6 C 8.41 g/m*3 20.6 C 0 km/h
2253 12-04-2009 19:44:37 20.1 C 8.52 g/m*3 20.1 C 0 km/h
2254 12-04-2009 19:56:37 19.5 C 8.56 g/m*3 19.5 C 0 km/h
2255 12-04-2009 20:08:36 19.3 C 8.63 g/m*3 19.3 C 0 km/h
2256 12-04-2009 20:20:36 18.9 C 8.75 g/m*3 18.9 C 0 km/h
2257 12-04-2009 20:32:35 18.5 C 8.7 g/m*3 18.5 C 0 km/h
2258 12-04-2009 20:44:36 18.1 C 8.65 g/m*3 18.1 C 0 km/h
2259 12-04-2009 20:56:37 17.8 C 8.65 g/m*3 17.8 C 0 km/h
2260 12-04-2009 21:08:35 17.6 C 8.7 g/m*3 17.6 C 0 km/h
2261 12-04-2009 21:20:36 17.5 C 8.8 g/m*3 17.5 C 0 km/h
2262 12-04-2009 21:32:35 17.3 C 8.84 g/m*3 17.3 C 0 km/h
2263 12-04-2009 21:44:35 17.1 C 8.73 g/m*3 17.1 C 0 km/h
2264 12-04-2009 21:56:35 17 C 8.83 g/m*3 17 C 0 km/h
2265 12-04-2009 22:08:35 16.8 C 9.01 g/m*3 16.8 C 0 km/h
2266 12-04-2009 22:20:35 16.7 C 9.1 g/m*3 16.7 C 0 km/h
2267 12-04-2009 22:32:34 16.5 C 9.13 g/m*3 16.5 C 0 km/h
2268 12-04-2009 22:45:35 16.4 C 9.21 g/m*3 16.4 C 0 km/h
2269 12-04-2009 22:57:36 16.2 C 9.24 g/m*3 16.2 C 0 km/h
2270 12-04-2009 23:09:36 16.1 C 9.32 g/m*3 16.1 C 0 km/h
2271 12-04-2009 23:21:36 16 C 9.26 g/m*3 16 C 0 km/h
2272 12-04-2009 23:33:36 15.8 C 9.42 g/m*3 15.8 C 0 km/h
2273 12-04-2009 23:45:36 15.6 C 9.31 g/m*3 15.6 C 0 km/h
2274 12-04-2009 23:57:36 15.6 C 9.44 g/m*3 15.6 C 0 km/h
2275 13-04-2009 00:09:36 15.4 C 9.33 g/m*3 15.4 C 0 km/h
Sensor: Nr:Datum:Temp:Abs-Feuchte:Windchill:Wind:
Aussen-T/F 2276 13-04-2009 00:21:36 15.3 C 9.27 g/m*3 15.3 C 0 km/h
2277 13-04-2009 00:33:36 15 C 9.23 g/m*3 15 C 0 km/h
2278 13-04-2009 00:45:36 14.9 C 9.43 g/m*3 14.9 C 0 km/h
2279 13-04-2009 00:57:36 14.7 C 9.32 g/m*3 14.7 C 0 km/h
2280 13-04-2009 01:09:36 14.7 C 9.44 g/m*3 14.7 C 0 km/h
2281 13-04-2009 01:21:36 14.4 C 9.27 g/m*3 14.4 C 0 km/h
2282 13-04-2009 01:33:36 14.2 C 9.16 g/m*3 14.2 C 0 km/h
2283 13-04-2009 01:45:36 14 C 9.17 g/m*3 14 C 0 km/h
2284 13-04-2009 01:57:36 13.8 C 9.17 g/m*3 13.8 C 0 km/h
2285 13-04-2009 02:09:36 13.7 C 9.24 g/m*3 13.7 C 0 km/h
2286 13-04-2009 02:21:36 13.5 C 9.12 g/m*3 13.5 C 0 km/h
2287 13-04-2009 02:33:36 13.4 C 9.07 g/m*3 13.4 C 0 km/h
2288 13-04-2009 02:45:37 13.2 C 9.07 g/m*3 13.2 C 0 km/h
2289 13-04-2009 02:57:37 13.2 C 9.07 g/m*3 13.2 C 0 km/h
2290 13-04-2009 03:09:37 13.1 C 9.13 g/m*3 13.1 C 0 km/h
2291 13-04-2009 03:21:37 12.9 C 9.02 g/m*3 12.9 C 0 km/h
2292 13-04-2009 03:33:37 12.8 C 9.07 g/m*3 12.8 C 0 km/h
2293 13-04-2009 03:45:37 12.7 C 9.02 g/m*3 12.7 C 0 km/h
2294 13-04-2009 03:57:37 12.7 C 9.13 g/m*3 12.7 C 0 km/h
2295 13-04-2009 04:09:37 12.6 C 9.07 g/m*3 12.6 C 0 km/h
2296 13-04-2009 04:21:37 12.5 C 8.91 g/m*3 12.5 C 0 km/h
2297 13-04-2009 04:33:37 12.2 C 8.74 g/m*3 12.2 C 0 km/h
2298 13-04-2009 04:45:37 12 C 8.74 g/m*3 12 C 0 km/h
2299 13-04-2009 04:57:37 12.1 C 8.79 g/m*3 12.1 C 0 km/h
2300 13-04-2009 05:09:37 12.3 C 9.01 g/m*3 12.3 C 0 km/h
Sensor: Nr:Datum:Temp:Abs-Feuchte:Windchill:Wind:
Aussen-T/F 2301 13-04-2009 05:21:37 12.4 C 8.96 g/m*3 12.4 C 0 km/h
2302 13-04-2009 05:33:37 12.4 C 8.85 g/m*3 12.4 C 0 km/h
2303 13-04-2009 05:45:37 12.5 C 8.91 g/m*3 12.5 C 0 km/h
2304 13-04-2009 05:57:37 12.5 C 8.91 g/m*3 12.5 C 0 km/h
2305 13-04-2009 06:09:37 12.5 C 8.91 g/m*3 12.5 C 0 km/h
2306 13-04-2009 06:21:37 12.7 C 9.02 g/m*3 12.7 C 0 km/h
2307 13-04-2009 06:33:38 12.7 C 8.91 g/m*3 12.7 C 0 km/h
2308 13-04-2009 06:45:38 12.8 C 9.07 g/m*3 12.8 C 0 km/h
2309 13-04-2009 06:57:38 13 C 9.19 g/m*3 13 C 0 km/h
2310 13-04-2009 07:09:38 13.1 C 9.24 g/m*3 13.1 C 0 km/h
2311 13-04-2009 07:21:38 13.4 C 9.42 g/m*3 13.4 C 0 km/h
2312 13-04-2009 07:33:38 13.6 C 9.53 g/m*3 13.6 C 0 km/h
2313 13-04-2009 07:45:38 13.7 C 9.59 g/m*3 13.7 C 0 km/h
2314 13-04-2009 07:57:38 13.9 C 9.71 g/m*3 13.9 C 0 km/h
2315 13-04-2009 08:09:35 13.9 C 9.71 g/m*3 13.9 C 0 km/h
2316 13-04-2009 08:21:35 13.8 C 9.65 g/m*3 13.8 C 0 km/h
2317 13-04-2009 08:33:35 13.7 C 9.71 g/m*3 13.7 C 0 km/h
2318 13-04-2009 08:45:35 13.3 C 9.59 g/m*3 13.3 C 0 km/h
2319 13-04-2009 08:57:35 13.5 C 9.83 g/m*3 13.5 C 0 km/h
2320 13-04-2009 09:09:34 13.6 C 9.89 g/m*3 13.6 C 0 km/h
2321 13-04-2009 09:21:35 13.7 C 9.95 g/m*3 13.7 C 0 km/h
2322 13-04-2009 09:33:34 13.8 C 9.89 g/m*3 13.8 C 0 km/h
2323 13-04-2009 09:45:34 14.1 C 9.95 g/m*3 14.1 C 0 km/h
2324 13-04-2009 09:57:34 14.3 C 9.95 g/m*3 14.3 C 0 km/h
2325 13-04-2009 10:09:33 14.3 C 9.71 g/m*3 14.3 C 0 km/h
Sensor: Nr:Datum:Temp:Abs-Feuchte:Windchill:Wind:
Aussen-T/F 2326 13-04-2009 10:21:34 14.4 C 9.77 g/m*3 14.4 C 0 km/h
2327 13-04-2009 10:33:33 14.4 C 9.64 g/m*3 14.4 C 0 km/h
2328 13-04-2009 10:45:34 14.2 C 9.65 g/m*3 14.2 C 0 km/h
2329 13-04-2009 10:57:34 14.3 C 9.71 g/m*3 14.3 C 0 km/h
2330 13-04-2009 11:09:33 14.6 C 9.76 g/m*3 14.6 C 0 km/h
2331 13-04-2009 11:21:33 14.4 C 9.64 g/m*3 14.4 C 0 km/h
2332 13-04-2009 11:33:33 14.5 C 9.7 g/m*3 14.5 C 0 km/h
2333 13-04-2009 11:45:33 14.5 C 9.58 g/m*3 14.5 C 0 km/h
2334 13-04-2009 11:57:33 15.1 C 9.68 g/m*3 15.1 C 0 km/h
2335 13-04-2009 12:09:33 15.3 C 9.53 g/m*3 15.3 C 0 km/h
2336 13-04-2009 12:21:32 15.6 C 9.58 g/m*3 15.6 C 0 km/h
2337 13-04-2009 12:33:33 15.8 C 9.29 g/m*3 15.8 C 0 km/h
2338 13-04-2009 12:45:32 15.9 C 9.21 g/m*3 15.9 C 0 km/h
2339 13-04-2009 12:57:32 16.7 C 8.95 g/m*3 16.7 C 0 km/h
2340 13-04-2009 13:09:32 16.2 C 8.83 g/m*3 16.2 C 0 km/h
2341 13-04-2009 13:21:32 16.4 C 8.79 g/m*3 16.4 C 0 km/h
2342 13-04-2009 13:33:32 17.5 C 8.8 g/m*3 17.5 C 0 km/h
2343 13-04-2009 13:45:31 18 C 8.6 g/m*3 18 C 0 km/h
2344 13-04-2009 13:57:31 17.6 C 8.85 g/m*3 17.6 C 0 km/h
2345 13-04-2009 14:09:32 18.3 C 8.6 g/m*3 18.3 C 0 km/h
2346 13-04-2009 14:21:31 18.1 C 8.5 g/m*3 18.1 C 0 km/h
2347 13-04-2009 14:33:31 18.3 C 8.6 g/m*3 18.3 C 0 km/h
2348 13-04-2009 14:45:31 19.2 C 8.41 g/m*3 19.2 C 0 km/h
2349 13-04-2009 14:57:31 19.9 C 8.59 g/m*3 19.9 C 0 km/h
2350 13-04-2009 15:09:31 19.8 C 8.54 g/m*3 19.8 C 0 km/h
Sensor: Nr:Datum:Temp:Abs-Feuchte:Windchill:Wind:
Aussen-T/F 2351 13-04-2009 15:21:31 20 C 8.64 g/m*3 20 C 0 km/h
2352 13-04-2009 15:33:31 20.3 C 8.79 g/m*3 20.3 C 0 km/h
2353 13-04-2009 15:45:30 19.9 C 8.59 g/m*3 19.9 C 0 km/h
2354 13-04-2009 15:57:30 19.7 C 8.66 g/m*3 19.7 C 0 km/h
2355 13-04-2009 16:09:31 20.3 C 8.62 g/m*3 20.3 C 0 km/h
2356 13-04-2009 16:21:30 20.5 C 8.54 g/m*3 20.5 C 0 km/h
2357 13-04-2009 16:33:30 20.3 C 8.44 g/m*3 20.3 C 0 km/h
2358 13-04-2009 16:45:29 20.8 C 8.69 g/m*3 20.8 C 0 km/h
2359 13-04-2009 16:57:29 21.2 C 8.34 g/m*3 21.2 C 0 km/h
2360 13-04-2009 17:09:30 21.1 C 8.48 g/m*3 21.1 C 0 km/h
2361 13-04-2009 17:21:30 21 C 8.24 g/m*3 21 C 0 km/h
2362 13-04-2009 17:33:29 20.5 C 8.36 g/m*3 20.5 C 0 km/h
2363 13-04-2009 17:45:30 20.8 C 8.51 g/m*3 20.8 C 0 km/h
2364 13-04-2009 17:57:30 21.1 C 8.29 g/m*3 21.1 C 0 km/h
2365 13-04-2009 18:09:29 20.3 C 8.44 g/m*3 20.3 C 0 km/h
2366 13-04-2009 18:21:29 20 C 8.3 g/m*3 20 C 0 km/h
2367 13-04-2009 18:33:29 19.2 C 8.41 g/m*3 19.2 C 0 km/h
2368 13-04-2009 18:45:29 19.4 C 8.68 g/m*3 19.4 C 0 km/h
2369 13-04-2009 18:57:30 19.3 C 8.46 g/m*3 19.3 C 0 km/h
2370 13-04-2009 19:09:28 19.1 C 8.2 g/m*3 19.1 C 0 km/h
2371 13-04-2009 19:21:29 18.9 C 8.42 g/m*3 18.9 C 0 km/h
2372 13-04-2009 19:33:29 18.6 C 8.44 g/m*3 18.6 C 0 km/h
2373 13-04-2009 19:45:28 18.3 C 8.44 g/m*3 18.3 C 0 km/h
2374 13-04-2009 19:57:28 18 C 8.6 g/m*3 18 C 0 km/h
2375 13-04-2009 20:09:28 17.9 C 8.86 g/m*3 17.9 C 0 km/h
Sensor: Nr:Datum:Temp:Abs-Feuchte:Windchill:Wind:
Aussen-T/F 2376 13-04-2009 20:21:28 17.5 C 8.95 g/m*3 17.5 C 0 km/h
2377 13-04-2009 20:33:28 17.1 C 8.73 g/m*3 17.1 C 0 km/h
2378 13-04-2009 20:45:27 16.7 C 8.95 g/m*3 16.7 C 0 km/h
2379 13-04-2009 20:57:27 16.7 C 8.95 g/m*3 16.7 C 0 km/h
2380 13-04-2009 21:09:27 16.4 C 8.93 g/m*3 16.4 C 0 km/h
2381 13-04-2009 21:21:28 16.1 C 8.91 g/m*3 16.1 C 0 km/h
2382 13-04-2009 21:33:27 15.7 C 8.96 g/m*3 15.7 C 0 km/h
2383 13-04-2009 21:45:27 15.4 C 8.93 g/m*3 15.4 C 0 km/h
2384 13-04-2009 21:57:27 14.9 C 8.92 g/m*3 14.9 C 0 km/h
2385 13-04-2009 22:09:27 14.6 C 9.01 g/m*3 14.6 C 0 km/h
2386 13-04-2009 22:21:27 14.5 C 8.95 g/m*3 14.5 C 0 km/h
2387 13-04-2009 22:33:27 14.4 C 9.02 g/m*3 14.4 C 0 km/h
2388 13-04-2009 22:46:40 14.2 C 8.91 g/m*3 14.2 C 0 km/h
2389 13-04-2009 22:58:40 14.1 C 8.98 g/m*3 14.1 C 0 km/h
2390 13-04-2009 23:10:40 14.2 C 9.04 g/m*3 14.2 C 0 km/h
2391 13-04-2009 23:22:41 14.1 C 8.98 g/m*3 14.1 C 0 km/h
2392 13-04-2009 23:34:41 14 C 9.05 g/m*3 14 C 0 km/h
2393 13-04-2009 23:46:41 13.9 C 9.11 g/m*3 13.9 C 0 km/h
2394 13-04-2009 23:58:41 13.7 C 9 g/m*3 13.7 C 0 km/h
2395 14-04-2009 00:10:41 13.7 C 9 g/m*3 13.7 C 0 km/h
2396 14-04-2009 00:22:41 13.5 C 8.89 g/m*3 13.5 C 0 km/h
2397 14-04-2009 00:34:41 13.3 C 8.66 g/m*3 13.3 C 0 km/h
2398 14-04-2009 00:46:41 13.2 C 8.73 g/m*3 13.2 C 0 km/h
2399 14-04-2009 00:58:41 13.1 C 8.67 g/m*3 13.1 C 0 km/h
2400 14-04-2009 01:10:41 12.8 C 8.74 g/m*3 12.8 C 0 km/h
Sensor: Nr:Datum:Temp:Abs-Feuchte:Windchill:Wind:
Aussen-T/F 2401 14-04-2009 01:22:41 12.5 C 8.69 g/m*3 12.5 C 0 km/h
2402 14-04-2009 01:34:41 12.3 C 8.58 g/m*3 12.3 C 0 km/h
2403 14-04-2009 01:46:41 12.1 C 8.58 g/m*3 12.1 C 0 km/h
2404 14-04-2009 01:58:41 11.9 C 8.58 g/m*3 11.9 C 0 km/h
2405 14-04-2009 02:10:41 11.8 C 8.63 g/m*3 11.8 C 0 km/h
2406 14-04-2009 02:22:41 11.6 C 8.52 g/m*3 11.6 C 0 km/h
2407 14-04-2009 02:34:41 11.4 C 8.42 g/m*3 11.4 C 0 km/h
2408 14-04-2009 02:46:41 11.3 C 8.47 g/m*3 11.3 C 0 km/h
2409 14-04-2009 02:58:41 11.1 C 8.36 g/m*3 11.1 C 0 km/h
2410 14-04-2009 03:10:42 11 C 8.31 g/m*3 11 C 0 km/h
2411 14-04-2009 03:22:42 10.8 C 8.3 g/m*3 10.8 C 0 km/h
2412 14-04-2009 03:34:42 10.7 C 8.25 g/m*3 10.7 C 0 km/h
2413 14-04-2009 03:46:42 10.7 C 8.25 g/m*3 10.7 C 0 km/h
2414 14-04-2009 03:58:42 10.5 C 8.15 g/m*3 10.5 C 0 km/h
2415 14-04-2009 04:10:42 10.4 C 8.1 g/m*3 10.4 C 0 km/h
2416 14-04-2009 04:22:42 10.3 C 8.04 g/m*3 10.3 C 0 km/h
2417 14-04-2009 04:34:42 10 C 7.99 g/m*3 10 C 0 km/h
2418 14-04-2009 04:46:42 9.8 C 7.98 g/m*3 9.8 C 0 km/h
2419 14-04-2009 04:58:42 9.7 C 7.93 g/m*3 9.7 C 0 km/h
2420 14-04-2009 05:10:42 9.7 C 8.02 g/m*3 9.7 C 0 km/h
2421 14-04-2009 05:22:42 9.7 C 8.02 g/m*3 9.7 C 0 km/h
2422 14-04-2009 05:34:42 9.7 C 8.02 g/m*3 9.7 C 0 km/h
2423 14-04-2009 05:46:42 9.8 C 8.16 g/m*3 9.8 C 0 km/h
2424 14-04-2009 05:58:42 9.8 C 8.07 g/m*3 9.8 C 0 km/h
2425 14-04-2009 06:10:42 9.8 C 8.07 g/m*3 9.8 C 0 km/h
Sensor: Nr:Datum:Temp:Abs-Feuchte:Windchill:Wind:
Aussen-T/F 2426 14-04-2009 06:22:42 9.7 C 8.02 g/m*3 9.7 C 0 km/h
2427 14-04-2009 06:34:42 9.8 C 8.07 g/m*3 9.8 C 0 km/h
2428 14-04-2009 06:46:42 9.6 C 7.97 g/m*3 9.6 C 0 km/h
2429 14-04-2009 06:58:42 9.6 C 7.97 g/m*3 9.6 C 0 km/h
2430 14-04-2009 07:10:43 9.7 C 8.02 g/m*3 9.7 C 0 km/h
2431 14-04-2009 07:22:43 9.9 C 8.12 g/m*3 9.9 C 0 km/h
2432 14-04-2009 07:34:28 9.7 C 7.93 g/m*3 9.7 C 0 km/h
2433 14-04-2009 07:46:28 9.3 C 7.73 g/m*3 9.3 C 0 km/h
2434 14-04-2009 07:58:28 9.3 C 7.82 g/m*3 9.3 C 0 km/h
2435 14-04-2009 08:10:28 9.4 C 7.96 g/m*3 9.4 C 0 km/h
2436 14-04-2009 08:22:28 9.7 C 8.11 g/m*3 9.7 C 0 km/h
2437 14-04-2009 08:34:27 10.1 C 8.13 g/m*3 10.1 C 0 km/h
2438 14-04-2009 08:46:27 9.9 C 8.03 g/m*3 9.9 C 0 km/h
2439 14-04-2009 08:58:27 10.1 C 7.94 g/m*3 10.1 C 0 km/h
2440 14-04-2009 09:10:27 10.1 C 7.94 g/m*3 10.1 C 0 km/h
2441 14-04-2009 09:22:27 10.1 C 7.94 g/m*3 10.1 C 0 km/h
2442 14-04-2009 09:34:27 10.2 C 7.99 g/m*3 10.2 C 0 km/h
2443 14-04-2009 09:46:27 10.6 C 8.2 g/m*3 10.6 C 0 km/h
2444 14-04-2009 09:58:27 11 C 8.21 g/m*3 11 C 0 km/h
2445 14-04-2009 10:10:27 11.4 C 8.31 g/m*3 11.4 C 0 km/h
2446 14-04-2009 10:22:26 12 C 8.53 g/m*3 12 C 0 km/h
2447 14-04-2009 10:34:26 12.4 C 8.41 g/m*3 12.4 C 0 km/h
2448 14-04-2009 10:46:27 12.8 C 8.62 g/m*3 12.8 C 0 km/h
2449 14-04-2009 10:58:27 13.3 C 8.9 g/m*3 13.3 C 0 km/h
2450 14-04-2009 11:10:26 13.7 C 8.88 g/m*3 13.7 C 0 km/h
Sensor: Nr:Datum:Temp:Abs-Feuchte:Windchill:Wind:
Aussen-T/F 2451 14-04-2009 11:22:26 13.8 C 8.82 g/m*3 13.8 C 0 km/h
2452 14-04-2009 11:34:25 14 C 8.68 g/m*3 14 C 0 km/h
2453 14-04-2009 11:46:26 14.3 C 8.72 g/m*3 14.3 C 0 km/h
2454 14-04-2009 11:58:27 14.8 C 8.87 g/m*3 14.8 C 0 km/h
2455 14-04-2009 12:10:25 15.8 C 8.88 g/m*3 15.8 C 0 km/h
2456 14-04-2009 12:22:25 16.6 C 8.48 g/m*3 16.6 C 0 km/h
2457 14-04-2009 12:34:26 16.1 C 8.64 g/m*3 16.1 C 0 km/h
2458 14-04-2009 12:46:25 16.3 C 8.74 g/m*3 16.3 C 0 km/h
2459 14-04-2009 12:58:25 16.7 C 8.81 g/m*3 16.7 C 0 km/h
2460 14-04-2009 13:10:25 17.7 C 8.6 g/m*3 17.7 C 0 km/h
2461 14-04-2009 13:22:25 18.8 C 8.21 g/m*3 18.8 C 0 km/h
2462 14-04-2009 13:34:25 19.6 C 7.93 g/m*3 19.6 C 0 km/h
2463 14-04-2009 13:46:24 20.4 C 7.96 g/m*3 20.4 C 0 km/h
2464 14-04-2009 13:58:24 21.2 C 7.78 g/m*3 21.2 C 0 km/h
2465 14-04-2009 14:10:25 22.2 C 7.66 g/m*3 22.2 C 0 km/h
2466 14-04-2009 14:22:24 23.1 C 7.44 g/m*3 23.1 C 0 km/h
2467 14-04-2009 14:34:24 23.7 C 7.91 g/m*3 23.7 C 0 km/h
2468 14-04-2009 14:46:24 24.5 C 7.61 g/m*3 24.5 C 0 km/h
2469 14-04-2009 14:58:24 24.9 C 7.55 g/m*3 24.9 C 0 km/h
2470 14-04-2009 15:10:24 25.6 C 7.62 g/m*3 25.6 C 0 km/h
2471 14-04-2009 15:22:24 25.6 C 7.14 g/m*3 25.6 C 0 km/h
2472 14-04-2009 15:34:23 25.8 C 6.98 g/m*3 25.8 C 0 km/h
2473 14-04-2009 15:46:24 26.4 C 6.47 g/m*3 26.4 C 0 km/h
2474 14-04-2009 15:58:24 27.2 C 6.77 g/m*3 27.2 C 0 km/h
2475 14-04-2009 16:10:23 26.7 C 5.82 g/m*3 26.7 C 0 km/h
Sensor: Nr:Datum:Temp:Abs-Feuchte:Windchill:Wind:
Aussen-T/F 2476 14-04-2009 16:22:23 27.3 C 5.49 g/m*3 27.3 C 0 km/h
2477 14-04-2009 16:34:23 27.3 C 5.49 g/m*3 27.3 C 0 km/h
2478 14-04-2009 16:46:23 27 C 5.4 g/m*3 27 C 0 km/h
2479 14-04-2009 16:58:24 28.4 C 5.84 g/m*3 28.4 C 0 km/h
2480 14-04-2009 17:10:22 28.4 C 5.56 g/m*3 28.4 C 0 km/h
2481 14-04-2009 17:22:22 27.9 C 5.41 g/m*3 27.9 C 0 km/h
2482 14-04-2009 17:34:23 27.4 C 5.26 g/m*3 27.4 C 0 km/h
2483 14-04-2009 17:46:22 26.6 C 5.03 g/m*3 26.6 C 0 km/h
2484 14-04-2009 17:58:22 26.5 C 5.26 g/m*3 26.5 C 0 km/h
2485 14-04-2009 18:10:22 27.3 C 5.23 g/m*3 27.3 C 0 km/h
2486 14-04-2009 18:22:22 26 C 4.87 g/m*3 26 C 0 km/h
2487 14-04-2009 18:34:22 25.1 C 5.32 g/m*3 25.1 C 0 km/h
2488 14-04-2009 18:46:21 24.8 C 5.24 g/m*3 24.8 C 0 km/h
2489 14-04-2009 18:58:21 24.2 C 5.5 g/m*3 24.2 C 0 km/h
2490 14-04-2009 19:10:22 24.7 C 5.88 g/m*3 24.7 C 0 km/h
2491 14-04-2009 19:22:21 22.8 C 5.49 g/m*3 22.8 C 0 km/h
2492 14-04-2009 19:34:21 22.5 C 5.79 g/m*3 22.5 C 0 km/h
2493 14-04-2009 19:46:21 22.1 C 5.86 g/m*3 22.1 C 0 km/h
2494 14-04-2009 19:58:21 21.4 C 6.19 g/m*3 21.4 C 0 km/h
2495 14-04-2009 20:10:21 20.5 C 6.41 g/m*3 20.5 C 0 km/h
2496 14-04-2009 20:22:21 19.3 C 6.3 g/m*3 19.3 C 0 km/h
2497 14-04-2009 20:34:20 18.5 C 6.17 g/m*3 18.5 C 0 km/h
2498 14-04-2009 20:46:21 17.9 C 6.11 g/m*3 17.9 C 0 km/h
2499 14-04-2009 20:58:21 17.7 C 6.19 g/m*3 17.7 C 0 km/h
2500 14-04-2009 21:10:21 17.4 C 6.52 g/m*3 17.4 C 0 km/h
Sensor: Nr:Datum:Temp:Abs-Feuchte:Windchill:Wind:
Aussen-T/F 2501 14-04-2009 21:22:20 17.3 C 6.63 g/m*3 17.3 C 0 km/h
2502 14-04-2009 21:34:20 17.2 C 6.74 g/m*3 17.2 C 0 km/h
2503 14-04-2009 21:46:20 16.9 C 6.47 g/m*3 16.9 C 0 km/h
2504 14-04-2009 21:58:20 16.6 C 6.36 g/m*3 16.6 C 0 km/h
2505 14-04-2009 22:10:20 16.3 C 6.24 g/m*3 16.3 C 0 km/h
2506 14-04-2009 22:22:19 15.9 C 6.37 g/m*3 15.9 C 0 km/h
2507 14-04-2009 22:34:19 15.7 C 6.42 g/m*3 15.7 C 0 km/h
2508 14-04-2009 22:46:20 15.4 C 6.31 g/m*3 15.4 C 0 km/h
2509 14-04-2009 22:58:20 15.1 C 6.45 g/m*3 15.1 C 0 km/h
2510 14-04-2009 23:10:19 14.6 C 6.76 g/m*3 14.6 C 0 km/h
2511 14-04-2009 23:22:19 14.3 C 6.63 g/m*3 14.3 C 0 km/h
2512 14-04-2009 23:34:19 14.2 C 6.72 g/m*3 14.2 C 0 km/h
2513 14-04-2009 23:46:19 13.9 C 6.71 g/m*3 13.9 C 0 km/h
2514 14-04-2009 23:58:19 13.8 C 6.67 g/m*3 13.8 C 0 km/h
2515 15-04-2009 00:10:18 13.6 C 6.71 g/m*3 13.6 C 0 km/h
2516 15-04-2009 00:22:18 13.2 C 6.66 g/m*3 13.2 C 0 km/h
2517 15-04-2009 00:34:19 13.1 C 6.73 g/m*3 13.1 C 0 km/h
2518 15-04-2009 00:46:18 12.9 C 6.76 g/m*3 12.9 C 0 km/h
2519 15-04-2009 00:58:18 12.5 C 6.71 g/m*3 12.5 C 0 km/h
2520 15-04-2009 01:11:19 12.3 C 6.73 g/m*3 12.3 C 0 km/h
2521 15-04-2009 01:23:19 12.1 C 6.76 g/m*3 12.1 C 0 km/h
2522 15-04-2009 01:35:19 11.8 C 6.74 g/m*3 11.8 C 0 km/h
2523 15-04-2009 01:47:19 11.7 C 6.69 g/m*3 11.7 C 0 km/h
2524 15-04-2009 01:59:19 11.5 C 6.71 g/m*3 11.5 C 0 km/h
2525 15-04-2009 02:11:19 11.2 C 6.69 g/m*3 11.2 C 0 km/h
Sensor: Nr:Datum:Temp:Abs-Feuchte:Windchill:Wind:
Aussen-T/F 2526 15-04-2009 02:23:19 11.2 C 6.79 g/m*3 11.2 C 0 km/h
2527 15-04-2009 02:35:19 10.9 C 6.76 g/m*3 10.9 C 0 km/h
2528 15-04-2009 02:47:19 10.7 C 6.68 g/m*3 10.7 C 0 km/h
2529 15-04-2009 02:59:19 10.6 C 6.73 g/m*3 10.6 C 0 km/h
2530 15-04-2009 03:11:19 10.4 C 6.75 g/m*3 10.4 C 0 km/h
2531 15-04-2009 03:23:20 10.2 C 6.66 g/m*3 10.2 C 0 km/h
2532 15-04-2009 03:35:20 10 C 6.67 g/m*3 10 C 0 km/h
2533 15-04-2009 03:47:20 9.8 C 6.68 g/m*3 9.8 C 0 km/h
2534 15-04-2009 03:59:20 9.7 C 6.73 g/m*3 9.7 C 0 km/h
2535 15-04-2009 04:11:20 9.6 C 6.78 g/m*3 9.6 C 0 km/h
2536 15-04-2009 04:23:20 9.4 C 6.78 g/m*3 9.4 C 0 km/h
2537 15-04-2009 04:35:20 9.3 C 6.83 g/m*3 9.3 C 0 km/h
2538 15-04-2009 04:47:20 9.3 C 6.83 g/m*3 9.3 C 0 km/h
2539 15-04-2009 04:59:20 9 C 6.7 g/m*3 9 C 0 km/h
2540 15-04-2009 05:11:20 8.9 C 6.75 g/m*3 8.9 C 0 km/h
2541 15-04-2009 05:23:20 8.9 C 6.75 g/m*3 8.9 C 0 km/h
2542 15-04-2009 05:35:20 8.7 C 6.66 g/m*3 8.7 C 0 km/h
2543 15-04-2009 05:47:20 8.6 C 6.62 g/m*3 8.6 C 0 km/h
2544 15-04-2009 05:59:20 8.5 C 6.57 g/m*3 8.5 C 0 km/h
2545 15-04-2009 06:11:20 8.3 C 6.66 g/m*3 8.3 C 0 km/h
2546 15-04-2009 06:23:20 8.2 C 6.62 g/m*3 8.2 C 0 km/h
2547 15-04-2009 06:35:20 8.1 C 6.57 g/m*3 8.1 C 0 km/h
2548 15-04-2009 06:47:20 8.1 C 6.57 g/m*3 8.1 C 0 km/h
2549 15-04-2009 06:59:20 8 C 6.61 g/m*3 8 C 0 km/h
2550 15-04-2009 07:11:21 8 C 6.61 g/m*3 8 C 0 km/h
Sensor: Nr:Datum:Temp:Abs-Feuchte:Windchill:Wind:
Aussen-T/F 2551 15-04-2009 07:23:21 8 C 6.61 g/m*3 8 C 0 km/h
2552 15-04-2009 07:35:21 8.1 C 6.66 g/m*3 8.1 C 0 km/h
2553 15-04-2009 07:47:21 8.3 C 6.74 g/m*3 8.3 C 0 km/h
2554 15-04-2009 07:59:21 8.4 C 6.79 g/m*3 8.4 C 0 km/h
2555 15-04-2009 08:11:21 8.6 C 6.87 g/m*3 8.6 C 0 km/h
2556 15-04-2009 08:23:21 8.7 C 6.92 g/m*3 8.7 C 0 km/h
2557 15-04-2009 08:35:21 9.1 C 7.01 g/m*3 9.1 C 0 km/h
2558 15-04-2009 08:47:21 9.4 C 7.05 g/m*3 9.4 C 0 km/h
2559 15-04-2009 08:59:21 9.8 C 7.24 g/m*3 9.8 C 0 km/h
2560 15-04-2009 09:11:19 10.2 C 7.14 g/m*3 10.2 C 0 km/h
2561 15-04-2009 09:23:18 10.6 C 7.32 g/m*3 10.6 C 0 km/h
2562 15-04-2009 09:35:19 11.1 C 7.35 g/m*3 11.1 C 0 km/h
2563 15-04-2009 09:47:18 11.8 C 7.58 g/m*3 11.8 C 0 km/h
2564 15-04-2009 09:59:18 12.3 C 7.38 g/m*3 12.3 C 0 km/h
2565 15-04-2009 10:11:18 12.6 C 7.41 g/m*3 12.6 C 0 km/h
2566 15-04-2009 10:23:19 13.3 C 7.51 g/m*3 13.3 C 0 km/h
2567 15-04-2009 10:35:18 14 C 7.48 g/m*3 14 C 0 km/h
2568 15-04-2009 10:47:18 14.7 C 7.68 g/m*3 14.7 C 0 km/h
2569 15-04-2009 10:59:18 15.4 C 7.75 g/m*3 15.4 C 0 km/h
2570 15-04-2009 11:11:18 16.2 C 7.58 g/m*3 16.2 C 0 km/h
2571 15-04-2009 11:23:18 17 C 7.67 g/m*3 17 C 0 km/h
2572 15-04-2009 11:35:17 17.6 C 7.5 g/m*3 17.6 C 0 km/h
2573 15-04-2009 11:47:17 18.5 C 7.59 g/m*3 18.5 C 0 km/h
2574 15-04-2009 11:59:17 19.4 C 7.67 g/m*3 19.4 C 0 km/h
2575 15-04-2009 12:11:17 20.4 C 7.25 g/m*3 20.4 C 0 km/h
Sensor: Nr:Datum:Temp:Abs-Feuchte:Windchill:Wind:
Aussen-T/F 2576 15-04-2009 12:23:17 21 C 7.14 g/m*3 21 C 0 km/h
2577 15-04-2009 12:35:17 21.6 C 7.02 g/m*3 21.6 C 0 km/h
2578 15-04-2009 12:47:17 22.5 C 6.79 g/m*3 22.5 C 0 km/h
2579 15-04-2009 12:59:17 23 C 5.14 g/m*3 23 C 0 km/h
2580 15-04-2009 13:11:17 23.8 C 5.38 g/m*3 23.8 C 0 km/h
2581 15-04-2009 13:23:16 24.4 C 4.45 g/m*3 24.4 C 0 km/h
2582 15-04-2009 13:35:16 24.9 C 4.58 g/m*3 24.9 C 0 km/h
2583 15-04-2009 13:47:16 25.1 C 4.63 g/m*3 25.1 C 0 km/h
2584 15-04-2009 13:59:16 25.7 C 4.79 g/m*3 25.7 C 0 km/h
2585 15-04-2009 14:11:16 26.3 C 4.95 g/m*3 26.3 C 0 km/h
2586 15-04-2009 14:23:15 26.4 C 4.98 g/m*3 26.4 C 0 km/h
2587 15-04-2009 14:35:16 27 C 5.15 g/m*3 27 C 0 km/h
2588 15-04-2009 14:47:16 27.5 C 5.29 g/m*3 27.5 C 0 km/h
2589 15-04-2009 14:59:16 27.3 C 5.23 g/m*3 27.3 C 0 km/h
2590 15-04-2009 15:11:15 27.7 C 5.35 g/m*3 27.7 C 0 km/h
2591 15-04-2009 15:23:16 27.5 C 5.29 g/m*3 27.5 C 0 km/h
2592 15-04-2009 15:35:15 27.8 C 5.38 g/m*3 27.8 C 0 km/h
2593 15-04-2009 15:47:15 28.6 C 5.62 g/m*3 28.6 C 0 km/h
2594 15-04-2009 15:59:15 29.2 C 5.81 g/m*3 29.2 C 0 km/h
2595 15-04-2009 16:11:15 28.5 C 5.59 g/m*3 28.5 C 0 km/h
2596 15-04-2009 16:23:15 29.2 C 5.81 g/m*3 29.2 C 0 km/h
2597 15-04-2009 16:35:15 28.6 C 5.62 g/m*3 28.6 C 0 km/h
2598 15-04-2009 16:47:15 27.8 C 5.38 g/m*3 27.8 C 0 km/h
2599 15-04-2009 16:59:15 28.4 C 5.56 g/m*3 28.4 C 0 km/h
2600 15-04-2009 17:11:14 29.1 C 5.78 g/m*3 29.1 C 0 km/h
Sensor: Nr:Datum:Temp:Abs-Feuchte:Windchill:Wind:
Aussen-T/F 2601 15-04-2009 17:23:14 28.1 C 5.47 g/m*3 28.1 C 0 km/h
2602 15-04-2009 17:35:14 28.2 C 5.5 g/m*3 28.2 C 0 km/h
2603 15-04-2009 17:47:14 28.3 C 5.53 g/m*3 28.3 C 0 km/h
2604 15-04-2009 17:59:14 27 C 5.15 g/m*3 27 C 0 km/h
2605 15-04-2009 18:11:14 26.4 C 4.98 g/m*3 26.4 C 0 km/h
2606 15-04-2009 18:23:13 26.1 C 4.9 g/m*3 26.1 C 0 km/h
2607 15-04-2009 18:35:14 25.6 C 4.76 g/m*3 25.6 C 0 km/h
2608 15-04-2009 18:47:13 25.1 C 4.63 g/m*3 25.1 C 0 km/h
2609 15-04-2009 18:59:13 24.2 C 4.62 g/m*3 24.2 C 0 km/h
2610 15-04-2009 19:11:13 23.7 C 4.92 g/m*3 23.7 C 0 km/h
2611 15-04-2009 19:23:13 22.9 C 5.11 g/m*3 22.9 C 0 km/h
2612 15-04-2009 19:35:13 22.1 C 4.88 g/m*3 22.1 C 0 km/h
2613 15-04-2009 19:47:13 21.3 C 4.66 g/m*3 21.3 C 0 km/h
2614 15-04-2009 19:59:13 20.8 C 4.89 g/m*3 20.8 C 0 km/h
2615 15-04-2009 20:11:13 20.3 C 4.75 g/m*3 20.3 C 0 km/h
2616 15-04-2009 20:23:13 19.7 C 5.26 g/m*3 19.7 C 0 km/h
2617 15-04-2009 20:35:12 19.1 C 5.08 g/m*3 19.1 C 0 km/h
2618 15-04-2009 20:47:12 18.7 C 5.12 g/m*3 18.7 C 0 km/h
2619 15-04-2009 20:59:12 18.5 C 4.9 g/m*3 18.5 C 0 km/h
2620 15-04-2009 21:11:13 18.2 C 5.28 g/m*3 18.2 C 0 km/h
2621 15-04-2009 21:23:12 18 C 5.22 g/m*3 18 C 0 km/h
2622 15-04-2009 21:35:12 17.7 C 4.98 g/m*3 17.7 C 0 km/h
2623 15-04-2009 21:47:11 17.3 C 5.3 g/m*3 17.3 C 0 km/h
2624 15-04-2009 21:59:11 17 C 5.35 g/m*3 17 C 0 km/h
2625 15-04-2009 22:11:12 16.6 C 5.37 g/m*3 16.6 C 0 km/h
Sensor: Nr:Datum:Temp:Abs-Feuchte:Windchill:Wind:
Aussen-T/F 2626 15-04-2009 22:23:11 16.3 C 5.41 g/m*3 16.3 C 0 km/h
2627 15-04-2009 22:35:11 16 C 5.31 g/m*3 16 C 0 km/h
2628 15-04-2009 22:48:13 15.8 C 5.38 g/m*3 15.8 C 0 km/h
2629 15-04-2009 23:00:13 15.7 C 5.49 g/m*3 15.7 C 0 km/h
2630 15-04-2009 23:12:13 15.6 C 5.32 g/m*3 15.6 C 0 km/h
2631 15-04-2009 23:24:13 15.2 C 5.32 g/m*3 15.2 C 0 km/h
2632 15-04-2009 23:36:13 15.1 C 5.42 g/m*3 15.1 C 0 km/h
2633 15-04-2009 23:48:13 14.8 C 5.57 g/m*3 14.8 C 0 km/h
2634 16-04-2009 00:00:13 14.3 C 5.53 g/m*3 14.3 C 0 km/h
2635 16-04-2009 00:12:14 14.1 C 5.7 g/m*3 14.1 C 0 km/h
2636 16-04-2009 00:24:14 13.8 C 6.08 g/m*3 13.8 C 0 km/h
2637 16-04-2009 00:36:14 13.6 C 5.88 g/m*3 13.6 C 0 km/h
2638 16-04-2009 00:48:14 13.3 C 5.78 g/m*3 13.3 C 0 km/h
2639 16-04-2009 01:00:14 13.1 C 5.71 g/m*3 13.1 C 0 km/h
2640 16-04-2009 01:12:14 12.9 C 5.86 g/m*3 12.9 C 0 km/h
2641 16-04-2009 01:24:14 12.7 C 5.9 g/m*3 12.7 C 0 km/h
2642 16-04-2009 01:36:14 12.6 C 5.97 g/m*3 12.6 C 0 km/h
2643 16-04-2009 01:48:14 12.6 C 5.97 g/m*3 12.6 C 0 km/h
2644 16-04-2009 02:00:14 12.6 C 5.97 g/m*3 12.6 C 0 km/h
2645 16-04-2009 02:12:14 12.3 C 5.97 g/m*3 12.3 C 0 km/h
2646 16-04-2009 02:24:14 12.2 C 6.04 g/m*3 12.2 C 0 km/h
2647 16-04-2009 02:36:14 12 C 6.07 g/m*3 12 C 0 km/h
2648 16-04-2009 02:48:14 11.7 C 6.07 g/m*3 11.7 C 0 km/h
2649 16-04-2009 03:00:14 11.5 C 6.09 g/m*3 11.5 C 0 km/h
2650 16-04-2009 03:12:14 11.4 C 6.16 g/m*3 11.4 C 0 km/h
Sensor: Nr:Datum:Temp:Abs-Feuchte:Windchill:Wind:
Aussen-T/F 2651 16-04-2009 03:24:14 11.2 C 6.18 g/m*3 11.2 C 0 km/h
2652 16-04-2009 03:36:14 11.1 C 6.14 g/m*3 11.1 C 0 km/h
2653 16-04-2009 03:48:14 11.2 C 6.39 g/m*3 11.2 C 0 km/h
2654 16-04-2009 04:00:14 11.2 C 6.39 g/m*3 11.2 C 0 km/h
2655 16-04-2009 04:12:14 12.6 C 5.97 g/m*3 12.6 C 0 km/h
2656 16-04-2009 04:24:15 13 C 5.9 g/m*3 13 C 0 km/h
2657 16-04-2009 04:36:15 12.9 C 5.97 g/m*3 12.9 C 0 km/h
2658 16-04-2009 04:48:15 12.4 C 6.01 g/m*3 12.4 C 0 km/h
2659 16-04-2009 05:00:15 12.1 C 5.9 g/m*3 12.1 C 0 km/h
2660 16-04-2009 05:12:15 11.7 C 5.96 g/m*3 11.7 C 0 km/h
2661 16-04-2009 05:24:15 11.3 C 5.92 g/m*3 11.3 C 0 km/h
2662 16-04-2009 05:36:15 11.2 C 6.08 g/m*3 11.2 C 0 km/h
2663 16-04-2009 05:48:15 11.1 C 6.04 g/m*3 11.1 C 0 km/h
2664 16-04-2009 06:00:15 11.1 C 6.14 g/m*3 11.1 C 0 km/h
2665 16-04-2009 06:12:15 11.1 C 6.25 g/m*3 11.1 C 0 km/h
2666 16-04-2009 06:24:15 11.1 C 6.35 g/m*3 11.1 C 0 km/h
2667 16-04-2009 06:36:15 11.1 C 6.35 g/m*3 11.1 C 0 km/h
2668 16-04-2009 06:48:15 11.1 C 6.25 g/m*3 11.1 C 0 km/h
2669 16-04-2009 07:00:15 10.9 C 6.27 g/m*3 10.9 C 0 km/h
2670 16-04-2009 07:12:15 10.8 C 6.42 g/m*3 10.8 C 0 km/h
2671 16-04-2009 07:24:15 10.7 C 6.38 g/m*3 10.7 C 0 km/h
2672 16-04-2009 07:36:13 10.8 C 6.33 g/m*3 10.8 C 0 km/h
2673 16-04-2009 07:48:12 10.8 C 6.23 g/m*3 10.8 C 0 km/h
2674 16-04-2009 08:00:12 11 C 6.21 g/m*3 11 C 0 km/h
2675 16-04-2009 08:12:12 11 C 6.11 g/m*3 11 C 0 km/h
Sensor: Nr:Datum:Temp:Abs-Feuchte:Windchill:Wind:
Aussen-T/F 2676 16-04-2009 08:24:12 11.4 C 6.26 g/m*3 11.4 C 0 km/h
2677 16-04-2009 08:36:12 12 C 6.18 g/m*3 12 C 0 km/h
2678 16-04-2009 08:48:11 12.3 C 6.19 g/m*3 12.3 C 0 km/h
2679 16-04-2009 09:00:12 12.6 C 6.31 g/m*3 12.6 C 0 km/h
2680 16-04-2009 09:12:12 13 C 6.24 g/m*3 13 C 0 km/h
2681 16-04-2009 09:24:12 13.4 C 6.39 g/m*3 13.4 C 0 km/h
2682 16-04-2009 09:36:11 13.9 C 6.47 g/m*3 13.9 C 0 km/h
2683 16-04-2009 09:48:12 14.5 C 6.59 g/m*3 14.5 C 0 km/h
2684 16-04-2009 10:00:11 15 C 6.54 g/m*3 15 C 0 km/h
2685 16-04-2009 10:12:11 15.6 C 6.52 g/m*3 15.6 C 0 km/h
2686 16-04-2009 10:24:11 16 C 6.4 g/m*3 16 C 0 km/h
2687 16-04-2009 10:36:10 16.4 C 6.42 g/m*3 16.4 C 0 km/h
2688 16-04-2009 10:48:11 16.7 C 6.54 g/m*3 16.7 C 0 km/h
2689 16-04-2009 11:00:10 17.4 C 6.67 g/m*3 17.4 C 0 km/h
2690 16-04-2009 11:12:10 17.9 C 6.72 g/m*3 17.9 C 0 km/h
2691 16-04-2009 11:24:10 18.3 C 6.41 g/m*3 18.3 C 0 km/h
2692 16-04-2009 11:36:11 19.2 C 6.76 g/m*3 19.2 C 0 km/h
2693 16-04-2009 11:48:10 19.2 C 6.43 g/m*3 19.2 C 0 km/h
2694 16-04-2009 12:00:10 19.2 C 6.6 g/m*3 19.2 C 0 km/h
2695 16-04-2009 12:12:10 19.5 C 6.38 g/m*3 19.5 C 0 km/h
2696 16-04-2009 12:24:10 19.3 C 6.3 g/m*3 19.3 C 0 km/h
2697 16-04-2009 12:36:10 20 C 6.05 g/m*3 20 C 0 km/h
2698 16-04-2009 12:48:09 19.7 C 6.11 g/m*3 19.7 C 0 km/h
2699 16-04-2009 13:00:09 20.8 C 6.34 g/m*3 20.8 C 0 km/h
2700 16-04-2009 13:12:09 21.3 C 6.15 g/m*3 21.3 C 0 km/h
Sensor: Nr:Datum:Temp:Abs-Feuchte:Windchill:Wind:
Aussen-T/F 2701 16-04-2009 13:24:09 21.8 C 5.95 g/m*3 21.8 C 0 km/h
2702 16-04-2009 13:36:10 21.6 C 5.5 g/m*3 21.6 C 0 km/h
2703 16-04-2009 13:48:09 20.2 C 5.6 g/m*3 20.2 C 0 km/h
2704 16-04-2009 14:00:09 21.1 C 5.9 g/m*3 21.1 C 0 km/h
2705 16-04-2009 14:12:09 20.6 C 5.55 g/m*3 20.6 C 0 km/h
2706 16-04-2009 14:24:08 20.6 C 5.55 g/m*3 20.6 C 0 km/h
2707 16-04-2009 14:36:08 21.3 C 5.59 g/m*3 21.3 C 0 km/h
2708 16-04-2009 14:48:09 21.9 C 5.21 g/m*3 21.9 C 0 km/h
2709 16-04-2009 15:00:08 21.6 C 5.31 g/m*3 21.6 C 0 km/h
2710 16-04-2009 15:12:08 21.9 C 5.21 g/m*3 21.9 C 0 km/h
2711 16-04-2009 15:24:08 21.2 C 5.37 g/m*3 21.2 C 0 km/h
2712 16-04-2009 15:36:08 20.9 C 5.65 g/m*3 20.9 C 0 km/h
2713 16-04-2009 15:48:08 20 C 6.57 g/m*3 20 C 0 km/h
2714 16-04-2009 16:00:07 19.5 C 7.05 g/m*3 19.5 C 0 km/h
2715 16-04-2009 16:12:07 19.2 C 6.93 g/m*3 19.2 C 0 km/h
2716 16-04-2009 16:24:07 19.1 C 6.88 g/m*3 19.1 C 0 km/h
2717 16-04-2009 16:36:08 19 C 6.84 g/m*3 19 C 0 km/h
2718 16-04-2009 16:48:07 18.9 C 6.97 g/m*3 18.9 C 0 km/h
2719 16-04-2009 17:00:07 18.5 C 7.12 g/m*3 18.5 C 0 km/h
2720 16-04-2009 17:12:07 18.1 C 6.95 g/m*3 18.1 C 0 km/h
2721 16-04-2009 17:24:07 18.1 C 7.11 g/m*3 18.1 C 0 km/h
2722 16-04-2009 17:36:07 17.9 C 7.02 g/m*3 17.9 C 0 km/h
2723 16-04-2009 17:48:06 17.8 C 7.13 g/m*3 17.8 C 0 km/h
2724 16-04-2009 18:00:07 17.8 C 7.13 g/m*3 17.8 C 0 km/h
2725 16-04-2009 18:12:08 17.2 C 7.32 g/m*3 17.2 C 0 km/h
Sensor: Nr:Datum:Temp:Abs-Feuchte:Windchill:Wind:
Aussen-T/F 2726 16-04-2009 18:24:06 16.3 C 7.35 g/m*3 16.3 C 0 km/h
2727 16-04-2009 18:36:06 15.7 C 7.89 g/m*3 15.7 C 0 km/h
2728 16-04-2009 18:48:06 15.3 C 8.1 g/m*3 15.3 C 0 km/h
2729 16-04-2009 19:00:06 15.1 C 7.87 g/m*3 15.1 C 0 km/h
2730 16-04-2009 19:12:06 15.2 C 7.79 g/m*3 15.2 C 0 km/h
2731 16-04-2009 19:24:06 14.5 C 7.71 g/m*3 14.5 C 0 km/h
2732 16-04-2009 19:36:05 14.3 C 7.74 g/m*3 14.3 C 0 km/h
2733 16-04-2009 19:48:06 14.1 C 7.89 g/m*3 14.1 C 0 km/h
2734 16-04-2009 20:00:05 13.8 C 8.1 g/m*3 13.8 C 0 km/h
2735 16-04-2009 20:12:05 13.4 C 8.02 g/m*3 13.4 C 0 km/h
2736 16-04-2009 20:24:05 13.1 C 7.99 g/m*3 13.1 C 0 km/h
2737 16-04-2009 20:36:05 13.3 C 8.09 g/m*3 13.3 C 0 km/h
2738 16-04-2009 20:48:05 13.2 C 8.04 g/m*3 13.2 C 0 km/h
2739 16-04-2009 21:00:05 13.1 C 7.99 g/m*3 13.1 C 0 km/h
2740 16-04-2009 21:12:05 13 C 8.05 g/m*3 13 C 0 km/h
2741 16-04-2009 21:24:04 12.9 C 8.11 g/m*3 12.9 C 0 km/h
2742 16-04-2009 21:36:05 13 C 8.05 g/m*3 13 C 0 km/h
2743 16-04-2009 21:48:04 13.2 C 7.92 g/m*3 13.2 C 0 km/h
2744 16-04-2009 22:00:04 13.2 C 7.92 g/m*3 13.2 C 0 km/h
2745 16-04-2009 22:12:04 13.1 C 7.87 g/m*3 13.1 C 0 km/h
2746 16-04-2009 22:24:03 13.1 C 7.87 g/m*3 13.1 C 0 km/h
2747 16-04-2009 22:37:05 13.1 C 7.87 g/m*3 13.1 C 0 km/h
2748 16-04-2009 22:49:05 13.1 C 7.87 g/m*3 13.1 C 0 km/h
2749 16-04-2009 23:01:06 12.9 C 7.78 g/m*3 12.9 C 0 km/h
2750 16-04-2009 23:13:06 12.8 C 7.84 g/m*3 12.8 C 0 km/h
Sensor: Nr:Datum:Temp:Abs-Feuchte:Windchill:Wind:
Aussen-T/F 2751 16-04-2009 23:25:06 12.8 C 7.84 g/m*3 12.8 C 0 km/h
2752 16-04-2009 23:37:06 12.7 C 7.79 g/m*3 12.7 C 0 km/h
2753 16-04-2009 23:49:06 12.6 C 7.74 g/m*3 12.6 C 0 km/h
2754 17-04-2009 00:01:06 12.5 C 7.7 g/m*3 12.5 C 0 km/h
2755 17-04-2009 00:13:06 12.4 C 7.87 g/m*3 12.4 C 0 km/h
2756 17-04-2009 00:25:06 12.1 C 7.94 g/m*3 12.1 C 0 km/h
2757 17-04-2009 00:37:06 11.7 C 8.26 g/m*3 11.7 C 0 km/h
2758 17-04-2009 00:49:06 11.2 C 8.41 g/m*3 11.2 C 0 km/h
2759 17-04-2009 01:01:06 11 C 8.61 g/m*3 11 C 0 km/h
2760 17-04-2009 01:13:06 11 C 8.71 g/m*3 11 C 0 km/h
2761 17-04-2009 01:25:06 10.8 C 8.8 g/m*3 10.8 C 0 km/h
2762 17-04-2009 01:37:06 10.7 C 8.84 g/m*3 10.7 C 0 km/h
2763 17-04-2009 01:49:06 10.6 C 8.78 g/m*3 10.6 C 0 km/h
2764 17-04-2009 02:01:06 10.5 C 8.83 g/m*3 10.5 C 0 km/h
2765 17-04-2009 02:13:06 10.5 C 8.83 g/m*3 10.5 C 0 km/h
2766 17-04-2009 02:25:06 10.4 C 8.87 g/m*3 10.4 C 0 km/h
2767 17-04-2009 02:37:06 10.4 C 8.87 g/m*3 10.4 C 0 km/h
2768 17-04-2009 02:49:06 10.3 C 8.81 g/m*3 10.3 C 0 km/h
2769 17-04-2009 03:01:06 10.3 C 8.91 g/m*3 10.3 C 0 km/h
2770 17-04-2009 03:13:07 10.3 C 8.91 g/m*3 10.3 C 0 km/h
2771 17-04-2009 03:25:07 10.2 C 8.85 g/m*3 10.2 C 0 km/h
2772 17-04-2009 03:37:07 10.2 C 8.85 g/m*3 10.2 C 0 km/h
2773 17-04-2009 03:49:07 10.2 C 8.85 g/m*3 10.2 C 0 km/h
2774 17-04-2009 04:01:07 10.2 C 8.95 g/m*3 10.2 C 0 km/h
2775 17-04-2009 04:13:07 10.2 C 8.95 g/m*3 10.2 C 0 km/h
Sensor: Nr:Datum:Temp:Abs-Feuchte:Windchill:Wind:
Aussen-T/F 2776 17-04-2009 04:25:07 10.2 C 8.95 g/m*3 10.2 C 0 km/h
2777 17-04-2009 04:37:07 10.1 C 8.89 g/m*3 10.1 C 0 km/h
2778 17-04-2009 04:49:07 10.1 C 8.89 g/m*3 10.1 C 0 km/h
2779 17-04-2009 05:01:07 10 C 8.83 g/m*3 10 C 0 km/h
2780 17-04-2009 05:13:07 10 C 8.83 g/m*3 10 C 0 km/h
2781 17-04-2009 05:25:07 10 C 8.83 g/m*3 10 C 0 km/h
2782 17-04-2009 05:37:07 10 C 8.93 g/m*3 10 C 0 km/h
2783 17-04-2009 05:49:07 9.9 C 8.87 g/m*3 9.9 C 0 km/h
2784 17-04-2009 06:01:07 9.9 C 8.87 g/m*3 9.9 C 0 km/h
2785 17-04-2009 06:13:07 9.9 C 8.87 g/m*3 9.9 C 0 km/h
2786 17-04-2009 06:25:07 9.9 C 8.87 g/m*3 9.9 C 0 km/h
2787 17-04-2009 06:37:07 9.8 C 8.81 g/m*3 9.8 C 0 km/h
2788 17-04-2009 06:49:07 9.9 C 8.87 g/m*3 9.9 C 0 km/h
2789 17-04-2009 07:01:04 9.8 C 8.81 g/m*3 9.8 C 0 km/h
2790 17-04-2009 07:13:04 9.8 C 8.81 g/m*3 9.8 C 0 km/h
2791 17-04-2009 07:25:04 9.8 C 8.81 g/m*3 9.8 C 0 km/h
2792 17-04-2009 07:37:05 9.8 C 8.81 g/m*3 9.8 C 0 km/h
2793 17-04-2009 07:49:04 9.8 C 8.81 g/m*3 9.8 C 0 km/h
2794 17-04-2009 08:01:04 9.9 C 8.87 g/m*3 9.9 C 0 km/h
2795 17-04-2009 08:13:04 9.9 C 8.87 g/m*3 9.9 C 0 km/h
2796 17-04-2009 08:25:04 9.9 C 8.87 g/m*3 9.9 C 0 km/h
2797 17-04-2009 08:37:04 10 C 8.93 g/m*3 10 C 0 km/h
2798 17-04-2009 08:49:03 10 C 8.93 g/m*3 10 C 0 km/h
2799 17-04-2009 09:01:04 10 C 8.93 g/m*3 10 C 0 km/h
2800 17-04-2009 09:13:04 10 C 8.93 g/m*3 10 C 0 km/h
Sensor: Nr:Datum:Temp:Abs-Feuchte:Windchill:Wind:
Aussen-T/F 2801 17-04-2009 09:25:03 10.1 C 8.89 g/m*3 10.1 C 0 km/h
2802 17-04-2009 09:37:03 10.2 C 8.95 g/m*3 10.2 C 0 km/h
2803 17-04-2009 09:49:03 10.2 C 8.95 g/m*3 10.2 C 0 km/h
2804 17-04-2009 10:01:03 10.2 C 8.95 g/m*3 10.2 C 0 km/h
2805 17-04-2009 10:13:03 10.3 C 9 g/m*3 10.3 C 0 km/h
2806 17-04-2009 10:25:02 10.2 C 8.85 g/m*3 10.2 C 0 km/h
2807 17-04-2009 10:37:02 10.2 C 8.85 g/m*3 10.2 C 0 km/h
2808 17-04-2009 10:49:03 10.2 C 8.76 g/m*3 10.2 C 0 km/h
2809 17-04-2009 11:01:02 10.2 C 8.76 g/m*3 10.2 C 0 km/h
2810 17-04-2009 11:13:02 10.2 C 8.66 g/m*3 10.2 C 0 km/h
2811 17-04-2009 11:25:02 10.2 C 8.56 g/m*3 10.2 C 0 km/h
2812 17-04-2009 11:37:02 10.2 C 8.56 g/m*3 10.2 C 0 km/h
2813 17-04-2009 11:49:02 10.2 C 8.47 g/m*3 10.2 C 0 km/h
2814 17-04-2009 12:01:01 10.1 C 8.42 g/m*3 10.1 C 0 km/h
2815 17-04-2009 12:13:01 10.2 C 8.47 g/m*3 10.2 C 0 km/h
2816 17-04-2009 12:25:02 10.1 C 8.32 g/m*3 10.1 C 0 km/h
2817 17-04-2009 12:37:01 10.1 C 8.32 g/m*3 10.1 C 0 km/h
2818 17-04-2009 12:49:01 10 C 8.27 g/m*3 10 C 0 km/h
2819 17-04-2009 13:01:01 10 C 8.36 g/m*3 10 C 0 km/h
2820 17-04-2009 13:13:01 10 C 8.36 g/m*3 10 C 0 km/h
2821 17-04-2009 13:25:01 10.3 C 8.52 g/m*3 10.3 C 0 km/h
2822 17-04-2009 13:37:01 10.3 C 8.52 g/m*3 10.3 C 0 km/h
2823 17-04-2009 13:49:01 10.4 C 8.58 g/m*3 10.4 C 0 km/h
2824 17-04-2009 14:01:01 10.4 C 8.58 g/m*3 10.4 C 0 km/h
2825 17-04-2009 14:13:01 10.5 C 8.63 g/m*3 10.5 C 0 km/h
Sensor: Nr:Datum:Temp:Abs-Feuchte:Windchill:Wind:
Aussen-T/F 2826 17-04-2009 14:25:00 10.7 C 8.74 g/m*3 10.7 C 0 km/h
2827 17-04-2009 14:37:00 10.5 C 8.63 g/m*3 10.5 C 0 km/h
2828 17-04-2009 14:49:00 10.6 C 8.69 g/m*3 10.6 C 0 km/h
2829 17-04-2009 15:01:00 10.5 C 8.63 g/m*3 10.5 C 0 km/h
2830 17-04-2009 15:13:00 10.4 C 8.58 g/m*3 10.4 C 0 km/h
2831 17-04-2009 15:25:59 10.2 C 8.56 g/m*3 10.2 C 0 km/h
2832 17-04-2009 15:37:00 10 C 8.46 g/m*3 10 C 0 km/h
2833 17-04-2009 15:49:00 9.9 C 8.5 g/m*3 9.9 C 0 km/h
2834 17-04-2009 16:01:59 9.9 C 8.5 g/m*3 9.9 C 0 km/h
2835 17-04-2009 16:12:59 9.8 C 8.54 g/m*3 9.8 C 0 km/h
2836 17-04-2009 16:24:59 9.7 C 8.48 g/m*3 9.7 C 0 km/h
2837 17-04-2009 16:37:59 9.6 C 8.43 g/m*3 9.6 C 0 km/h
2838 17-04-2009 16:49:59 9.6 C 8.43 g/m*3 9.6 C 0 km/h
2839 17-04-2009 17:01:58 9.6 C 8.52 g/m*3 9.6 C 0 km/h
2840 17-04-2009 17:13:59 9.6 C 8.52 g/m*3 9.6 C 0 km/h
2841 17-04-2009 17:25:59 9.5 C 8.47 g/m*3 9.5 C 0 km/h
2842 17-04-2009 17:37:58 9.5 C 8.47 g/m*3 9.5 C 0 km/h
2843 17-04-2009 17:49:58 9.5 C 8.47 g/m*3 9.5 C 0 km/h
2844 17-04-2009 18:01:59 9.5 C 8.47 g/m*3 9.5 C 0 km/h
2845 17-04-2009 18:13:58 9.6 C 8.61 g/m*3 9.6 C 0 km/h
2846 17-04-2009 18:25:58 9.5 C 8.56 g/m*3 9.5 C 0 km/h
2847 17-04-2009 18:37:58 9.5 C 8.56 g/m*3 9.5 C 0 km/h
2848 17-04-2009 18:49:58 9.5 C 8.56 g/m*3 9.5 C 0 km/h
2849 17-04-2009 19:01:58 9.5 C 8.56 g/m*3 9.5 C 0 km/h
2850 17-04-2009 19:13:57 9.6 C 8.61 g/m*3 9.6 C 0 km/h
Sensor: Nr:Datum:Temp:Abs-Feuchte:Windchill:Wind:
Aussen-T/F 2851 17-04-2009 19:25:57 9.5 C 8.56 g/m*3 9.5 C 0 km/h
2852 17-04-2009 19:37:57 9.5 C 8.56 g/m*3 9.5 C 0 km/h
2853 17-04-2009 19:49:57 9.5 C 8.56 g/m*3 9.5 C 0 km/h
2854 17-04-2009 20:01:57 9.6 C 8.7 g/m*3 9.6 C 0 km/h
2855 17-04-2009 20:13:57 9.6 C 8.7 g/m*3 9.6 C 0 km/h
2856 17-04-2009 20:25:57 9.7 C 8.76 g/m*3 9.7 C 0 km/h
2857 17-04-2009 20:37:57 9.7 C 8.76 g/m*3 9.7 C 0 km/h
2858 17-04-2009 20:49:57 9.8 C 8.81 g/m*3 9.8 C 0 km/h
2859 17-04-2009 21:01:57 9.8 C 8.81 g/m*3 9.8 C 0 km/h
2860 17-04-2009 21:13:56 9.8 C 8.81 g/m*3 9.8 C 0 km/h
2861 17-04-2009 21:25:56 9.8 C 8.81 g/m*3 9.8 C 0 km/h
2862 17-04-2009 21:37:56 9.9 C 8.87 g/m*3 9.9 C 0 km/h
2863 17-04-2009 21:49:56 9.9 C 8.87 g/m*3 9.9 C 0 km/h
2864 17-04-2009 22:01:56 9.9 C 8.87 g/m*3 9.9 C 0 km/h
2865 17-04-2009 22:13:56 9.9 C 8.87 g/m*3 9.9 C 0 km/h
2866 17-04-2009 22:25:56 9.9 C 8.87 g/m*3 9.9 C 0 km/h
2867 17-04-2009 22:38:55 9.8 C 8.81 g/m*3 9.8 C 0 km/h
2868 17-04-2009 22:50:55 9.8 C 8.81 g/m*3 9.8 C 0 km/h
2869 17-04-2009 23:02:55 9.7 C 8.76 g/m*3 9.7 C 0 km/h
2870 17-04-2009 23:14:55 9.6 C 8.7 g/m*3 9.6 C 0 km/h
2871 17-04-2009 23:26:55 9.5 C 8.65 g/m*3 9.5 C 0 km/h
2872 17-04-2009 23:38:56 9.4 C 8.59 g/m*3 9.4 C 0 km/h
2873 17-04-2009 23:50:56 9.4 C 8.59 g/m*3 9.4 C 0 km/h
2874 18-04-2009 00:02:56 9.4 C 8.59 g/m*3 9.4 C 0 km/h
2875 18-04-2009 00:14:56 9.4 C 8.59 g/m*3 9.4 C 0 km/h
Sensor: Nr:Datum:Temp:Abs-Feuchte:Windchill:Wind:
Aussen-T/F 2876 18-04-2009 00:26:56 9.4 C 8.59 g/m*3 9.4 C 0 km/h
2877 18-04-2009 00:38:56 9.4 C 8.59 g/m*3 9.4 C 0 km/h
2878 18-04-2009 00:50:56 9.4 C 8.59 g/m*3 9.4 C 0 km/h
2879 18-04-2009 01:02:56 9.4 C 8.59 g/m*3 9.4 C 0 km/h
2880 18-04-2009 01:14:56 9.4 C 8.59 g/m*3 9.4 C 0 km/h
2881 18-04-2009 01:26:56 9.4 C 8.59 g/m*3 9.4 C 0 km/h
2882 18-04-2009 01:38:56 9.4 C 8.59 g/m*3 9.4 C 0 km/h
2883 18-04-2009 01:50:56 9.4 C 8.59 g/m*3 9.4 C 0 km/h
2884 18-04-2009 02:02:56 9.4 C 8.59 g/m*3 9.4 C 0 km/h
2885 18-04-2009 02:14:56 9.4 C 8.59 g/m*3 9.4 C 0 km/h
2886 18-04-2009 02:26:56 9.5 C 8.65 g/m*3 9.5 C 0 km/h
2887 18-04-2009 02:38:56 9.5 C 8.65 g/m*3 9.5 C 0 km/h
2888 18-04-2009 02:50:56 9.5 C 8.65 g/m*3 9.5 C 0 km/h
2889 18-04-2009 03:02:56 9.5 C 8.65 g/m*3 9.5 C 0 km/h
2890 18-04-2009 03:14:56 9.5 C 8.65 g/m*3 9.5 C 0 km/h
2891 18-04-2009 03:26:56 9.4 C 8.59 g/m*3 9.4 C 0 km/h
2892 18-04-2009 03:38:56 9.5 C 8.65 g/m*3 9.5 C 0 km/h
2893 18-04-2009 03:50:57 9.4 C 8.59 g/m*3 9.4 C 0 km/h
2894 18-04-2009 04:02:57 9.5 C 8.65 g/m*3 9.5 C 0 km/h
2895 18-04-2009 04:14:57 9.6 C 8.7 g/m*3 9.6 C 0 km/h
2896 18-04-2009 04:26:57 9.5 C 8.65 g/m*3 9.5 C 0 km/h
2897 18-04-2009 04:38:57 9.6 C 8.7 g/m*3 9.6 C 0 km/h
2898 18-04-2009 04:50:57 9.5 C 8.65 g/m*3 9.5 C 0 km/h
2899 18-04-2009 05:02:57 9.5 C 8.65 g/m*3 9.5 C 0 km/h
2900 18-04-2009 05:14:57 9.5 C 8.65 g/m*3 9.5 C 0 km/h
Sensor: Nr:Datum:Temp:Abs-Feuchte:Windchill:Wind:
Aussen-T/F 2901 18-04-2009 05:26:57 9.5 C 8.65 g/m*3 9.5 C 0 km/h
2902 18-04-2009 05:38:57 9.4 C 8.59 g/m*3 9.4 C 0 km/h
2903 18-04-2009 05:50:57 9.4 C 8.59 g/m*3 9.4 C 0 km/h
2904 18-04-2009 06:02:57 9.3 C 8.54 g/m*3 9.3 C 0 km/h
2905 18-04-2009 06:14:57 9.4 C 8.59 g/m*3 9.4 C 0 km/h
2906 18-04-2009 06:26:57 9.4 C 8.59 g/m*3 9.4 C 0 km/h
2907 18-04-2009 06:38:57 9.4 C 8.59 g/m*3 9.4 C 0 km/h
2908 18-04-2009 06:50:57 9.5 C 8.65 g/m*3 9.5 C 0 km/h
2909 18-04-2009 07:02:57 9.5 C 8.65 g/m*3 9.5 C 0 km/h
2910 18-04-2009 07:14:57 9.5 C 8.65 g/m*3 9.5 C 0 km/h
2911 18-04-2009 07:26:57 9.6 C 8.7 g/m*3 9.6 C 0 km/h
2912 18-04-2009 07:38:57 9.6 C 8.7 g/m*3 9.6 C 0 km/h
2913 18-04-2009 07:50:58 9.6 C 8.7 g/m*3 9.6 C 0 km/h
2914 18-04-2009 08:02:58 9.7 C 8.76 g/m*3 9.7 C 0 km/h
2915 18-04-2009 08:14:58 9.7 C 8.76 g/m*3 9.7 C 0 km/h
2916 18-04-2009 08:26:58 9.8 C 8.81 g/m*3 9.8 C 0 km/h
2917 18-04-2009 08:38:56 9.9 C 8.87 g/m*3 9.9 C 0 km/h
2918 18-04-2009 08:50:55 10 C 8.93 g/m*3 10 C 0 km/h
2919 18-04-2009 09:02:55 10.1 C 8.98 g/m*3 10.1 C 0 km/h
2920 18-04-2009 09:14:54 10 C 8.93 g/m*3 10 C 0 km/h
2921 18-04-2009 09:26:54 10.1 C 8.98 g/m*3 10.1 C 0 km/h
2922 18-04-2009 09:38:55 10 C 8.93 g/m*3 10 C 0 km/h
2923 18-04-2009 09:50:54 9.8 C 8.81 g/m*3 9.8 C 0 km/h
2924 18-04-2009 10:02:54 9.8 C 8.81 g/m*3 9.8 C 0 km/h
2925 18-04-2009 10:14:54 9.7 C 8.76 g/m*3 9.7 C 0 km/h
Sensor: Nr:Datum:Temp:Abs-Feuchte:Windchill:Wind:
Aussen-T/F 2926 18-04-2009 10:26:54 9.7 C 8.76 g/m*3 9.7 C 0 km/h
2927 18-04-2009 10:38:54 9.8 C 8.72 g/m*3 9.8 C 0 km/h
2928 18-04-2009 10:50:53 9.8 C 8.72 g/m*3 9.8 C 0 km/h
2929 18-04-2009 11:02:54 9.6 C 8.61 g/m*3 9.6 C 0 km/h
2930 18-04-2009 11:14:54 9.5 C 8.56 g/m*3 9.5 C 0 km/h
2931 18-04-2009 11:26:54 9.8 C 8.72 g/m*3 9.8 C 0 km/h
2932 18-04-2009 11:38:53 9.6 C 8.52 g/m*3 9.6 C 0 km/h
2933 18-04-2009 11:50:54 9.6 C 8.52 g/m*3 9.6 C 0 km/h
2934 18-04-2009 12:02:53 9.7 C 8.48 g/m*3 9.7 C 0 km/h
2935 18-04-2009 12:14:53 9.6 C 8.43 g/m*3 9.6 C 0 km/h
2936 18-04-2009 12:26:54 9.7 C 8.48 g/m*3 9.7 C 0 km/h
2937 18-04-2009 12:38:52 9.8 C 8.63 g/m*3 9.8 C 0 km/h
2938 18-04-2009 12:50:53 9.7 C 8.48 g/m*3 9.7 C 0 km/h
2939 18-04-2009 13:02:52 9.8 C 8.63 g/m*3 9.8 C 0 km/h
2940 18-04-2009 13:14:52 9.8 C 8.63 g/m*3 9.8 C 0 km/h
2941 18-04-2009 13:26:52 9.6 C 8.52 g/m*3 9.6 C 0 km/h
2942 18-04-2009 13:38:53 9.5 C 8.37 g/m*3 9.5 C 0 km/h
2943 18-04-2009 13:50:52 9.6 C 8.52 g/m*3 9.6 C 0 km/h
2944 18-04-2009 14:02:52 9.5 C 8.47 g/m*3 9.5 C 0 km/h
2945 18-04-2009 14:14:52 9.4 C 8.41 g/m*3 9.4 C 0 km/h
2946 18-04-2009 14:26:52 9.5 C 8.37 g/m*3 9.5 C 0 km/h
2947 18-04-2009 14:38:52 9.5 C 8.19 g/m*3 9.5 C 0 km/h
2948 18-04-2009 14:50:51 9.4 C 8.05 g/m*3 9.4 C 0 km/h
2949 18-04-2009 15:02:52 9.5 C 8.1 g/m*3 9.5 C 0 km/h
2950 18-04-2009 15:14:51 9.7 C 8.3 g/m*3 9.7 C 0 km/h
Sensor: Nr:Datum:Temp:Abs-Feuchte:Windchill:Wind:
Aussen-T/F 2951 18-04-2009 15:26:51 9.8 C 8.35 g/m*3 9.8 C 0 km/h
2952 18-04-2009 15:38:51 9.8 C 8.44 g/m*3 9.8 C 0 km/h
2953 18-04-2009 15:50:51 9.8 C 8.44 g/m*3 9.8 C 0 km/h
2954 18-04-2009 16:02:51 9.8 C 8.44 g/m*3 9.8 C 0 km/h
2955 18-04-2009 16:14:51 10.1 C 8.51 g/m*3 10.1 C 0 km/h
2956 18-04-2009 16:26:51 10.7 C 8.94 g/m*3 10.7 C 0 km/h
2957 18-04-2009 16:38:50 11.1 C 9.07 g/m*3 11.1 C 0 km/h
2958 18-04-2009 16:50:51 11.3 C 9.08 g/m*3 11.3 C 0 km/h
2959 18-04-2009 17:02:50 11.4 C 9.03 g/m*3 11.4 C 0 km/h
2960 18-04-2009 17:14:50 11.5 C 8.99 g/m*3 11.5 C 0 km/h
2961 18-04-2009 17:26:50 11.6 C 9.04 g/m*3 11.6 C 0 km/h
2962 18-04-2009 17:38:50 11.7 C 8.89 g/m*3 11.7 C 0 km/h
2963 18-04-2009 17:50:50 11.5 C 8.57 g/m*3 11.5 C 0 km/h
2964 18-04-2009 18:02:49 11.6 C 8.63 g/m*3 11.6 C 0 km/h
2965 18-04-2009 18:14:50 11.3 C 8.47 g/m*3 11.3 C 0 km/h
2966 18-04-2009 18:26:50 11.2 C 8.51 g/m*3 11.2 C 0 km/h
2967 18-04-2009 18:38:50 11.1 C 8.56 g/m*3 11.1 C 0 km/h
2968 18-04-2009 18:50:49 11.1 C 8.56 g/m*3 11.1 C 0 km/h
2969 18-04-2009 19:02:50 11 C 8.61 g/m*3 11 C 0 km/h
2970 18-04-2009 19:14:49 10.8 C 8.6 g/m*3 10.8 C 0 km/h
2971 18-04-2009 19:26:49 10.6 C 8.49 g/m*3 10.6 C 0 km/h
2972 18-04-2009 19:38:49 10.4 C 8.38 g/m*3 10.4 C 0 km/h
2973 18-04-2009 19:50:49 10.2 C 8.28 g/m*3 10.2 C 0 km/h
2974 18-04-2009 20:02:49 10.1 C 8.23 g/m*3 10.1 C 0 km/h
2975 18-04-2009 20:14:48 10.1 C 8.13 g/m*3 10.1 C 0 km/h
Sensor: Nr:Datum:Temp:Abs-Feuchte:Windchill:Wind:
Aussen-T/F 2976 18-04-2009 20:26:48 10.1 C 8.04 g/m*3 10.1 C 0 km/h
2977 18-04-2009 20:38:48 9.9 C 8.12 g/m*3 9.9 C 0 km/h
2978 18-04-2009 20:50:48 9.9 C 8.12 g/m*3 9.9 C 0 km/h
2979 18-04-2009 21:02:48 9.8 C 8.07 g/m*3 9.8 C 0 km/h
2980 18-04-2009 21:14:48 9.8 C 7.98 g/m*3 9.8 C 0 km/h
2981 18-04-2009 21:26:48 9.8 C 7.98 g/m*3 9.8 C 0 km/h
2982 18-04-2009 21:38:47 9.7 C 7.93 g/m*3 9.7 C 0 km/h
2983 18-04-2009 21:50:48 9.8 C 8.07 g/m*3 9.8 C 0 km/h
2984 18-04-2009 22:02:47 9.7 C 8.02 g/m*3 9.7 C 0 km/h
2985 18-04-2009 22:14:47 9.6 C 8.06 g/m*3 9.6 C 0 km/h
2986 18-04-2009 22:26:47 9.6 C 8.06 g/m*3 9.6 C 0 km/h
2987 18-04-2009 22:38:48 9.6 C 8.06 g/m*3 9.6 C 0 km/h
2988 18-04-2009 22:50:47 9.6 C 8.15 g/m*3 9.6 C 0 km/h
2989 18-04-2009 23:03:49 9.6 C 8.15 g/m*3 9.6 C 0 km/h
2990 18-04-2009 23:15:49 9.5 C 8.1 g/m*3 9.5 C 0 km/h
2991 18-04-2009 23:27:49 9.3 C 8 g/m*3 9.3 C 0 km/h
2992 18-04-2009 23:39:50 9.1 C 7.9 g/m*3 9.1 C 0 km/h
2993 18-04-2009 23:51:50 9.1 C 7.99 g/m*3 9.1 C 0 km/h
2994 19-04-2009 00:03:50 9.2 C 8.13 g/m*3 9.2 C 0 km/h
2995 19-04-2009 00:15:50 9.4 C 8.23 g/m*3 9.4 C 0 km/h
2996 19-04-2009 00:27:50 9.4 C 8.23 g/m*3 9.4 C 0 km/h
2997 19-04-2009 00:39:50 9.5 C 8.19 g/m*3 9.5 C 0 km/h
2998 19-04-2009 00:51:50 9.5 C 8.19 g/m*3 9.5 C 0 km/h
2999 19-04-2009 01:03:50 9.6 C 8.15 g/m*3 9.6 C 0 km/h
3000 19-04-2009 01:15:50 9.6 C 8.15 g/m*3 9.6 C 0 km/h
Sensor: Nr:Datum:Temp:Abs-Feuchte:Windchill:Wind:
Aussen-T/F 3001 19-04-2009 01:27:50 9.6 C 8.15 g/m*3 9.6 C 0 km/h
3002 19-04-2009 01:39:50 9.6 C 8.15 g/m*3 9.6 C 0 km/h
3003 19-04-2009 01:51:50 9.6 C 8.15 g/m*3 9.6 C 0 km/h
3004 19-04-2009 02:03:50 9.6 C 8.15 g/m*3 9.6 C 0 km/h
3005 19-04-2009 02:15:50 9.7 C 8.2 g/m*3 9.7 C 0 km/h
3006 19-04-2009 02:27:50 9.8 C 8.26 g/m*3 9.8 C 0 km/h
3007 19-04-2009 02:39:50 9.8 C 8.26 g/m*3 9.8 C 0 km/h
3008 19-04-2009 02:51:50 9.9 C 8.22 g/m*3 9.9 C 0 km/h
3009 19-04-2009 03:03:50 9.9 C 8.22 g/m*3 9.9 C 0 km/h
3010 19-04-2009 03:15:50 9.8 C 8.16 g/m*3 9.8 C 0 km/h
3011 19-04-2009 03:27:51 9.8 C 8.16 g/m*3 9.8 C 0 km/h
3012 19-04-2009 03:39:51 9.8 C 8.16 g/m*3 9.8 C 0 km/h
3013 19-04-2009 03:51:51 9.8 C 8.16 g/m*3 9.8 C 0 km/h
3014 19-04-2009 04:03:51 9.7 C 8.11 g/m*3 9.7 C 0 km/h
3015 19-04-2009 04:15:51 9.4 C 7.96 g/m*3 9.4 C 0 km/h
3016 19-04-2009 04:27:51 9.4 C 8.05 g/m*3 9.4 C 0 km/h
3017 19-04-2009 04:39:51 9.3 C 8 g/m*3 9.3 C 0 km/h
3018 19-04-2009 04:51:51 9.3 C 8 g/m*3 9.3 C 0 km/h
3019 19-04-2009 05:03:51 9.3 C 8.09 g/m*3 9.3 C 0 km/h
3020 19-04-2009 05:15:51 9.3 C 8.09 g/m*3 9.3 C 0 km/h
3021 19-04-2009 05:27:51 9.4 C 8.05 g/m*3 9.4 C 0 km/h
3022 19-04-2009 05:39:51 9.4 C 8.05 g/m*3 9.4 C 0 km/h
3023 19-04-2009 05:51:51 9.3 C 8 g/m*3 9.3 C 0 km/h
3024 19-04-2009 06:03:51 9.3 C 7.91 g/m*3 9.3 C 0 km/h
3025 19-04-2009 06:15:51 9.3 C 7.91 g/m*3 9.3 C 0 km/h
Sensor: Nr:Datum:Temp:Abs-Feuchte:Windchill:Wind:
Aussen-T/F 3026 19-04-2009 06:27:51 9.3 C 7.91 g/m*3 9.3 C 0 km/h
3027 19-04-2009 06:39:51 9.3 C 7.91 g/m*3 9.3 C 0 km/h
3028 19-04-2009 06:51:51 9.3 C 7.91 g/m*3 9.3 C 0 km/h
3029 19-04-2009 07:03:51 9.3 C 7.91 g/m*3 9.3 C 0 km/h
3030 19-04-2009 07:15:52 9.5 C 8.01 g/m*3 9.5 C 0 km/h
3031 19-04-2009 07:27:52 9.6 C 8.06 g/m*3 9.6 C 0 km/h
3032 19-04-2009 07:39:52 9.8 C 8.16 g/m*3 9.8 C 0 km/h
3033 19-04-2009 07:51:52 10 C 8.08 g/m*3 10 C 0 km/h
3034 19-04-2009 08:03:52 10.1 C 8.13 g/m*3 10.1 C 0 km/h
3035 19-04-2009 08:15:52 9.8 C 7.98 g/m*3 9.8 C 0 km/h
3036 19-04-2009 08:27:52 9.7 C 7.93 g/m*3 9.7 C 0 km/h
3037 19-04-2009 08:39:48 9.8 C 7.98 g/m*3 9.8 C 0 km/h
3038 19-04-2009 08:51:47 10.5 C 8.15 g/m*3 10.5 C 0 km/h
3039 19-04-2009 09:03:48 11 C 8.01 g/m*3 11 C 0 km/h
3040 19-04-2009 09:15:47 11.1 C 7.66 g/m*3 11.1 C 0 km/h
3041 19-04-2009 09:27:47 11.2 C 7.5 g/m*3 11.2 C 0 km/h
3042 19-04-2009 09:39:47 11.6 C 7.59 g/m*3 11.6 C 0 km/h
3043 19-04-2009 09:51:47 11.9 C 7.31 g/m*3 11.9 C 0 km/h
3044 19-04-2009 10:03:47 12.4 C 7.21 g/m*3 12.4 C 0 km/h
3045 19-04-2009 10:15:47 12.9 C 7.21 g/m*3 12.9 C 0 km/h
3046 19-04-2009 10:27:47 12.7 C 7.24 g/m*3 12.7 C 0 km/h
3047 19-04-2009 10:39:46 13 C 6.92 g/m*3 13 C 0 km/h
3048 19-04-2009 10:51:47 13.6 C 7.18 g/m*3 13.6 C 0 km/h
3049 19-04-2009 11:03:46 14.3 C 6.88 g/m*3 14.3 C 0 km/h
3050 19-04-2009 11:15:46 14.6 C 6.51 g/m*3 14.6 C 0 km/h
Sensor: Nr:Datum:Temp:Abs-Feuchte:Windchill:Wind:
Aussen-T/F 3051 19-04-2009 11:27:46 15.1 C 6.71 g/m*3 15.1 C 0 km/h
3052 19-04-2009 11:39:46 15.1 C 6.32 g/m*3 15.1 C 0 km/h
3053 19-04-2009 11:51:46 15.5 C 6.48 g/m*3 15.5 C 0 km/h
3054 19-04-2009 12:03:45 16 C 6.54 g/m*3 16 C 0 km/h
3055 19-04-2009 12:15:46 16 C 6.27 g/m*3 16 C 0 km/h
3056 19-04-2009 12:27:46 17.1 C 6.55 g/m*3 17.1 C 0 km/h
3057 19-04-2009 12:39:46 17 C 6.08 g/m*3 17 C 0 km/h
3058 19-04-2009 12:51:45 16 C 6.54 g/m*3 16 C 0 km/h
3059 19-04-2009 13:03:46 15.9 C 6.23 g/m*3 15.9 C 0 km/h
3060 19-04-2009 13:15:45 16 C 6.13 g/m*3 16 C 0 km/h
3061 19-04-2009 13:27:45 16.9 C 6.76 g/m*3 16.9 C 0 km/h
3062 19-04-2009 13:39:45 16.9 C 6.76 g/m*3 16.9 C 0 km/h
3063 19-04-2009 13:51:45 17.1 C 6.26 g/m*3 17.1 C 0 km/h
3064 19-04-2009 14:03:45 17.5 C 6.41 g/m*3 17.5 C 0 km/h
3065 19-04-2009 14:15:44 18.7 C 6.24 g/m*3 18.7 C 0 km/h
3066 19-04-2009 14:27:44 19.1 C 5.74 g/m*3 19.1 C 0 km/h
3067 19-04-2009 14:39:44 19.9 C 6.01 g/m*3 19.9 C 0 km/h
3068 19-04-2009 14:51:44 21 C 5.31 g/m*3 21 C 0 km/h
3069 19-04-2009 15:03:44 20.9 C 5.46 g/m*3 20.9 C 0 km/h
3070 19-04-2009 15:15:43 21.1 C 5.53 g/m*3 21.1 C 0 km/h
3071 19-04-2009 15:27:43 22.1 C 5.08 g/m*3 22.1 C 0 km/h
3072 19-04-2009 15:39:44 21.2 C 5.74 g/m*3 21.2 C 0 km/h
3073 19-04-2009 15:51:43 22.3 C 5.13 g/m*3 22.3 C 0 km/h
3074 19-04-2009 16:03:43 23.3 C 4.81 g/m*3 23.3 C 0 km/h
3075 19-04-2009 16:15:44 23.9 C 4.76 g/m*3 23.9 C 0 km/h
Sensor: Nr:Datum:Temp:Abs-Feuchte:Windchill:Wind:
Aussen-T/F 3076 19-04-2009 16:27:44 25.2 C 4.89 g/m*3 25.2 C 0 km/h
3077 19-04-2009 16:39:02 24.6 C 4.73 g/m*3 24.6 C 0 km/h
3078 19-04-2009 16:51:01 25.4 C 4.71 g/m*3 25.4 C 0 km/h
3079 19-04-2009 17:03:01 25.3 C 4.68 g/m*3 25.3 C 0 km/h
3080 19-04-2009 17:15:01 25.4 C 4.71 g/m*3 25.4 C 0 km/h
3081 19-04-2009 17:27:01 25.7 C 4.79 g/m*3 25.7 C 0 km/h
3082 19-04-2009 17:39:01 25.6 C 4.76 g/m*3 25.6 C 0 km/h
3083 19-04-2009 17:51:01 25.7 C 4.79 g/m*3 25.7 C 0 km/h
3084 19-04-2009 18:03:01 25.6 C 4.76 g/m*3 25.6 C 0 km/h
3085 19-04-2009 18:15:00 25.2 C 4.66 g/m*3 25.2 C 0 km/h
3086 19-04-2009 18:27:00 25.1 C 4.63 g/m*3 25.1 C 0 km/h
3087 19-04-2009 18:39:00 25.2 C 4.66 g/m*3 25.2 C 0 km/h
3088 19-04-2009 18:51:00 24.9 C 4.58 g/m*3 24.9 C 0 km/h
3089 19-04-2009 19:03:00 24.5 C 4.48 g/m*3 24.5 C 0 km/h
3090 19-04-2009 19:15:59 24.2 C 4.4 g/m*3 24.2 C 0 km/h
3091 19-04-2009 19:27:59 23.7 C 4.71 g/m*3 23.7 C 0 km/h
3092 19-04-2009 19:39:00 23 C 4.93 g/m*3 23 C 0 km/h
3093 19-04-2009 19:51:59 22.2 C 5.3 g/m*3 22.2 C 0 km/h
3094 19-04-2009 20:03:59 21 C 5.68 g/m*3 21 C 0 km/h
3095 19-04-2009 20:14:59 19.3 C 5.64 g/m*3 19.3 C 0 km/h
3096 19-04-2009 20:26:59 18.3 C 5.63 g/m*3 18.3 C 0 km/h
3097 19-04-2009 20:39:59 17.2 C 5.86 g/m*3 17.2 C 0 km/h
3098 19-04-2009 20:51:59 16.6 C 5.79 g/m*3 16.6 C 0 km/h
3099 19-04-2009 21:03:59 16.2 C 6.07 g/m*3 16.2 C 0 km/h
3100 19-04-2009 21:15:58 15.8 C 6.33 g/m*3 15.8 C 0 km/h
Sensor: Nr:Datum:Temp:Abs-Feuchte:Windchill:Wind:
Aussen-T/F 3101 19-04-2009 21:27:58 15.4 C 6.44 g/m*3 15.4 C 0 km/h
3102 19-04-2009 21:39:59 15.2 C 6.62 g/m*3 15.2 C 0 km/h
3103 19-04-2009 21:51:58 14.9 C 6.63 g/m*3 14.9 C 0 km/h
3104 19-04-2009 22:03:58 14.6 C 6.63 g/m*3 14.6 C 0 km/h
3105 19-04-2009 22:15:57 14.3 C 6.63 g/m*3 14.3 C 0 km/h
3106 19-04-2009 22:27:57 14.1 C 6.67 g/m*3 14.1 C 0 km/h
3107 19-04-2009 22:40:59 13.8 C 6.79 g/m*3 13.8 C 0 km/h
3108 19-04-2009 22:52:59 13.7 C 6.87 g/m*3 13.7 C 0 km/h
3109 19-04-2009 23:04:59 13.4 C 6.86 g/m*3 13.4 C 0 km/h
3110 19-04-2009 23:17:00 13.1 C 6.96 g/m*3 13.1 C 0 km/h
3111 19-04-2009 23:29:00 12.9 C 7.1 g/m*3 12.9 C 0 km/h
3112 19-04-2009 23:41:00 12.7 C 7.12 g/m*3 12.7 C 0 km/h
3113 19-04-2009 23:53:00 12.6 C 7.19 g/m*3 12.6 C 0 km/h
3114 20-04-2009 00:05:00 12.4 C 7.21 g/m*3 12.4 C 0 km/h
3115 20-04-2009 00:17:00 12.2 C 7.23 g/m*3 12.2 C 0 km/h
3116 20-04-2009 00:29:00 12.1 C 7.29 g/m*3 12.1 C 0 km/h
3117 20-04-2009 00:41:00 11.8 C 7.37 g/m*3 11.8 C 0 km/h
3118 20-04-2009 00:53:00 11.7 C 7.43 g/m*3 11.7 C 0 km/h
3119 20-04-2009 01:05:00 11.6 C 7.38 g/m*3 11.6 C 0 km/h
3120 20-04-2009 01:17:00 11.3 C 7.34 g/m*3 11.3 C 0 km/h
3121 20-04-2009 01:28:00 11.1 C 7.35 g/m*3 11.1 C 0 km/h
3122 20-04-2009 01:40:00 11 C 7.31 g/m*3 11 C 0 km/h
3123 20-04-2009 01:52:00 10.9 C 7.36 g/m*3 10.9 C 0 km/h
3124 20-04-2009 02:04:00 10.7 C 7.27 g/m*3 10.7 C 0 km/h
3125 20-04-2009 02:16:00 10.4 C 7.13 g/m*3 10.4 C 0 km/h
Sensor: Nr:Datum:Temp:Abs-Feuchte:Windchill:Wind:
Aussen-T/F 3126 20-04-2009 02:28:00 10.2 C 7.14 g/m*3 10.2 C 0 km/h
3127 20-04-2009 02:40:00 10.1 C 7.19 g/m*3 10.1 C 0 km/h
3128 20-04-2009 02:52:00 9.9 C 7.28 g/m*3 9.9 C 0 km/h
3129 20-04-2009 03:04:00 9.7 C 7.28 g/m*3 9.7 C 0 km/h
3130 20-04-2009 03:16:01 9.4 C 7.24 g/m*3 9.4 C 0 km/h
3131 20-04-2009 03:28:01 9.3 C 7.28 g/m*3 9.3 C 0 km/h
3132 20-04-2009 03:40:01 9.1 C 7.19 g/m*3 9.1 C 0 km/h
3133 20-04-2009 03:52:01 9 C 7.14 g/m*3 9 C 0 km/h
3134 20-04-2009 04:04:01 8.9 C 7.27 g/m*3 8.9 C 0 km/h
3135 20-04-2009 04:16:01 8.7 C 7.18 g/m*3 8.7 C 0 km/h
3136 20-04-2009 04:28:01 8.6 C 7.13 g/m*3 8.6 C 0 km/h
3137 20-04-2009 04:40:01 8.4 C 7.04 g/m*3 8.4 C 0 km/h
3138 20-04-2009 04:52:01 8.3 C 7.08 g/m*3 8.3 C 0 km/h
3139 20-04-2009 05:04:01 8.1 C 6.99 g/m*3 8.1 C 0 km/h
3140 20-04-2009 05:16:01 8 C 6.94 g/m*3 8 C 0 km/h
3141 20-04-2009 05:28:01 7.8 C 7.02 g/m*3 7.8 C 0 km/h
3142 20-04-2009 05:40:01 7.6 C 6.93 g/m*3 7.6 C 0 km/h
3143 20-04-2009 05:52:01 7.5 C 6.96 g/m*3 7.5 C 0 km/h
3144 20-04-2009 06:04:01 7.3 C 6.79 g/m*3 7.3 C 0 km/h
3145 20-04-2009 06:16:01 7.3 C 6.87 g/m*3 7.3 C 0 km/h
3146 20-04-2009 06:28:01 7.1 C 6.79 g/m*3 7.1 C 0 km/h
3147 20-04-2009 06:40:01 7 C 6.74 g/m*3 7 C 0 km/h
3148 20-04-2009 06:52:58 6.8 C 6.81 g/m*3 6.8 C 0 km/h
3149 20-04-2009 07:04:58 6.8 C 6.81 g/m*3 6.8 C 0 km/h
3150 20-04-2009 07:16:59 6.9 C 6.85 g/m*3 6.9 C 0 km/h
Sensor: Nr:Datum:Temp:Abs-Feuchte:Windchill:Wind:
Aussen-T/F 3151 20-04-2009 07:28:59 7 C 6.9 g/m*3 7 C 0 km/h
3152 20-04-2009 07:40:02 7.2 C 7.06 g/m*3 7.2 C 0 km/h
3153 20-04-2009 07:52:01 7.1 C 7.02 g/m*3 7.1 C 0 km/h
3154 20-04-2009 08:04:02 7.2 C 6.99 g/m*3 7.2 C 0 km/h
3155 20-04-2009 08:16:01 7.3 C 7.03 g/m*3 7.3 C 0 km/h
3156 20-04-2009 08:28:01 7.4 C 7.08 g/m*3 7.4 C 0 km/h
3157 20-04-2009 08:40:01 7.7 C 7.22 g/m*3 7.7 C 0 km/h
3158 20-04-2009 08:52:02 8 C 7.28 g/m*3 8 C 0 km/h
3159 20-04-2009 09:04:01 7.9 C 7.31 g/m*3 7.9 C 0 km/h
3160 20-04-2009 09:16:00 8.2 C 7.45 g/m*3 8.2 C 0 km/h
3161 20-04-2009 09:28:00 8.4 C 7.55 g/m*3 8.4 C 0 km/h
3162 20-04-2009 09:40:01 8.9 C 7.8 g/m*3 8.9 C 0 km/h
3163 20-04-2009 09:52:00 9.6 C 8.06 g/m*3 9.6 C 0 km/h
3164 20-04-2009 10:04:00 10.4 C 8.29 g/m*3 10.4 C 0 km/h
3165 20-04-2009 10:16:00 11.1 C 8.26 g/m*3 11.1 C 0 km/h
3166 20-04-2009 10:28:00 12.1 C 8.47 g/m*3 12.1 C 0 km/h
3167 20-04-2009 10:40:00 13 C 8.28 g/m*3 13 C 0 km/h
3168 20-04-2009 10:52:59 13.5 C 7.72 g/m*3 13.5 C 0 km/h
3169 20-04-2009 11:04:00 14.1 C 7.77 g/m*3 14.1 C 0 km/h
3170 20-04-2009 11:16:00 14.9 C 7.77 g/m*3 14.9 C 0 km/h
3171 20-04-2009 11:28:00 15.7 C 7.76 g/m*3 15.7 C 0 km/h
3172 20-04-2009 11:40:59 16.2 C 7.72 g/m*3 16.2 C 0 km/h
3173 20-04-2009 11:52:59 16.8 C 7.43 g/m*3 16.8 C 0 km/h
3174 20-04-2009 12:04:59 17.2 C 7.18 g/m*3 17.2 C 0 km/h
3175 20-04-2009 12:16:59 17.6 C 6.9 g/m*3 17.6 C 0 km/h
Sensor: Nr:Datum:Temp:Abs-Feuchte:Windchill:Wind:
Aussen-T/F 3176 20-04-2009 12:28:59 18.3 C 6.72 g/m*3 18.3 C 0 km/h
3177 20-04-2009 12:40:58 18.7 C 6.88 g/m*3 18.7 C 0 km/h
3178 20-04-2009 12:52:59 18.9 C 6.64 g/m*3 18.9 C 0 km/h
3179 20-04-2009 13:04:58 19.2 C 6.1 g/m*3 19.2 C 0 km/h
3180 20-04-2009 13:16:58 20 C 6.39 g/m*3 20 C 0 km/h
3181 20-04-2009 13:28:58 20.9 C 6.37 g/m*3 20.9 C 0 km/h
3182 20-04-2009 13:40:58 21.2 C 5.56 g/m*3 21.2 C 0 km/h
3183 20-04-2009 13:52:58 21.4 C 5.44 g/m*3 21.4 C 0 km/h
3184 20-04-2009 14:04:57 21.5 C 5.28 g/m*3 21.5 C 0 km/h
3185 20-04-2009 14:16:58 21.4 C 5.25 g/m*3 21.4 C 0 km/h
3186 20-04-2009 14:28:58 22 C 5.05 g/m*3 22 C 0 km/h
3187 20-04-2009 14:40:58 23.1 C 5.17 g/m*3 23.1 C 0 km/h
3188 20-04-2009 14:52:57 22.7 C 4.65 g/m*3 22.7 C 0 km/h
3189 20-04-2009 15:04:58 23.7 C 4.49 g/m*3 23.7 C 0 km/h
3190 20-04-2009 15:16:57 23.8 C 4.3 g/m*3 23.8 C 0 km/h
3191 20-04-2009 15:28:57 23.7 C 4.28 g/m*3 23.7 C 0 km/h
3192 20-04-2009 15:40:57 23.8 C 4.3 g/m*3 23.8 C 0 km/h
3193 20-04-2009 15:52:56 24.1 C 4.38 g/m*3 24.1 C 0 km/h
3194 20-04-2009 16:04:57 24.1 C 4.38 g/m*3 24.1 C 0 km/h
3195 20-04-2009 16:16:56 24.3 C 4.43 g/m*3 24.3 C 0 km/h
3196 20-04-2009 16:28:56 25.2 C 4.66 g/m*3 25.2 C 0 km/h
3197 20-04-2009 16:40:56 25.7 C 4.79 g/m*3 25.7 C 0 km/h
3198 20-04-2009 16:52:56 26 C 4.87 g/m*3 26 C 0 km/h
3199 20-04-2009 17:04:56 26 C 4.87 g/m*3 26 C 0 km/h
3200 20-04-2009 17:16:56 27 C 5.15 g/m*3 27 C 0 km/h
Sensor: Nr:Datum:Temp:Abs-Feuchte:Windchill:Wind:
Aussen-T/F 3201 20-04-2009 17:28:56 26 C 4.87 g/m*3 26 C 0 km/h
3202 20-04-2009 17:40:56 25.6 C 4.76 g/m*3 25.6 C 0 km/h
3203 20-04-2009 17:52:56 27.1 C 5.18 g/m*3 27.1 C 0 km/h
3204 20-04-2009 18:04:55 25.9 C 4.84 g/m*3 25.9 C 0 km/h
3205 20-04-2009 18:16:55 25.7 C 4.79 g/m*3 25.7 C 0 km/h
3206 20-04-2009 18:28:55 25.3 C 4.68 g/m*3 25.3 C 0 km/h
3207 20-04-2009 18:40:55 23.9 C 5.19 g/m*3 23.9 C 0 km/h
3208 20-04-2009 18:52:55 22.8 C 5.49 g/m*3 22.8 C 0 km/h
3209 20-04-2009 19:04:54 22.4 C 5.16 g/m*3 22.4 C 0 km/h
3210 20-04-2009 19:16:55 21.5 C 5.47 g/m*3 21.5 C 0 km/h
3211 20-04-2009 19:28:55 21.2 C 5.37 g/m*3 21.2 C 0 km/h
3212 20-04-2009 19:40:55 21.2 C 5.56 g/m*3 21.2 C 0 km/h
3213 20-04-2009 19:52:54 20.9 C 5.83 g/m*3 20.9 C 0 km/h
3214 20-04-2009 20:04:55 20.4 C 5.66 g/m*3 20.4 C 0 km/h
3215 20-04-2009 20:16:54 19.7 C 5.77 g/m*3 19.7 C 0 km/h
3216 20-04-2009 20:28:54 19 C 5.87 g/m*3 19 C 0 km/h
3217 20-04-2009 20:40:54 18.5 C 6.33 g/m*3 18.5 C 0 km/h
3218 20-04-2009 20:52:54 18.1 C 5.87 g/m*3 18.1 C 0 km/h
3219 20-04-2009 21:04:53 17.6 C 5.7 g/m*3 17.6 C 0 km/h
3220 20-04-2009 21:16:54 17 C 5.5 g/m*3 17 C 0 km/h
3221 20-04-2009 21:28:54 16.7 C 5.68 g/m*3 16.7 C 0 km/h
3222 20-04-2009 21:40:54 16.3 C 5.69 g/m*3 16.3 C 0 km/h
3223 20-04-2009 21:52:53 16.1 C 5.89 g/m*3 16.1 C 0 km/h
3224 20-04-2009 22:04:54 15.9 C 5.69 g/m*3 15.9 C 0 km/h
3225 20-04-2009 22:16:53 15.5 C 5.68 g/m*3 15.5 C 0 km/h
Sensor: Nr:Datum:Temp:Abs-Feuchte:Windchill:Wind:
Aussen-T/F 3226 20-04-2009 22:28:53 15.2 C 5.58 g/m*3 15.2 C 0 km/h
3227 20-04-2009 22:41:55 14.8 C 5.7 g/m*3 14.8 C 0 km/h
3228 20-04-2009 22:53:55 14.6 C 5.76 g/m*3 14.6 C 0 km/h
3229 20-04-2009 23:05:55 14.2 C 5.74 g/m*3 14.2 C 0 km/h
3230 20-04-2009 23:17:55 14 C 5.79 g/m*3 14 C 0 km/h
3231 20-04-2009 23:29:55 13.7 C 5.8 g/m*3 13.7 C 0 km/h
3232 20-04-2009 23:41:55 13.7 C 5.92 g/m*3 13.7 C 0 km/h
3233 20-04-2009 23:53:55 13.6 C 5.77 g/m*3 13.6 C 0 km/h
3234 21-04-2009 00:05:55 13.2 C 5.63 g/m*3 13.2 C 0 km/h
3235 21-04-2009 00:17:55 13.2 C 5.74 g/m*3 13.2 C 0 km/h
3236 21-04-2009 00:29:55 12.9 C 5.75 g/m*3 12.9 C 0 km/h
3237 21-04-2009 00:41:55 12.8 C 5.71 g/m*3 12.8 C 0 km/h
3238 21-04-2009 00:53:55 12.5 C 5.72 g/m*3 12.5 C 0 km/h